Darstellungsparameter: Aktuell verwendete Einstellungen:
Skalierung der Graphiken ... ?
xyx+y,   Skalierungsfaktor:      Skalierung: Modus: x, Faktor: 1
Darstellungszeitraum ... ?
Vom - - bis: - -   Zeitraum: 28.12.2013 - 27.06.2014
Min/Max/Avg-Anzeige ... ?
Zeige MMA aktuell
Zeige MMA Monat
Zeige MMA alles
Zeige --A aktuell
Zeige --A Monat
Zeige --A alles
Keine MMA-Anzeige
MMA:
Average (ber die Originaldaten)
MMA-Basis: 26.05.2014 - 28.06.2014
Quicknavigation für Darstellung... ?
Tage:      1T, 2T, 3T, 5T -1T -2T -3T -5T +1T +2T +3T +5T
Wochen: 1W, 2W, 3W -1W -2W -3W +1W +2W +3W
Monate: 1M, 3M, 6M -1M -3M -6M +1M +3M +6M
Jahre:    1J, 3J, 5J, 10J -1J -3J -5J -10J +1J +3J +5J +10J
Nutze für die Darstellung ... ?
Originaldaten oder Mittelwerte auf ...
Stundenbasis Tagesbasis Wochenbasis
Monatsbasis Jahresbasis      Datenbasis: Original-Daten
Darstellen als:
Statistik (Auto) Statistik J:M      Darstellung:
Zur Graphik,    zurück zur Übersicht aller Sensoren.
 
Tabellarische Datenbersicht: ?
 
Sensor: Nr:Datum:Temp:Abs-Feuchte:Windchill:Wind:
Aussen-T/F 1 28-12-2013 00:00:00 9.8 C 8.44 g/m*3 9.8 C 4.8 km/h
2 28-12-2013 00:05:00 9.8 C 8.44 g/m*3 8.75 C 8.1 km/h
3 28-12-2013 00:10:00 9.8 C 8.44 g/m*3 9.8 C 3.2 km/h
4 28-12-2013 00:15:00 9.8 C 8.44 g/m*3 9.8 C 3.2 km/h
5 28-12-2013 00:20:00 9.7 C 8.3 g/m*3 9.7 C 4.8 km/h
6 28-12-2013 00:25:00 9.8 C 8.35 g/m*3 9.8 C 4.8 km/h
7 28-12-2013 00:30:00 9.8 C 8.44 g/m*3 9.14 C 6.4 km/h
8 28-12-2013 00:35:00 9.7 C 8.3 g/m*3 9.7 C 3.2 km/h
9 28-12-2013 00:40:00 9.7 C 8.39 g/m*3 9.7 C 4.8 km/h
10 28-12-2013 00:45:00 9.6 C 8.34 g/m*3 8.91 C 6.4 km/h
11 28-12-2013 00:50:00 9.6 C 8.34 g/m*3 9.6 C 4.8 km/h
12 28-12-2013 00:55:00 9.5 C 8.28 g/m*3 9.5 C 1.6 km/h
13 28-12-2013 01:00:00 9.5 C 8.28 g/m*3 9.5 C 3.2 km/h
14 28-12-2013 01:05:00 9.5 C 8.28 g/m*3 9.5 C 3.2 km/h
15 28-12-2013 01:10:00 9.5 C 8.28 g/m*3 9.5 C 3.2 km/h
16 28-12-2013 01:15:00 9.7 C 8.3 g/m*3 9.7 C 3.2 km/h
17 28-12-2013 01:20:00 9.8 C 8.35 g/m*3 9.8 C 3.2 km/h
18 28-12-2013 01:25:00 9.8 C 8.26 g/m*3 9.8 C 1.6 km/h
19 28-12-2013 01:30:00 10.1 C 8.32 g/m*3 9.48 C 6.4 km/h
20 28-12-2013 01:35:00 10.1 C 8.32 g/m*3 10.1 C 1.6 km/h
21 28-12-2013 01:40:00 10.1 C 8.32 g/m*3 10.1 C 0 km/h
22 28-12-2013 01:45:00 10.2 C 8.28 g/m*3 10.2 C 1.6 km/h
23 28-12-2013 01:50:00 10.3 C 8.04 g/m*3 9.72 C 6.4 km/h
24 28-12-2013 01:55:00 10.7 C 8.15 g/m*3 10.7 C 4.8 km/h
25 28-12-2013 02:00:00 10.9 C 8.16 g/m*3 10.04 C 8.1 km/h
Sensor: Nr:Datum:Temp:Abs-Feuchte:Windchill:Wind:
Aussen-T/F 26 28-12-2013 02:05:00 10.9 C 8.26 g/m*3 10.9 C 4.8 km/h
27 28-12-2013 02:10:00 10.9 C 8.16 g/m*3 10.9 C 4.8 km/h
28 28-12-2013 02:15:00 10.7 C 8.15 g/m*3 10.7 C 3.2 km/h
29 28-12-2013 02:20:00 10.8 C 8.01 g/m*3 10.8 C 3.2 km/h
30 28-12-2013 02:25:00 10.8 C 8.11 g/m*3 10.8 C 3.2 km/h
31 28-12-2013 02:30:00 10.8 C 7.91 g/m*3 9.16 C 12.9 km/h
32 28-12-2013 02:35:00 10.9 C 8.16 g/m*3 10.41 C 6.4 km/h
33 28-12-2013 02:40:00 10.9 C 8.06 g/m*3 10.41 C 6.4 km/h
34 28-12-2013 02:45:00 10.8 C 7.91 g/m*3 9.93 C 8.1 km/h
35 28-12-2013 02:50:00 10.9 C 7.96 g/m*3 9.76 C 9.7 km/h
36 28-12-2013 02:55:00 10.9 C 7.86 g/m*3 10.9 C 4.8 km/h
37 28-12-2013 03:00:00 10.9 C 7.96 g/m*3 10.9 C 4.8 km/h
38 28-12-2013 03:05:00 10.9 C 7.86 g/m*3 9.76 C 9.7 km/h
39 28-12-2013 03:10:00 10.9 C 7.86 g/m*3 10.9 C 3.2 km/h
40 28-12-2013 03:15:00 10.9 C 7.96 g/m*3 10.9 C 4.8 km/h
41 28-12-2013 03:20:00 10.8 C 7.91 g/m*3 10.29 C 6.4 km/h
42 28-12-2013 03:25:00 10.7 C 7.96 g/m*3 10.18 C 6.4 km/h
43 28-12-2013 03:30:00 10.8 C 7.91 g/m*3 10.29 C 6.4 km/h
44 28-12-2013 03:35:00 10.8 C 7.81 g/m*3 10.29 C 6.4 km/h
45 28-12-2013 03:40:00 10.8 C 7.91 g/m*3 10.8 C 4.8 km/h
46 28-12-2013 03:45:00 10.7 C 7.76 g/m*3 10.7 C 4.8 km/h
47 28-12-2013 03:50:00 10.6 C 7.81 g/m*3 10.6 C 4.8 km/h
48 28-12-2013 03:55:00 10.7 C 7.76 g/m*3 10.18 C 6.4 km/h
49 28-12-2013 04:00:00 10.7 C 7.86 g/m*3 10.7 C 4.8 km/h
50 28-12-2013 04:05:00 10.7 C 7.86 g/m*3 10.18 C 6.4 km/h
Sensor: Nr:Datum:Temp:Abs-Feuchte:Windchill:Wind:
Aussen-T/F 51 28-12-2013 04:10:00 10.7 C 7.76 g/m*3 10.7 C 4.8 km/h
52 28-12-2013 04:15:00 10.7 C 7.86 g/m*3 10.7 C 3.2 km/h
53 28-12-2013 04:20:00 10.6 C 7.81 g/m*3 10.6 C 4.8 km/h
54 28-12-2013 04:25:00 10.6 C 7.71 g/m*3 10.6 C 4.8 km/h
55 28-12-2013 04:30:00 10.4 C 7.71 g/m*3 10.4 C 4.8 km/h
56 28-12-2013 04:35:00 10.4 C 7.71 g/m*3 9.83 C 6.4 km/h
57 28-12-2013 04:40:00 10.5 C 7.66 g/m*3 10.5 C 3.2 km/h
58 28-12-2013 04:45:00 10.5 C 7.76 g/m*3 10.5 C 4.8 km/h
59 28-12-2013 04:50:00 10.4 C 7.71 g/m*3 10.4 C 4.8 km/h
60 28-12-2013 04:55:00 10.3 C 7.85 g/m*3 10.3 C 4.8 km/h
61 28-12-2013 05:00:00 10.2 C 7.99 g/m*3 10.2 C 3.2 km/h
62 28-12-2013 05:05:00 10 C 7.89 g/m*3 10 C 3.2 km/h
63 28-12-2013 05:10:00 10.1 C 7.94 g/m*3 10.1 C 3.2 km/h
64 28-12-2013 05:15:00 9.9 C 7.94 g/m*3 9.9 C 3.2 km/h
65 28-12-2013 05:20:00 9.8 C 7.79 g/m*3 9.8 C 1.6 km/h
66 28-12-2013 05:25:00 9.9 C 7.84 g/m*3 9.25 C 6.4 km/h
67 28-12-2013 05:30:00 9.9 C 8.03 g/m*3 9.9 C 1.6 km/h
68 28-12-2013 05:35:00 9.9 C 8.12 g/m*3 9.25 C 6.4 km/h
69 28-12-2013 05:40:00 9.9 C 7.94 g/m*3 8.3 C 11.3 km/h
70 28-12-2013 05:45:00 9.8 C 8.07 g/m*3 9.8 C 4.8 km/h
71 28-12-2013 05:50:00 9.8 C 8.16 g/m*3 9.8 C 1.6 km/h
72 28-12-2013 05:55:00 9.6 C 8.15 g/m*3 9.6 C 4.8 km/h
73 28-12-2013 06:00:00 9.3 C 8 g/m*3 8.56 C 6.4 km/h
74 28-12-2013 06:05:00 9.3 C 7.91 g/m*3 9.3 C 4.8 km/h
75 28-12-2013 06:10:00 9.4 C 8.05 g/m*3 8.68 C 6.4 km/h
Sensor: Nr:Datum:Temp:Abs-Feuchte:Windchill:Wind:
Aussen-T/F 76 28-12-2013 06:15:00 9.2 C 8.04 g/m*3 9.2 C 3.2 km/h
77 28-12-2013 06:20:00 9.1 C 8.07 g/m*3 9.1 C 3.2 km/h
78 28-12-2013 06:25:00 9 C 7.93 g/m*3 9 C 3.2 km/h
79 28-12-2013 06:30:00 9 C 7.93 g/m*3 9 C 4.8 km/h
80 28-12-2013 06:35:00 9.1 C 7.99 g/m*3 9.1 C 4.8 km/h
81 28-12-2013 06:40:00 9.2 C 7.77 g/m*3 9.2 C 3.2 km/h
82 28-12-2013 06:45:00 9.3 C 7.82 g/m*3 9.3 C 4.8 km/h
83 28-12-2013 06:50:00 9.3 C 7.91 g/m*3 9.3 C 3.2 km/h
84 28-12-2013 06:55:00 9.3 C 7.82 g/m*3 8.56 C 6.4 km/h
85 28-12-2013 07:00:00 9.3 C 7.91 g/m*3 9.3 C 3.2 km/h
86 28-12-2013 07:05:00 9.2 C 7.86 g/m*3 9.2 C 3.2 km/h
87 28-12-2013 07:10:00 9.2 C 7.86 g/m*3 9.2 C 1.6 km/h
88 28-12-2013 07:15:00 9.2 C 7.68 g/m*3 9.2 C 3.2 km/h
89 28-12-2013 07:20:00 9.4 C 7.87 g/m*3 9.4 C 1.6 km/h
90 28-12-2013 07:25:00 9.3 C 7.91 g/m*3 8.56 C 6.4 km/h
91 28-12-2013 07:30:00 9.4 C 7.87 g/m*3 9.4 C 4.8 km/h
92 28-12-2013 07:35:00 9.4 C 7.87 g/m*3 8.68 C 6.4 km/h
93 28-12-2013 07:40:00 9.3 C 7.91 g/m*3 9.3 C 1.6 km/h
94 28-12-2013 07:45:00 9.3 C 7.82 g/m*3 8.16 C 8.1 km/h
95 28-12-2013 07:50:00 9.4 C 7.96 g/m*3 9.4 C 4.8 km/h
96 28-12-2013 07:55:00 9.8 C 7.79 g/m*3 7.73 C 14.5 km/h
97 28-12-2013 08:00:00 10.1 C 7.94 g/m*3 10.1 C 3.2 km/h
98 28-12-2013 08:05:00 10.1 C 8.04 g/m*3 10.1 C 3.2 km/h
99 28-12-2013 08:10:00 10 C 8.08 g/m*3 9.37 C 6.4 km/h
100 28-12-2013 08:15:00 9.9 C 7.94 g/m*3 9.25 C 6.4 km/h
Sensor: Nr:Datum:Temp:Abs-Feuchte:Windchill:Wind:
Aussen-T/F 101 28-12-2013 08:20:00 10 C 7.89 g/m*3 8.42 C 11.3 km/h
102 28-12-2013 08:25:00 9.9 C 7.84 g/m*3 8.87 C 8.1 km/h
103 28-12-2013 08:30:00 10.1 C 7.94 g/m*3 7.91 C 16.1 km/h
104 28-12-2013 08:35:00 10.2 C 7.99 g/m*3 8.92 C 9.7 km/h
105 28-12-2013 08:40:00 10.2 C 7.99 g/m*3 9.22 C 8.1 km/h
106 28-12-2013 08:45:00 10.1 C 7.94 g/m*3 9.48 C 6.4 km/h
107 28-12-2013 08:50:00 10.1 C 7.94 g/m*3 9.48 C 6.4 km/h
108 28-12-2013 08:55:00 10.1 C 7.94 g/m*3 9.48 C 6.4 km/h
109 28-12-2013 09:00:00 10.1 C 7.94 g/m*3 8.54 C 11.3 km/h
110 28-12-2013 09:05:00 10.1 C 7.94 g/m*3 9.1 C 8.1 km/h
111 28-12-2013 09:10:00 10.1 C 7.94 g/m*3 8.54 C 11.3 km/h
112 28-12-2013 09:15:00 10 C 7.89 g/m*3 8.99 C 8.1 km/h
113 28-12-2013 09:20:00 10 C 7.89 g/m*3 8.99 C 8.1 km/h
114 28-12-2013 09:25:00 9.9 C 7.94 g/m*3 9.25 C 6.4 km/h
115 28-12-2013 09:30:00 9.9 C 7.94 g/m*3 9.9 C 4.8 km/h
116 28-12-2013 09:35:00 9.8 C 7.89 g/m*3 9.14 C 6.4 km/h
117 28-12-2013 09:40:00 9.8 C 7.89 g/m*3 9.8 C 3.2 km/h
118 28-12-2013 09:45:00 9.9 C 7.94 g/m*3 8.56 C 9.7 km/h
119 28-12-2013 09:50:00 9.9 C 7.94 g/m*3 8.06 C 12.9 km/h
120 28-12-2013 09:55:00 10 C 7.89 g/m*3 9.37 C 6.4 km/h
121 28-12-2013 10:00:00 10.1 C 7.94 g/m*3 7.91 C 16.1 km/h
122 28-12-2013 10:05:00 10.2 C 7.99 g/m*3 8.66 C 11.3 km/h
123 28-12-2013 10:10:00 10.3 C 8.04 g/m*3 8.55 C 12.9 km/h
124 28-12-2013 10:15:00 10.3 C 8.04 g/m*3 8.34 C 14.5 km/h
125 28-12-2013 10:20:00 10.3 C 8.04 g/m*3 8.55 C 12.9 km/h
Sensor: Nr:Datum:Temp:Abs-Feuchte:Windchill:Wind:
Aussen-T/F 126 28-12-2013 10:25:00 10.2 C 8.09 g/m*3 8.92 C 9.7 km/h
127 28-12-2013 10:30:00 10.2 C 8.09 g/m*3 8.92 C 9.7 km/h
128 28-12-2013 10:35:00 10.2 C 8.09 g/m*3 8.92 C 9.7 km/h
129 28-12-2013 10:40:00 10.3 C 8.14 g/m*3 9.04 C 9.7 km/h
130 28-12-2013 10:45:00 10.3 C 8.14 g/m*3 9.72 C 6.4 km/h
131 28-12-2013 10:50:00 10.3 C 8.14 g/m*3 10.3 C 4.8 km/h
132 28-12-2013 10:55:00 10.3 C 8.14 g/m*3 9.72 C 6.4 km/h
133 28-12-2013 11:00:00 10.3 C 8.14 g/m*3 10.3 C 3.2 km/h
134 28-12-2013 11:05:00 10.3 C 8.14 g/m*3 10.3 C 3.2 km/h
135 28-12-2013 11:10:00 10.3 C 8.04 g/m*3 9.34 C 8.1 km/h
136 28-12-2013 11:15:00 10.4 C 8.19 g/m*3 10.4 C 4.8 km/h
137 28-12-2013 11:20:00 10.4 C 8.19 g/m*3 10.4 C 3.2 km/h
138 28-12-2013 11:25:00 10.5 C 8.15 g/m*3 9.57 C 8.1 km/h
139 28-12-2013 11:30:00 10.6 C 8.3 g/m*3 10.6 C 4.8 km/h
140 28-12-2013 11:35:00 10.6 C 8.2 g/m*3 9.69 C 8.1 km/h
141 28-12-2013 11:40:00 10.6 C 8.2 g/m*3 9.69 C 8.1 km/h
142 28-12-2013 11:45:00 10.6 C 8.2 g/m*3 10.6 C 4.8 km/h
143 28-12-2013 11:50:00 10.6 C 8.2 g/m*3 10.06 C 6.4 km/h
144 28-12-2013 11:55:00 10.6 C 8.3 g/m*3 8.92 C 12.9 km/h
145 28-12-2013 12:00:00 10.4 C 8.38 g/m*3 9.16 C 9.7 km/h
146 28-12-2013 12:05:00 10.2 C 8.37 g/m*3 9.6 C 6.4 km/h
147 28-12-2013 12:10:00 10.1 C 8.51 g/m*3 10.1 C 3.2 km/h
148 28-12-2013 12:15:00 9.9 C 8.4 g/m*3 9.9 C 1.6 km/h
149 28-12-2013 12:20:00 9.9 C 8.5 g/m*3 9.9 C 3.2 km/h
150 28-12-2013 12:25:00 9.8 C 8.44 g/m*3 9.8 C 4.8 km/h
Sensor: Nr:Datum:Temp:Abs-Feuchte:Windchill:Wind:
Aussen-T/F 151 28-12-2013 12:30:00 9.7 C 8.48 g/m*3 9.7 C 1.6 km/h
152 28-12-2013 12:35:00 9.7 C 8.48 g/m*3 9.7 C 0 km/h
153 28-12-2013 12:40:00 9.6 C 8.43 g/m*3 9.6 C 0 km/h
154 28-12-2013 12:45:00 9.6 C 8.52 g/m*3 9.6 C 0 km/h
155 28-12-2013 12:50:00 9.6 C 8.52 g/m*3 9.6 C 0 km/h
156 28-12-2013 12:55:00 9.6 C 8.52 g/m*3 9.6 C 0 km/h
157 28-12-2013 13:00:00 9.6 C 8.52 g/m*3 9.6 C 3.2 km/h
158 28-12-2013 13:05:00 9.6 C 8.52 g/m*3 9.6 C 0 km/h
159 28-12-2013 13:10:00 9.6 C 8.52 g/m*3 9.6 C 0 km/h
160 28-12-2013 13:15:00 9.4 C 8.5 g/m*3 9.4 C 1.6 km/h
161 28-12-2013 13:20:00 9.4 C 8.5 g/m*3 9.4 C 0 km/h
162 28-12-2013 13:25:00 9.4 C 8.5 g/m*3 9.4 C 0 km/h
163 28-12-2013 13:30:00 9.4 C 8.5 g/m*3 9.4 C 0 km/h
164 28-12-2013 13:35:00 9.4 C 8.5 g/m*3 9.4 C 0 km/h
165 28-12-2013 13:40:00 9.4 C 8.5 g/m*3 9.4 C 0 km/h
166 28-12-2013 13:45:00 9.4 C 8.5 g/m*3 9.4 C 0 km/h
167 28-12-2013 13:50:00 9.4 C 8.5 g/m*3 9.4 C 0 km/h
168 28-12-2013 13:55:00 9.4 C 8.5 g/m*3 9.4 C 0 km/h
169 28-12-2013 14:00:00 9.4 C 8.59 g/m*3 9.4 C 0 km/h
170 28-12-2013 14:05:00 9.4 C 8.59 g/m*3 9.4 C 0 km/h
171 28-12-2013 14:10:00 9.4 C 8.59 g/m*3 9.4 C 1.6 km/h
172 28-12-2013 14:15:00 9.4 C 8.59 g/m*3 9.4 C 0 km/h
173 28-12-2013 14:20:00 9.4 C 8.59 g/m*3 9.4 C 0 km/h
174 28-12-2013 14:25:00 9.4 C 8.59 g/m*3 9.4 C 0 km/h
175 28-12-2013 14:30:00 9.4 C 8.59 g/m*3 9.4 C 0 km/h
Sensor: Nr:Datum:Temp:Abs-Feuchte:Windchill:Wind:
Aussen-T/F 176 28-12-2013 14:35:00 9.4 C 8.59 g/m*3 9.4 C 0 km/h
177 28-12-2013 14:40:00 9.3 C 8.54 g/m*3 9.3 C 0 km/h
178 28-12-2013 14:45:00 9.3 C 8.54 g/m*3 9.3 C 0 km/h
179 28-12-2013 14:50:00 9.3 C 8.54 g/m*3 9.3 C 0 km/h
180 28-12-2013 14:55:00 9.3 C 8.54 g/m*3 9.3 C 0 km/h
181 28-12-2013 15:00:00 9.3 C 8.54 g/m*3 9.3 C 0 km/h
182 28-12-2013 15:05:00 9.3 C 8.54 g/m*3 9.3 C 0 km/h
183 28-12-2013 15:10:00 9.3 C 8.63 g/m*3 9.3 C 0 km/h
184 28-12-2013 15:15:00 9.2 C 8.57 g/m*3 9.2 C 0 km/h
185 28-12-2013 15:20:00 9.3 C 8.63 g/m*3 9.3 C 0 km/h
186 28-12-2013 15:25:00 9.3 C 8.63 g/m*3 9.3 C 0 km/h
187 28-12-2013 15:30:00 9.2 C 8.57 g/m*3 9.2 C 0 km/h
188 28-12-2013 15:35:00 9.2 C 8.57 g/m*3 9.2 C 0 km/h
189 28-12-2013 15:40:00 9.2 C 8.57 g/m*3 9.2 C 0 km/h
190 28-12-2013 15:45:00 9.2 C 8.57 g/m*3 9.2 C 0 km/h
191 28-12-2013 15:50:00 9.2 C 8.57 g/m*3 9.2 C 0 km/h
192 28-12-2013 15:55:00 9.2 C 8.57 g/m*3 9.2 C 0 km/h
193 28-12-2013 16:00:00 9.2 C 8.57 g/m*3 9.2 C 0 km/h
194 28-12-2013 16:05:00 9.1 C 8.52 g/m*3 9.1 C 0 km/h
195 28-12-2013 16:10:00 9.1 C 8.52 g/m*3 9.1 C 0 km/h
196 28-12-2013 16:15:00 9 C 8.46 g/m*3 9 C 0 km/h
197 28-12-2013 16:20:00 8.9 C 8.41 g/m*3 8.9 C 0 km/h
198 28-12-2013 16:25:00 8.9 C 8.41 g/m*3 8.9 C 0 km/h
199 28-12-2013 16:30:00 8.8 C 8.36 g/m*3 8.8 C 0 km/h
200 28-12-2013 16:35:00 8.7 C 8.3 g/m*3 8.7 C 0 km/h
Sensor: Nr:Datum:Temp:Abs-Feuchte:Windchill:Wind:
Aussen-T/F 201 28-12-2013 16:40:00 8.7 C 8.3 g/m*3 8.7 C 0 km/h
202 28-12-2013 16:45:00 8.7 C 8.3 g/m*3 8.7 C 0 km/h
203 28-12-2013 16:50:00 8.7 C 8.39 g/m*3 8.7 C 0 km/h
204 28-12-2013 16:55:00 8.6 C 8.25 g/m*3 8.6 C 0 km/h
205 28-12-2013 17:00:00 8.6 C 8.25 g/m*3 8.6 C 0 km/h
206 28-12-2013 17:05:00 8.6 C 8.34 g/m*3 8.6 C 0 km/h
207 28-12-2013 17:10:00 8.6 C 8.34 g/m*3 8.6 C 0 km/h
208 28-12-2013 17:15:00 8.6 C 8.34 g/m*3 8.6 C 1.6 km/h
209 28-12-2013 17:20:00 8.6 C 8.34 g/m*3 8.6 C 0 km/h
210 28-12-2013 17:25:00 8.5 C 8.28 g/m*3 8.5 C 0 km/h
211 28-12-2013 17:30:00 8.6 C 8.34 g/m*3 8.6 C 0 km/h
212 28-12-2013 17:35:00 8.5 C 8.28 g/m*3 8.5 C 0 km/h
213 28-12-2013 17:40:00 8.4 C 8.23 g/m*3 8.4 C 0 km/h
214 28-12-2013 17:45:00 8.4 C 8.23 g/m*3 8.4 C 0 km/h
215 28-12-2013 17:50:00 8.4 C 8.23 g/m*3 8.4 C 0 km/h
216 28-12-2013 17:55:00 8.4 C 8.23 g/m*3 8.4 C 0 km/h
217 28-12-2013 18:00:00 8.4 C 8.23 g/m*3 8.4 C 0 km/h
218 28-12-2013 18:05:00 8.4 C 8.23 g/m*3 8.4 C 0 km/h
219 28-12-2013 18:10:00 8.3 C 8.18 g/m*3 8.3 C 0 km/h
220 28-12-2013 18:15:00 8.3 C 8.18 g/m*3 8.3 C 0 km/h
221 28-12-2013 18:20:00 8.3 C 8.18 g/m*3 8.3 C 0 km/h
222 28-12-2013 18:25:00 8.2 C 8.12 g/m*3 8.2 C 0 km/h
223 28-12-2013 18:30:00 8.2 C 8.12 g/m*3 8.2 C 0 km/h
224 28-12-2013 18:35:00 8.2 C 8.12 g/m*3 8.2 C 0 km/h
225 28-12-2013 18:40:00 8.2 C 8.12 g/m*3 8.2 C 0 km/h
Sensor: Nr:Datum:Temp:Abs-Feuchte:Windchill:Wind:
Aussen-T/F 226 28-12-2013 18:45:00 8.2 C 8.12 g/m*3 8.2 C 0 km/h
227 28-12-2013 18:50:00 8.1 C 8.07 g/m*3 8.1 C 0 km/h
228 28-12-2013 18:55:00 8.1 C 8.07 g/m*3 8.1 C 0 km/h
229 28-12-2013 19:00:00 8.1 C 8.07 g/m*3 8.1 C 0 km/h
230 28-12-2013 19:05:00 8 C 8.02 g/m*3 8 C 0 km/h
231 28-12-2013 19:10:00 8 C 8.02 g/m*3 8 C 0 km/h
232 28-12-2013 19:15:00 7.9 C 7.97 g/m*3 7.9 C 0 km/h
233 28-12-2013 19:20:00 7.9 C 7.97 g/m*3 7.9 C 0 km/h
234 28-12-2013 19:25:00 7.9 C 7.97 g/m*3 7.9 C 0 km/h
235 28-12-2013 19:30:00 7.9 C 7.97 g/m*3 7.9 C 1.6 km/h
236 28-12-2013 19:35:00 7.9 C 7.97 g/m*3 7.9 C 1.6 km/h
237 28-12-2013 19:40:00 7.9 C 7.97 g/m*3 7.9 C 1.6 km/h
238 28-12-2013 19:45:00 7.9 C 7.97 g/m*3 7.9 C 0 km/h
239 28-12-2013 19:50:00 7.9 C 7.97 g/m*3 7.9 C 0 km/h
240 28-12-2013 19:55:00 7.9 C 7.97 g/m*3 7.9 C 0 km/h
241 28-12-2013 20:00:00 7.9 C 7.97 g/m*3 7.9 C 0 km/h
242 28-12-2013 20:05:00 7.8 C 7.92 g/m*3 7.8 C 0 km/h
243 28-12-2013 20:10:00 7.8 C 7.92 g/m*3 7.8 C 0 km/h
244 28-12-2013 20:15:00 7.8 C 7.92 g/m*3 7.8 C 0 km/h
245 28-12-2013 20:20:00 7.8 C 7.92 g/m*3 7.8 C 0 km/h
246 28-12-2013 20:25:00 7.7 C 7.87 g/m*3 7.7 C 0 km/h
247 28-12-2013 20:30:00 7.7 C 7.87 g/m*3 7.7 C 1.6 km/h
248 28-12-2013 20:35:00 7.7 C 7.87 g/m*3 7.7 C 0 km/h
249 28-12-2013 20:40:00 7.7 C 7.87 g/m*3 7.7 C 0 km/h
250 28-12-2013 20:45:00 7.6 C 7.9 g/m*3 7.6 C 0 km/h
Sensor: Nr:Datum:Temp:Abs-Feuchte:Windchill:Wind:
Aussen-T/F 251 28-12-2013 20:50:00 7.7 C 7.95 g/m*3 7.7 C 0 km/h
252 28-12-2013 20:55:00 7.6 C 7.9 g/m*3 7.6 C 0 km/h
253 28-12-2013 21:00:00 7.6 C 7.9 g/m*3 7.6 C 0 km/h
254 28-12-2013 21:05:00 7.6 C 7.9 g/m*3 7.6 C 0 km/h
255 28-12-2013 21:10:00 7.6 C 7.9 g/m*3 7.6 C 3.2 km/h
256 28-12-2013 21:15:00 7.5 C 7.84 g/m*3 7.5 C 4.8 km/h
257 28-12-2013 21:20:00 7.4 C 7.71 g/m*3 6.37 C 6.4 km/h
258 28-12-2013 21:25:00 7.3 C 7.66 g/m*3 7.3 C 4.8 km/h
259 28-12-2013 21:30:00 7.2 C 7.61 g/m*3 7.2 C 4.8 km/h
260 28-12-2013 21:35:00 7.1 C 7.57 g/m*3 7.1 C 1.6 km/h
261 28-12-2013 21:40:00 7.1 C 7.57 g/m*3 7.1 C 3.2 km/h
262 28-12-2013 21:45:00 7.1 C 7.57 g/m*3 5.58 C 8.1 km/h
263 28-12-2013 21:50:00 7 C 7.44 g/m*3 5.46 C 8.1 km/h
264 28-12-2013 21:55:00 7 C 7.44 g/m*3 5.9 C 6.4 km/h
265 28-12-2013 22:00:00 6.9 C 7.39 g/m*3 6.9 C 4.8 km/h
266 28-12-2013 22:05:00 6.9 C 7.31 g/m*3 4.99 C 9.7 km/h
267 28-12-2013 22:10:00 6.8 C 7.27 g/m*3 4.56 C 11.3 km/h
268 28-12-2013 22:15:00 6.8 C 7.19 g/m*3 6.8 C 4.8 km/h
269 28-12-2013 22:20:00 6.8 C 7.19 g/m*3 6.8 C 4.8 km/h
270 28-12-2013 22:25:00 6.7 C 7.14 g/m*3 6.7 C 4.8 km/h
271 28-12-2013 22:30:00 6.6 C 7.1 g/m*3 6.6 C 1.6 km/h
272 28-12-2013 22:35:00 6.5 C 6.97 g/m*3 6.5 C 4.8 km/h
273 28-12-2013 22:40:00 6.4 C 6.93 g/m*3 6.4 C 4.8 km/h
274 28-12-2013 22:45:00 6.3 C 6.88 g/m*3 6.3 C 4.8 km/h
275 28-12-2013 22:50:00 6.2 C 6.84 g/m*3 6.2 C 4.8 km/h
Sensor: Nr:Datum:Temp:Abs-Feuchte:Windchill:Wind:
Aussen-T/F 276 28-12-2013 22:55:00 6.1 C 6.79 g/m*3 4.04 C 9.7 km/h
277 28-12-2013 23:00:00 5.9 C 6.71 g/m*3 3.8 C 9.7 km/h
278 28-12-2013 23:05:00 5.9 C 6.71 g/m*3 2.93 C 14.5 km/h
279 28-12-2013 23:10:00 5.8 C 6.66 g/m*3 3.07 C 12.9 km/h
280 28-12-2013 23:15:00 5.6 C 6.5 g/m*3 2.57 C 14.5 km/h
281 28-12-2013 23:20:00 5.4 C 6.35 g/m*3 2.32 C 14.5 km/h
282 28-12-2013 23:25:00 5.4 C 6.42 g/m*3 2.32 C 14.5 km/h
283 28-12-2013 23:30:00 5.3 C 6.38 g/m*3 2.75 C 11.3 km/h
284 28-12-2013 23:35:00 5.2 C 6.33 g/m*3 2.34 C 12.9 km/h
285 28-12-2013 23:40:00 5.1 C 6.36 g/m*3 2.84 C 9.7 km/h
286 28-12-2013 23:45:00 4.9 C 6.28 g/m*3 3.48 C 6.4 km/h
287 28-12-2013 23:50:00 4.8 C 6.24 g/m*3 1.85 C 12.9 km/h
288 28-12-2013 23:55:00 4.8 C 6.24 g/m*3 2.15 C 11.3 km/h
289 29-12-2013 00:00:00 4.8 C 6.24 g/m*3 2.87 C 8.1 km/h
290 29-12-2013 00:05:00 4.7 C 6.19 g/m*3 2.37 C 9.7 km/h
291 29-12-2013 00:10:00 4.7 C 6.26 g/m*3 4.7 C 4.8 km/h
292 29-12-2013 00:15:00 4.6 C 6.22 g/m*3 3.13 C 6.4 km/h
293 29-12-2013 00:20:00 4.6 C 6.22 g/m*3 2.25 C 9.7 km/h
294 29-12-2013 00:25:00 4.6 C 6.22 g/m*3 2.64 C 8.1 km/h
295 29-12-2013 00:30:00 4.6 C 6.15 g/m*3 2.64 C 8.1 km/h
296 29-12-2013 00:35:00 4.7 C 6.13 g/m*3 2.37 C 9.7 km/h
297 29-12-2013 00:40:00 4.7 C 6.19 g/m*3 4.7 C 4.8 km/h
298 29-12-2013 00:45:00 4.7 C 6.19 g/m*3 4.7 C 3.2 km/h
299 29-12-2013 00:50:00 4.7 C 6.26 g/m*3 4.7 C 3.2 km/h
300 29-12-2013 00:55:00 4.6 C 6.22 g/m*3 4.6 C 1.6 km/h
Sensor: Nr:Datum:Temp:Abs-Feuchte:Windchill:Wind:
Aussen-T/F 301 29-12-2013 01:00:00 4.6 C 6.29 g/m*3 4.6 C 0 km/h
302 29-12-2013 01:05:00 4.6 C 6.29 g/m*3 4.6 C 1.6 km/h
303 29-12-2013 01:10:00 4.5 C 6.24 g/m*3 4.5 C 1.6 km/h
304 29-12-2013 01:15:00 4.4 C 6.2 g/m*3 4.4 C 0 km/h
305 29-12-2013 01:20:00 4.4 C 6.2 g/m*3 4.4 C 0 km/h
306 29-12-2013 01:25:00 4.4 C 6.2 g/m*3 4.4 C 3.2 km/h
307 29-12-2013 01:30:00 4.4 C 6.2 g/m*3 4.4 C 0 km/h
308 29-12-2013 01:35:00 4.3 C 6.16 g/m*3 4.3 C 1.6 km/h
309 29-12-2013 01:40:00 4.3 C 6.16 g/m*3 4.3 C 4.8 km/h
310 29-12-2013 01:45:00 4.3 C 6.16 g/m*3 4.3 C 3.2 km/h
311 29-12-2013 01:50:00 4.3 C 6.16 g/m*3 4.3 C 4.8 km/h
312 29-12-2013 01:55:00 4.3 C 6.16 g/m*3 4.3 C 4.8 km/h
313 29-12-2013 02:00:00 4.3 C 6.16 g/m*3 2.29 C 8.1 km/h
314 29-12-2013 02:05:00 4.6 C 6.29 g/m*3 0.86 C 17.7 km/h
315 29-12-2013 02:10:00 4.8 C 6.3 g/m*3 0.9 C 19.3 km/h
316 29-12-2013 02:15:00 5.1 C 6.36 g/m*3 2.51 C 11.3 km/h
317 29-12-2013 02:20:00 5.2 C 6.33 g/m*3 2.07 C 14.5 km/h
318 29-12-2013 02:25:00 5.2 C 6.33 g/m*3 3.34 C 8.1 km/h
319 29-12-2013 02:30:00 5.2 C 6.33 g/m*3 2.96 C 9.7 km/h
320 29-12-2013 02:35:00 5.2 C 6.27 g/m*3 2.34 C 12.9 km/h
321 29-12-2013 02:40:00 5.3 C 6.31 g/m*3 2.46 C 12.9 km/h
322 29-12-2013 02:45:00 5.3 C 6.31 g/m*3 2.75 C 11.3 km/h
323 29-12-2013 02:50:00 5.3 C 6.24 g/m*3 2.75 C 11.3 km/h
324 29-12-2013 02:55:00 5.4 C 6.28 g/m*3 3.2 C 9.7 km/h
325 29-12-2013 03:00:00 5.3 C 6.24 g/m*3 3.46 C 8.1 km/h
Sensor: Nr:Datum:Temp:Abs-Feuchte:Windchill:Wind:
Aussen-T/F 326 29-12-2013 03:05:00 5.3 C 6.24 g/m*3 2.46 C 12.9 km/h
327 29-12-2013 03:10:00 5.3 C 6.24 g/m*3 2.46 C 12.9 km/h
328 29-12-2013 03:15:00 5.4 C 6.28 g/m*3 3.58 C 8.1 km/h
329 29-12-2013 03:20:00 5.4 C 6.28 g/m*3 3.58 C 8.1 km/h
330 29-12-2013 03:25:00 5.3 C 6.24 g/m*3 5.3 C 4.8 km/h
331 29-12-2013 03:30:00 5.3 C 6.31 g/m*3 3.94 C 6.4 km/h
332 29-12-2013 03:35:00 5.2 C 6.27 g/m*3 5.2 C 4.8 km/h
333 29-12-2013 03:40:00 5.2 C 6.27 g/m*3 3.82 C 6.4 km/h
334 29-12-2013 03:45:00 5.2 C 6.27 g/m*3 3.82 C 6.4 km/h
335 29-12-2013 03:50:00 5.3 C 6.31 g/m*3 5.3 C 4.8 km/h
336 29-12-2013 03:55:00 5.4 C 6.35 g/m*3 5.4 C 4.8 km/h
337 29-12-2013 04:00:00 5.4 C 6.35 g/m*3 5.4 C 4.8 km/h
338 29-12-2013 04:05:00 5.4 C 6.42 g/m*3 5.4 C 3.2 km/h
339 29-12-2013 04:10:00 5.4 C 6.35 g/m*3 5.4 C 4.8 km/h
340 29-12-2013 04:15:00 5.6 C 6.5 g/m*3 4.29 C 6.4 km/h
341 29-12-2013 04:20:00 5.6 C 6.43 g/m*3 3.81 C 8.1 km/h
342 29-12-2013 04:25:00 5.7 C 6.4 g/m*3 5.7 C 1.6 km/h
343 29-12-2013 04:30:00 5.7 C 6.48 g/m*3 5.7 C 3.2 km/h
344 29-12-2013 04:35:00 5.7 C 6.48 g/m*3 5.7 C 4.8 km/h
345 29-12-2013 04:40:00 5.7 C 6.48 g/m*3 3.23 C 11.3 km/h
346 29-12-2013 04:45:00 5.7 C 6.48 g/m*3 4.4 C 6.4 km/h
347 29-12-2013 04:50:00 5.7 C 6.48 g/m*3 5.7 C 3.2 km/h
348 29-12-2013 04:55:00 5.7 C 6.55 g/m*3 5.7 C 1.6 km/h
349 29-12-2013 05:00:00 5.6 C 6.5 g/m*3 5.6 C 3.2 km/h
350 29-12-2013 05:05:00 5.6 C 6.57 g/m*3 5.6 C 0 km/h
Sensor: Nr:Datum:Temp:Abs-Feuchte:Windchill:Wind:
Aussen-T/F 351 29-12-2013 05:10:00 5.5 C 6.53 g/m*3 5.5 C 0 km/h
352 29-12-2013 05:15:00 5.4 C 6.56 g/m*3 5.4 C 3.2 km/h
353 29-12-2013 05:20:00 5.4 C 6.56 g/m*3 5.4 C 0 km/h
354 29-12-2013 05:25:00 5.4 C 6.56 g/m*3 5.4 C 3.2 km/h
355 29-12-2013 05:30:00 5.5 C 6.6 g/m*3 5.5 C 0 km/h
356 29-12-2013 05:35:00 5.5 C 6.6 g/m*3 5.5 C 0 km/h
357 29-12-2013 05:40:00 5.5 C 6.67 g/m*3 5.5 C 0 km/h
358 29-12-2013 05:45:00 5.4 C 6.63 g/m*3 5.4 C 1.6 km/h
359 29-12-2013 05:50:00 5.4 C 6.63 g/m*3 5.4 C 3.2 km/h
360 29-12-2013 05:55:00 5.4 C 6.63 g/m*3 5.4 C 4.8 km/h
361 29-12-2013 06:00:00 5.5 C 6.67 g/m*3 5.5 C 4.8 km/h
362 29-12-2013 06:05:00 5.5 C 6.67 g/m*3 5.5 C 1.6 km/h
363 29-12-2013 06:10:00 5.6 C 6.65 g/m*3 3.81 C 8.1 km/h
364 29-12-2013 06:15:00 5.7 C 6.69 g/m*3 5.7 C 3.2 km/h
365 29-12-2013 06:20:00 5.7 C 6.69 g/m*3 5.7 C 1.6 km/h
366 29-12-2013 06:25:00 5.6 C 6.65 g/m*3 5.6 C 1.6 km/h
367 29-12-2013 06:30:00 5.6 C 6.72 g/m*3 5.6 C 0 km/h
368 29-12-2013 06:35:00 5.5 C 6.67 g/m*3 5.5 C 3.2 km/h
369 29-12-2013 06:40:00 5.5 C 6.67 g/m*3 5.5 C 4.8 km/h
370 29-12-2013 06:45:00 5.4 C 6.63 g/m*3 5.4 C 3.2 km/h
371 29-12-2013 06:50:00 5.3 C 6.58 g/m*3 3.94 C 6.4 km/h
372 29-12-2013 06:55:00 5.3 C 6.58 g/m*3 5.3 C 3.2 km/h
373 29-12-2013 07:00:00 5.2 C 6.54 g/m*3 5.2 C 3.2 km/h
374 29-12-2013 07:05:00 5.1 C 6.5 g/m*3 5.1 C 4.8 km/h
375 29-12-2013 07:10:00 5 C 6.46 g/m*3 5 C 4.8 km/h
Sensor: Nr:Datum:Temp:Abs-Feuchte:Windchill:Wind:
Aussen-T/F 376 29-12-2013 07:15:00 5.1 C 6.5 g/m*3 5.1 C 4.8 km/h
377 29-12-2013 07:20:00 5.1 C 6.5 g/m*3 5.1 C 4.8 km/h
378 29-12-2013 07:25:00 5.1 C 6.5 g/m*3 5.1 C 1.6 km/h
379 29-12-2013 07:30:00 5 C 6.46 g/m*3 5 C 1.6 km/h
380 29-12-2013 07:35:00 4.9 C 6.41 g/m*3 4.9 C 1.6 km/h
381 29-12-2013 07:40:00 4.9 C 6.41 g/m*3 4.9 C 3.2 km/h
382 29-12-2013 07:45:00 4.9 C 6.41 g/m*3 4.9 C 1.6 km/h
383 29-12-2013 07:50:00 5 C 6.52 g/m*3 5 C 1.6 km/h
384 29-12-2013 07:55:00 5 C 6.52 g/m*3 5 C 1.6 km/h
385 29-12-2013 08:00:00 5 C 6.52 g/m*3 5 C 1.6 km/h
386 29-12-2013 08:05:00 5.1 C 6.57 g/m*3 5.1 C 3.2 km/h
387 29-12-2013 08:10:00 5.1 C 6.57 g/m*3 5.1 C 3.2 km/h
388 29-12-2013 08:15:00 5.1 C 6.57 g/m*3 5.1 C 0 km/h
389 29-12-2013 08:20:00 5.1 C 6.57 g/m*3 5.1 C 1.6 km/h
390 29-12-2013 08:25:00 5.1 C 6.57 g/m*3 3.23 C 8.1 km/h
391 29-12-2013 08:30:00 5.1 C 6.57 g/m*3 5.1 C 3.2 km/h
392 29-12-2013 08:35:00 5.2 C 6.61 g/m*3 5.2 C 4.8 km/h
393 29-12-2013 08:40:00 5.2 C 6.61 g/m*3 5.2 C 1.6 km/h
394 29-12-2013 08:45:00 5.2 C 6.61 g/m*3 5.2 C 3.2 km/h
395 29-12-2013 08:50:00 5.1 C 6.57 g/m*3 5.1 C 3.2 km/h
396 29-12-2013 08:55:00 5 C 6.52 g/m*3 2.39 C 11.3 km/h
397 29-12-2013 09:00:00 5.1 C 6.5 g/m*3 5.1 C 4.8 km/h
398 29-12-2013 09:05:00 5.1 C 6.5 g/m*3 5.1 C 3.2 km/h
399 29-12-2013 09:10:00 5.1 C 6.5 g/m*3 5.1 C 3.2 km/h
400 29-12-2013 09:15:00 5 C 6.46 g/m*3 5 C 3.2 km/h
Sensor: Nr:Datum:Temp:Abs-Feuchte:Windchill:Wind:
Aussen-T/F 401 29-12-2013 09:20:00 5 C 6.46 g/m*3 5 C 3.2 km/h
402 29-12-2013 09:25:00 4.8 C 6.44 g/m*3 4.8 C 4.8 km/h
403 29-12-2013 09:30:00 4.8 C 6.44 g/m*3 3.36 C 6.4 km/h
404 29-12-2013 09:35:00 4.8 C 6.44 g/m*3 4.8 C 3.2 km/h
405 29-12-2013 09:40:00 4.8 C 6.44 g/m*3 4.8 C 4.8 km/h
406 29-12-2013 09:45:00 4.8 C 6.44 g/m*3 4.8 C 3.2 km/h
407 29-12-2013 09:50:00 4.9 C 6.48 g/m*3 4.9 C 4.8 km/h
408 29-12-2013 09:55:00 4.9 C 6.48 g/m*3 4.9 C 1.6 km/h
409 29-12-2013 10:00:00 4.9 C 6.48 g/m*3 4.9 C 4.8 km/h
410 29-12-2013 10:05:00 4.9 C 6.48 g/m*3 4.9 C 3.2 km/h
411 29-12-2013 10:10:00 4.9 C 6.48 g/m*3 4.9 C 4.8 km/h
412 29-12-2013 10:15:00 5 C 6.46 g/m*3 5 C 4.8 km/h
413 29-12-2013 10:20:00 5.1 C 6.5 g/m*3 5.1 C 4.8 km/h
414 29-12-2013 10:25:00 5.2 C 6.54 g/m*3 5.2 C 4.8 km/h
415 29-12-2013 10:30:00 5.2 C 6.47 g/m*3 3.34 C 8.1 km/h
416 29-12-2013 10:35:00 5.1 C 6.43 g/m*3 5.1 C 3.2 km/h
417 29-12-2013 10:40:00 5.1 C 6.43 g/m*3 3.71 C 6.4 km/h
418 29-12-2013 10:45:00 5.1 C 6.43 g/m*3 5.1 C 4.8 km/h
419 29-12-2013 13:25:00 7.1 C 6.63 g/m*3 4.65 C 12.9 km/h
420 29-12-2013 13:30:00 7.2 C 6.67 g/m*3 5.35 C 9.7 km/h
421 29-12-2013 13:35:00 7.2 C 6.67 g/m*3 5.35 C 9.7 km/h
422 29-12-2013 18:35:00 3.8 C 6.27 g/m*3 3.8 C 3.2 km/h
423 29-12-2013 18:40:00 3.8 C 6.27 g/m*3 3.8 C 3.2 km/h
424 29-12-2013 18:45:00 3.5 C 6.15 g/m*3 3.5 C 3.2 km/h
425 29-12-2013 18:50:00 3.5 C 6.15 g/m*3 3.5 C 4.8 km/h
Sensor: Nr:Datum:Temp:Abs-Feuchte:Windchill:Wind:
Aussen-T/F 426 29-12-2013 18:55:00 3.5 C 6.15 g/m*3 3.5 C 4.8 km/h
427 29-12-2013 21:50:00 3 C 5.59 g/m*3 3 C 3.2 km/h
428 29-12-2013 21:55:00 2.9 C 5.55 g/m*3 1.17 C 6.4 km/h
429 29-12-2013 22:00:00 2.9 C 5.55 g/m*3 2.9 C 1.6 km/h
430 29-12-2013 22:05:00 3 C 5.65 g/m*3 3 C 3.2 km/h
431 29-12-2013 22:10:00 3.2 C 5.79 g/m*3 0.99 C 8.1 km/h
432 29-12-2013 22:15:00 3.4 C 5.8 g/m*3 3.4 C 4.8 km/h
433 29-12-2013 22:20:00 3.5 C 5.84 g/m*3 1.34 C 8.1 km/h
434 29-12-2013 22:25:00 3.6 C 5.82 g/m*3 3.6 C 4.8 km/h
435 29-12-2013 22:30:00 3.6 C 5.82 g/m*3 3.6 C 4.8 km/h
436 29-12-2013 22:35:00 3.6 C 5.82 g/m*3 1.46 C 8.1 km/h
437 29-12-2013 22:40:00 3.6 C 5.76 g/m*3 3.6 C 4.8 km/h
438 29-12-2013 22:45:00 3.6 C 5.76 g/m*3 3.6 C 4.8 km/h
439 29-12-2013 22:50:00 3.3 C 5.64 g/m*3 3.3 C 3.2 km/h
440 29-12-2013 22:55:00 3.2 C 5.6 g/m*3 3.2 C 3.2 km/h
441 29-12-2013 23:00:00 2.9 C 5.49 g/m*3 2.9 C 3.2 km/h
442 29-12-2013 23:05:00 2.8 C 5.51 g/m*3 2.8 C 1.6 km/h
443 29-12-2013 23:10:00 2.7 C 5.48 g/m*3 2.7 C 1.6 km/h
444 29-12-2013 23:15:00 2.6 C 5.44 g/m*3 2.6 C 1.6 km/h
445 29-12-2013 23:20:00 2.6 C 5.5 g/m*3 2.6 C 3.2 km/h
446 29-12-2013 23:25:00 2.4 C 5.37 g/m*3 2.4 C 1.6 km/h
447 29-12-2013 23:30:00 2.4 C 5.42 g/m*3 2.4 C 0 km/h
448 29-12-2013 23:35:00 2.4 C 5.42 g/m*3 2.4 C 1.6 km/h
449 29-12-2013 23:40:00 2.6 C 5.56 g/m*3 2.6 C 3.2 km/h
450 29-12-2013 23:45:00 2.7 C 5.59 g/m*3 2.7 C 1.6 km/h
Sensor: Nr:Datum:Temp:Abs-Feuchte:Windchill:Wind:
Aussen-T/F 451 29-12-2013 23:50:00 2.8 C 5.63 g/m*3 2.8 C 1.6 km/h
452 29-12-2013 23:55:00 2.9 C 5.67 g/m*3 0.22 C 9.7 km/h
453 30-12-2013 00:00:00 3.1 C 5.75 g/m*3 0.87 C 8.1 km/h
454 30-12-2013 00:05:00 3.2 C 5.79 g/m*3 0.99 C 8.1 km/h
455 30-12-2013 00:10:00 3.3 C 5.76 g/m*3 1.63 C 6.4 km/h
456 30-12-2013 00:15:00 3.4 C 5.74 g/m*3 3.4 C 3.2 km/h
457 30-12-2013 00:20:00 3.3 C 5.7 g/m*3 3.3 C 1.6 km/h
458 30-12-2013 00:25:00 3.3 C 5.7 g/m*3 3.3 C 3.2 km/h
459 30-12-2013 00:30:00 3.2 C 5.6 g/m*3 3.2 C 1.6 km/h
460 30-12-2013 00:35:00 2.9 C 5.49 g/m*3 2.9 C 3.2 km/h
461 30-12-2013 00:40:00 2.8 C 5.51 g/m*3 2.8 C 3.2 km/h
462 30-12-2013 00:45:00 2.9 C 5.55 g/m*3 2.9 C 3.2 km/h
463 30-12-2013 00:50:00 3.1 C 5.69 g/m*3 3.1 C 0 km/h
464 30-12-2013 00:55:00 3.1 C 5.69 g/m*3 3.1 C 0 km/h
465 30-12-2013 01:00:00 3.2 C 5.72 g/m*3 3.2 C 1.6 km/h
466 30-12-2013 01:05:00 3.2 C 5.72 g/m*3 3.2 C 0 km/h
467 30-12-2013 01:10:00 3.3 C 5.76 g/m*3 3.3 C 0 km/h
468 30-12-2013 01:15:00 3.4 C 5.8 g/m*3 3.4 C 4.8 km/h
469 30-12-2013 01:20:00 3.6 C 5.82 g/m*3 3.6 C 1.6 km/h
470 30-12-2013 01:25:00 3.7 C 5.86 g/m*3 3.7 C 0 km/h
471 30-12-2013 01:30:00 3.7 C 5.86 g/m*3 3.7 C 0 km/h
472 30-12-2013 01:35:00 3.8 C 5.83 g/m*3 3.8 C 3.2 km/h
473 30-12-2013 01:40:00 3.9 C 5.81 g/m*3 1.41 C 9.7 km/h
474 30-12-2013 01:45:00 4.1 C 5.89 g/m*3 4.1 C 4.8 km/h
475 30-12-2013 01:50:00 4.2 C 5.86 g/m*3 4.2 C 4.8 km/h
Sensor: Nr:Datum:Temp:Abs-Feuchte:Windchill:Wind:
Aussen-T/F 476 30-12-2013 01:55:00 4.2 C 5.86 g/m*3 4.2 C 3.2 km/h
477 30-12-2013 02:00:00 4.2 C 5.86 g/m*3 4.2 C 3.2 km/h
478 30-12-2013 02:05:00 4.2 C 5.86 g/m*3 4.2 C 1.6 km/h
479 30-12-2013 02:10:00 4.2 C 5.93 g/m*3 4.2 C 3.2 km/h
480 30-12-2013 02:15:00 4.2 C 5.86 g/m*3 2.67 C 6.4 km/h
481 30-12-2013 02:20:00 4.3 C 5.84 g/m*3 2.78 C 6.4 km/h
482 30-12-2013 02:25:00 4.3 C 5.84 g/m*3 4.3 C 4.8 km/h
483 30-12-2013 02:30:00 4.3 C 5.84 g/m*3 4.3 C 1.6 km/h
484 30-12-2013 02:35:00 4.3 C 5.9 g/m*3 4.3 C 0 km/h
485 30-12-2013 02:40:00 4.3 C 5.84 g/m*3 2.78 C 6.4 km/h
486 30-12-2013 02:45:00 4.3 C 5.84 g/m*3 4.3 C 3.2 km/h
487 30-12-2013 02:50:00 4.3 C 5.84 g/m*3 4.3 C 1.6 km/h
488 30-12-2013 02:55:00 4.3 C 5.84 g/m*3 4.3 C 4.8 km/h
489 30-12-2013 03:00:00 4.3 C 5.84 g/m*3 4.3 C 3.2 km/h
490 30-12-2013 03:05:00 4.1 C 5.82 g/m*3 4.1 C 3.2 km/h
491 30-12-2013 03:10:00 4 C 5.79 g/m*3 4 C 3.2 km/h
492 30-12-2013 03:15:00 4 C 5.79 g/m*3 2.44 C 6.4 km/h
493 30-12-2013 03:20:00 4 C 5.72 g/m*3 4 C 3.2 km/h
494 30-12-2013 03:25:00 3.8 C 5.71 g/m*3 3.8 C 4.8 km/h
495 30-12-2013 03:30:00 3.7 C 5.67 g/m*3 3.7 C 3.2 km/h
496 30-12-2013 03:35:00 3.7 C 5.73 g/m*3 3.7 C 3.2 km/h
497 30-12-2013 03:40:00 3.7 C 5.73 g/m*3 3.7 C 1.6 km/h
498 30-12-2013 03:45:00 3.7 C 5.73 g/m*3 3.7 C 3.2 km/h
499 30-12-2013 03:50:00 3.8 C 5.77 g/m*3 3.8 C 3.2 km/h
500 30-12-2013 03:55:00 3.9 C 5.75 g/m*3 2.32 C 6.4 km/h
Sensor: Nr:Datum:Temp:Abs-Feuchte:Windchill:Wind:
Aussen-T/F 501 30-12-2013 04:00:00 4 C 5.85 g/m*3 4 C 4.8 km/h
502 30-12-2013 04:05:00 4 C 5.85 g/m*3 4 C 3.2 km/h
503 30-12-2013 04:10:00 4.1 C 5.82 g/m*3 4.1 C 3.2 km/h
504 30-12-2013 04:15:00 4.2 C 5.8 g/m*3 1.77 C 9.7 km/h
505 30-12-2013 04:20:00 4.3 C 5.84 g/m*3 4.3 C 3.2 km/h
506 30-12-2013 04:25:00 4.3 C 5.84 g/m*3 4.3 C 0 km/h
507 30-12-2013 04:30:00 4.4 C 5.75 g/m*3 4.4 C 3.2 km/h
508 30-12-2013 04:35:00 4.5 C 5.78 g/m*3 4.5 C 3.2 km/h
509 30-12-2013 04:40:00 4.6 C 5.76 g/m*3 4.6 C 3.2 km/h
510 30-12-2013 04:45:00 4.6 C 5.76 g/m*3 4.6 C 3.2 km/h
511 30-12-2013 04:50:00 4.6 C 5.76 g/m*3 4.6 C 1.6 km/h
512 30-12-2013 04:55:00 4.6 C 5.76 g/m*3 4.6 C 4.8 km/h
513 30-12-2013 05:00:00 4.6 C 5.76 g/m*3 4.6 C 3.2 km/h
514 30-12-2013 05:05:00 4.7 C 5.73 g/m*3 4.7 C 4.8 km/h
515 30-12-2013 05:10:00 4.7 C 5.73 g/m*3 2.76 C 8.1 km/h
516 30-12-2013 05:15:00 4.8 C 5.7 g/m*3 4.8 C 3.2 km/h
517 30-12-2013 05:20:00 4.7 C 5.73 g/m*3 3.25 C 6.4 km/h
518 30-12-2013 05:25:00 4.7 C 5.66 g/m*3 4.7 C 3.2 km/h
519 30-12-2013 05:30:00 4.7 C 5.73 g/m*3 4.7 C 0 km/h
520 30-12-2013 05:35:00 4.7 C 5.8 g/m*3 4.7 C 1.6 km/h
521 30-12-2013 05:40:00 4.6 C 5.76 g/m*3 4.6 C 3.2 km/h
522 30-12-2013 05:45:00 4.6 C 5.76 g/m*3 4.6 C 0 km/h
523 30-12-2013 05:50:00 4.6 C 5.89 g/m*3 4.6 C 1.6 km/h
524 30-12-2013 05:55:00 4.6 C 5.89 g/m*3 4.6 C 1.6 km/h
525 30-12-2013 06:35:00 4.8 C 5.7 g/m*3 4.8 C 4.8 km/h
Sensor: Nr:Datum:Temp:Abs-Feuchte:Windchill:Wind:
Aussen-T/F 526 30-12-2013 06:40:00 4.9 C 5.67 g/m*3 4.9 C 3.2 km/h
527 30-12-2013 06:45:00 4.8 C 5.63 g/m*3 4.8 C 3.2 km/h
528 30-12-2013 06:50:00 4.8 C 5.7 g/m*3 4.8 C 0 km/h
529 30-12-2013 06:55:00 4.8 C 5.7 g/m*3 4.8 C 4.8 km/h
530 30-12-2013 07:00:00 4.8 C 5.63 g/m*3 3.36 C 6.4 km/h
531 30-12-2013 07:05:00 4.8 C 5.63 g/m*3 4.8 C 3.2 km/h
532 30-12-2013 07:10:00 4.8 C 5.63 g/m*3 4.8 C 0 km/h
533 30-12-2013 13:05:00 6 C 5.81 g/m*3 3.92 C 9.7 km/h
534 30-12-2013 13:10:00 6 C 5.81 g/m*3 6 C 3.2 km/h
535 30-12-2013 14:15:00 5.8 C 5.73 g/m*3 4.52 C 6.4 km/h
536 30-12-2013 14:20:00 5.8 C 5.73 g/m*3 5.8 C 3.2 km/h
537 30-12-2013 14:25:00 5.8 C 5.73 g/m*3 5.8 C 1.6 km/h
538 30-12-2013 14:30:00 5.8 C 5.73 g/m*3 5.8 C 4.8 km/h
539 30-12-2013 14:35:00 5.8 C 5.95 g/m*3 4.52 C 6.4 km/h
540 30-12-2013 14:40:00 5.7 C 5.91 g/m*3 5.7 C 0 km/h
541 30-12-2013 14:45:00 5.7 C 5.91 g/m*3 5.7 C 0 km/h
542 30-12-2013 15:40:00 4.7 C 5.86 g/m*3 4.7 C 3.2 km/h
543 30-12-2013 15:45:00 4.7 C 5.86 g/m*3 4.7 C 3.2 km/h
544 30-12-2013 15:50:00 4.7 C 5.86 g/m*3 4.7 C 3.2 km/h
545 30-12-2013 15:55:00 4.7 C 5.86 g/m*3 4.7 C 0 km/h
546 30-12-2013 16:00:00 4.2 C 5.8 g/m*3 4.2 C 1.6 km/h
547 30-12-2013 16:05:00 4.2 C 5.8 g/m*3 4.2 C 1.6 km/h
548 30-12-2013 18:30:00 4.1 C 5.76 g/m*3 4.1 C 4.8 km/h
549 30-12-2013 18:35:00 4.2 C 5.8 g/m*3 4.2 C 3.2 km/h
550 30-12-2013 18:40:00 4.2 C 5.8 g/m*3 4.2 C 0 km/h
Sensor: Nr:Datum:Temp:Abs-Feuchte:Windchill:Wind:
Aussen-T/F 551 30-12-2013 20:50:00 3.7 C 5.73 g/m*3 3.7 C 0 km/h
552 30-12-2013 20:55:00 3.7 C 5.73 g/m*3 3.7 C 0 km/h
553 30-12-2013 21:00:00 3.7 C 5.73 g/m*3 3.7 C 0 km/h
554 30-12-2013 21:05:00 3.7 C 5.73 g/m*3 3.7 C 0 km/h
555 30-12-2013 21:10:00 3.7 C 5.73 g/m*3 3.7 C 0 km/h
556 30-12-2013 21:15:00 3.7 C 5.73 g/m*3 3.7 C 0 km/h
557 30-12-2013 21:20:00 3.7 C 5.73 g/m*3 3.7 C 0 km/h
558 30-12-2013 21:25:00 3.7 C 5.73 g/m*3 3.7 C 0 km/h
559 30-12-2013 21:30:00 3.7 C 5.73 g/m*3 3.7 C 0 km/h
560 30-12-2013 21:35:00 3.7 C 5.73 g/m*3 3.7 C 0 km/h
561 30-12-2013 21:40:00 3.7 C 5.73 g/m*3 3.7 C 0 km/h
562 30-12-2013 21:45:00 3.7 C 5.73 g/m*3 3.7 C 0 km/h
563 30-12-2013 21:50:00 3.7 C 5.73 g/m*3 3.7 C 0 km/h
564 30-12-2013 21:55:00 3.8 C 5.77 g/m*3 3.8 C 0 km/h
565 30-12-2013 22:00:00 3.8 C 5.77 g/m*3 3.8 C 0 km/h
566 30-12-2013 22:05:00 3.8 C 5.77 g/m*3 3.8 C 0 km/h
567 30-12-2013 22:10:00 3.8 C 5.77 g/m*3 3.8 C 0 km/h
568 30-12-2013 22:15:00 3.8 C 5.77 g/m*3 3.8 C 1.6 km/h
569 30-12-2013 22:20:00 3.8 C 5.77 g/m*3 3.8 C 1.6 km/h
570 30-12-2013 22:25:00 3.8 C 5.77 g/m*3 3.8 C 0 km/h
571 30-12-2013 22:30:00 3.8 C 5.77 g/m*3 3.8 C 0 km/h
572 30-12-2013 22:35:00 3.8 C 5.77 g/m*3 3.8 C 0 km/h
573 30-12-2013 22:40:00 3.8 C 5.77 g/m*3 3.8 C 1.6 km/h
574 31-12-2013 01:45:00 3.4 C 5.56 g/m*3 3.4 C 3.2 km/h
575 31-12-2013 01:50:00 3.3 C 5.52 g/m*3 3.3 C 3.2 km/h
Sensor: Nr:Datum:Temp:Abs-Feuchte:Windchill:Wind:
Aussen-T/F 576 31-12-2013 01:55:00 3.3 C 5.52 g/m*3 3.3 C 3.2 km/h
577 31-12-2013 02:00:00 3.2 C 5.48 g/m*3 3.2 C 3.2 km/h
578 31-12-2013 02:05:00 3.2 C 5.48 g/m*3 3.2 C 3.2 km/h
579 31-12-2013 07:05:00 1.1 C 5.23 g/m*3 1.1 C 1.6 km/h
580 31-12-2013 07:10:00 1.1 C 4.96 g/m*3 1.1 C 1.6 km/h
581 31-12-2013 07:15:00 1.1 C 4.91 g/m*3 1.1 C 1.6 km/h
582 31-12-2013 07:20:00 1.1 C 4.96 g/m*3 1.1 C 3.2 km/h
583 31-12-2013 07:25:00 1 C 4.93 g/m*3 1 C 1.6 km/h
584 31-12-2013 07:30:00 1 C 4.93 g/m*3 1 C 0 km/h
585 31-12-2013 07:35:00 1 C 4.93 g/m*3 1 C 1.6 km/h
586 31-12-2013 07:40:00 1 C 4.93 g/m*3 1 C 3.2 km/h
587 31-12-2013 07:45:00 1 C 4.93 g/m*3 1 C 3.2 km/h
588 31-12-2013 07:50:00 0.9 C 4.9 g/m*3 0.9 C 1.6 km/h
589 31-12-2013 07:55:00 1 C 4.93 g/m*3 1 C 3.2 km/h
590 31-12-2013 08:00:00 1 C 4.93 g/m*3 1 C 0 km/h
591 31-12-2013 08:05:00 1 C 4.93 g/m*3 1 C 1.6 km/h
592 31-12-2013 08:10:00 1.1 C 4.96 g/m*3 1.1 C 0 km/h
593 31-12-2013 08:15:00 1.1 C 4.96 g/m*3 1.1 C 1.6 km/h
594 31-12-2013 08:20:00 1.1 C 4.96 g/m*3 1.1 C 0 km/h
595 31-12-2013 08:25:00 1 C 4.93 g/m*3 1 C 0 km/h
596 31-12-2013 08:30:00 1 C 4.93 g/m*3 1 C 0 km/h
597 31-12-2013 08:35:00 1 C 4.93 g/m*3 1 C 0 km/h
598 31-12-2013 08:40:00 1 C 4.93 g/m*3 1 C 0 km/h
599 31-12-2013 08:45:00 1.1 C 4.96 g/m*3 1.1 C 0 km/h
600 31-12-2013 08:50:00 1.2 C 5.05 g/m*3 1.2 C 1.6 km/h
Sensor: Nr:Datum:Temp:Abs-Feuchte:Windchill:Wind:
Aussen-T/F 601 31-12-2013 08:55:00 1.3 C 5.09 g/m*3 1.3 C 0 km/h
602 31-12-2013 09:00:00 1.3 C 5.09 g/m*3 1.3 C 0 km/h
603 31-12-2013 09:05:00 1.2 C 5 g/m*3 1.2 C 0 km/h
604 31-12-2013 09:10:00 1.2 C 5 g/m*3 1.2 C 0 km/h
605 31-12-2013 09:15:00 1.2 C 5 g/m*3 1.2 C 1.6 km/h
606 31-12-2013 09:20:00 1.1 C 4.96 g/m*3 1.1 C 0 km/h
607 31-12-2013 09:25:00 1.1 C 4.96 g/m*3 1.1 C 0 km/h
608 31-12-2013 09:30:00 1.1 C 4.96 g/m*3 1.1 C 0 km/h
609 31-12-2013 09:35:00 1.1 C 4.96 g/m*3 1.1 C 0 km/h
610 31-12-2013 09:40:00 1.1 C 5.02 g/m*3 1.1 C 0 km/h
611 31-12-2013 09:45:00 1.1 C 4.96 g/m*3 1.1 C 0 km/h
612 31-12-2013 09:50:00 1.1 C 5.02 g/m*3 1.1 C 0 km/h
613 31-12-2013 09:55:00 1.2 C 5.05 g/m*3 1.2 C 0 km/h
614 31-12-2013 10:00:00 1.2 C 5.05 g/m*3 1.2 C 0 km/h
615 31-12-2013 10:05:00 1.3 C 5.09 g/m*3 1.3 C 1.6 km/h
616 31-12-2013 10:10:00 1.4 C 5.12 g/m*3 1.4 C 0 km/h
617 31-12-2013 10:15:00 1.5 C 5.16 g/m*3 1.5 C 1.6 km/h
618 31-12-2013 10:20:00 1.6 C 5.19 g/m*3 1.6 C 0 km/h
619 31-12-2013 10:25:00 1.7 C 5.23 g/m*3 1.7 C 0 km/h
620 31-12-2013 10:30:00 1.8 C 5.26 g/m*3 1.8 C 0 km/h
621 31-12-2013 10:35:00 1.9 C 5.3 g/m*3 1.9 C 0 km/h
622 31-12-2013 10:40:00 2.1 C 5.37 g/m*3 2.1 C 0 km/h
623 31-12-2013 10:45:00 2.2 C 5.41 g/m*3 2.2 C 0 km/h
624 31-12-2013 10:50:00 2.3 C 5.44 g/m*3 2.3 C 0 km/h
625 31-12-2013 10:55:00 2.4 C 5.48 g/m*3 2.4 C 0 km/h
Sensor: Nr:Datum:Temp:Abs-Feuchte:Windchill:Wind:
Aussen-T/F 626 31-12-2013 11:00:00 2.5 C 5.52 g/m*3 2.5 C 0 km/h
627 31-12-2013 11:05:00 2.6 C 5.56 g/m*3 2.6 C 0 km/h
628 31-12-2013 11:10:00 2.8 C 5.57 g/m*3 2.8 C 0 km/h
629 31-12-2013 11:15:00 2.8 C 5.57 g/m*3 2.8 C 0 km/h
630 31-12-2013 11:20:00 2.8 C 5.57 g/m*3 2.8 C 3.2 km/h
631 31-12-2013 12:15:00 3.1 C 5.99 g/m*3 3.1 C 1.6 km/h
632 31-12-2013 12:20:00 3.1 C 5.99 g/m*3 3.1 C 3.2 km/h
633 31-12-2013 12:25:00 3.1 C 5.57 g/m*3 3.1 C 1.6 km/h
634 31-12-2013 12:30:00 3.1 C 5.57 g/m*3 3.1 C 3.2 km/h
635 31-12-2013 13:35:00 4.3 C 5.9 g/m*3 4.3 C 1.6 km/h
636 31-12-2013 13:40:00 4.3 C 5.9 g/m*3 4.3 C 1.6 km/h
637 31-12-2013 13:45:00 4.4 C 5.94 g/m*3 4.4 C 1.6 km/h
638 31-12-2013 13:50:00 4.4 C 5.94 g/m*3 4.4 C 0 km/h
639 31-12-2013 18:15:00 3.9 C 5.43 g/m*3 3.9 C 4.8 km/h
640 31-12-2013 18:20:00 3.9 C 5.37 g/m*3 3.9 C 4.8 km/h
641 31-12-2013 18:25:00 3.9 C 5.37 g/m*3 2.32 C 6.4 km/h
642 31-12-2013 18:30:00 4 C 5.4 g/m*3 0.34 C 16.1 km/h
643 31-12-2013 18:35:00 4.2 C 5.41 g/m*3 1.77 C 9.7 km/h
644 31-12-2013 18:40:00 4.3 C 5.38 g/m*3 1.24 C 12.9 km/h
645 31-12-2013 18:45:00 4.3 C 5.38 g/m*3 2.29 C 8.1 km/h
646 31-12-2013 18:50:00 4.4 C 5.42 g/m*3 2.9 C 6.4 km/h
647 31-12-2013 18:55:00 4.4 C 5.42 g/m*3 2.01 C 9.7 km/h
648 31-12-2013 19:00:00 4.4 C 5.35 g/m*3 2.9 C 6.4 km/h
649 31-12-2013 19:05:00 4.5 C 5.39 g/m*3 2.13 C 9.7 km/h
650 31-12-2013 19:10:00 4.6 C 5.43 g/m*3 3.13 C 6.4 km/h
Sensor: Nr:Datum:Temp:Abs-Feuchte:Windchill:Wind:
Aussen-T/F 651 31-12-2013 19:15:00 4.6 C 5.36 g/m*3 1.91 C 11.3 km/h
652 31-12-2013 19:20:00 4.7 C 5.4 g/m*3 2.37 C 9.7 km/h
653 31-12-2013 19:25:00 4.7 C 5.4 g/m*3 2.03 C 11.3 km/h
654 31-12-2013 19:30:00 4.6 C 5.36 g/m*3 3.13 C 6.4 km/h
655 31-12-2013 19:35:00 4.6 C 5.36 g/m*3 4.6 C 4.8 km/h
656 31-12-2013 19:40:00 4.6 C 5.36 g/m*3 3.13 C 6.4 km/h
657 31-12-2013 19:45:00 4.6 C 5.36 g/m*3 2.64 C 8.1 km/h
658 31-12-2013 19:50:00 4.7 C 5.4 g/m*3 2.03 C 11.3 km/h
659 31-12-2013 19:55:00 4.7 C 5.4 g/m*3 2.76 C 8.1 km/h
660 31-12-2013 20:00:00 4.6 C 5.36 g/m*3 2.64 C 8.1 km/h
661 31-12-2013 20:05:00 4.6 C 5.43 g/m*3 3.13 C 6.4 km/h
662 31-12-2013 20:10:00 4.5 C 5.39 g/m*3 2.52 C 8.1 km/h
663 31-12-2013 20:15:00 4.4 C 5.35 g/m*3 2.4 C 8.1 km/h
664 31-12-2013 20:20:00 4.4 C 5.35 g/m*3 2.9 C 6.4 km/h
665 31-12-2013 20:25:00 4.4 C 5.35 g/m*3 2.4 C 8.1 km/h
666 31-12-2013 20:30:00 4.4 C 5.42 g/m*3 2.9 C 6.4 km/h
667 31-12-2013 20:35:00 4.3 C 5.38 g/m*3 4.3 C 3.2 km/h
668 31-12-2013 20:40:00 4.2 C 5.41 g/m*3 4.2 C 3.2 km/h
669 31-12-2013 20:45:00 4.2 C 5.35 g/m*3 4.2 C 3.2 km/h
670 31-12-2013 20:50:00 4.2 C 5.41 g/m*3 4.2 C 3.2 km/h
671 31-12-2013 20:55:00 4.1 C 5.44 g/m*3 4.1 C 3.2 km/h
672 31-12-2013 21:00:00 4 C 5.4 g/m*3 4 C 1.6 km/h
673 31-12-2013 21:05:00 3.9 C 5.37 g/m*3 3.9 C 3.2 km/h
674 31-12-2013 21:10:00 3.9 C 5.37 g/m*3 3.9 C 3.2 km/h
675 31-12-2013 21:15:00 4 C 5.4 g/m*3 4 C 3.2 km/h
Sensor: Nr:Datum:Temp:Abs-Feuchte:Windchill:Wind:
Aussen-T/F 676 31-12-2013 21:20:00 3.9 C 5.43 g/m*3 3.9 C 0 km/h
677 31-12-2013 21:25:00 3.9 C 5.43 g/m*3 3.9 C 0 km/h
678 31-12-2013 21:30:00 3.9 C 5.43 g/m*3 3.9 C 4.8 km/h
679 31-12-2013 21:35:00 3.8 C 5.4 g/m*3 3.8 C 1.6 km/h
680 31-12-2013 21:40:00 3.9 C 5.37 g/m*3 3.9 C 3.2 km/h
681 31-12-2013 21:45:00 3.9 C 5.37 g/m*3 3.9 C 1.6 km/h
682 31-12-2013 21:50:00 4 C 5.4 g/m*3 4 C 4.8 km/h
683 31-12-2013 21:55:00 4 C 5.34 g/m*3 1.18 C 11.3 km/h
684 31-12-2013 22:00:00 4.2 C 5.35 g/m*3 1.77 C 9.7 km/h
685 31-12-2013 22:05:00 4.2 C 5.35 g/m*3 2.17 C 8.1 km/h
686 31-12-2013 22:10:00 4.2 C 5.35 g/m*3 4.2 C 4.8 km/h
687 31-12-2013 22:15:00 4.1 C 5.38 g/m*3 2.55 C 6.4 km/h
688 31-12-2013 22:20:00 4.1 C 5.38 g/m*3 2.55 C 6.4 km/h
689 31-12-2013 22:25:00 3.9 C 5.31 g/m*3 3.9 C 3.2 km/h
690 31-12-2013 22:30:00 3.9 C 5.31 g/m*3 3.9 C 3.2 km/h
691 31-12-2013 22:35:00 3.7 C 5.23 g/m*3 3.7 C 3.2 km/h
692 31-12-2013 22:40:00 3.5 C 5.23 g/m*3 3.5 C 1.6 km/h
693 31-12-2013 22:45:00 3.3 C 5.22 g/m*3 3.3 C 3.2 km/h
694 31-12-2013 22:50:00 3.3 C 5.16 g/m*3 3.3 C 3.2 km/h
695 31-12-2013 22:55:00 3.2 C 5.18 g/m*3 3.2 C 1.6 km/h
696 31-12-2013 23:00:00 3.1 C 5.21 g/m*3 3.1 C 3.2 km/h
697 31-12-2013 23:05:00 2.9 C 5.2 g/m*3 2.9 C 3.2 km/h
698 31-12-2013 23:10:00 2.8 C 5.22 g/m*3 2.8 C 3.2 km/h
699 31-12-2013 23:15:00 2.7 C 5.19 g/m*3 2.7 C 1.6 km/h
700 31-12-2013 23:20:00 2.8 C 5.28 g/m*3 2.8 C 3.2 km/h
Sensor: Nr:Datum:Temp:Abs-Feuchte:Windchill:Wind:
Aussen-T/F 701 31-12-2013 23:25:00 2.8 C 5.28 g/m*3 2.8 C 1.6 km/h
702 31-12-2013 23:30:00 2.8 C 5.22 g/m*3 2.8 C 1.6 km/h
703 31-12-2013 23:35:00 2.8 C 5.28 g/m*3 2.8 C 0 km/h
704 31-12-2013 23:40:00 2.7 C 5.24 g/m*3 2.7 C 3.2 km/h
705 31-12-2013 23:45:00 2.7 C 5.24 g/m*3 2.7 C 1.6 km/h
706 31-12-2013 23:50:00 2.6 C 5.21 g/m*3 2.6 C 1.6 km/h
707 31-12-2013 23:55:00 2.6 C 5.21 g/m*3 2.6 C 1.6 km/h
708 01-01-2014 00:00:00 2.6 C 5.21 g/m*3 2.6 C 1.6 km/h
709 01-01-2014 00:05:00 2.6 C 5.21 g/m*3 2.6 C 1.6 km/h
710 01-01-2014 00:10:00 2.7 C 5.19 g/m*3 2.7 C 1.6 km/h
711 01-01-2014 00:15:00 2.7 C 5.19 g/m*3 2.7 C 3.2 km/h
712 01-01-2014 00:20:00 2.7 C 5.19 g/m*3 2.7 C 0 km/h
713 01-01-2014 00:25:00 2.7 C 5.19 g/m*3 2.7 C 1.6 km/h
714 01-01-2014 00:30:00 2.7 C 5.19 g/m*3 2.7 C 0 km/h
715 01-01-2014 00:35:00 2.6 C 5.15 g/m*3 2.6 C 1.6 km/h
716 01-01-2014 00:40:00 2.6 C 5.15 g/m*3 2.6 C 1.6 km/h
717 01-01-2014 00:45:00 2.6 C 5.21 g/m*3 2.6 C 0 km/h
718 01-01-2014 00:50:00 2.6 C 5.21 g/m*3 2.6 C 3.2 km/h
719 01-01-2014 00:55:00 2.7 C 5.24 g/m*3 2.7 C 1.6 km/h
720 01-01-2014 01:00:00 2.7 C 5.24 g/m*3 2.7 C 3.2 km/h
721 01-01-2014 01:05:00 2.7 C 5.24 g/m*3 2.7 C 0 km/h
722 01-01-2014 01:10:00 2.7 C 5.24 g/m*3 2.7 C 0 km/h
723 01-01-2014 01:15:00 2.8 C 5.28 g/m*3 2.8 C 1.6 km/h
724 01-01-2014 01:20:00 2.8 C 5.28 g/m*3 2.8 C 3.2 km/h
725 01-01-2014 01:25:00 2.9 C 5.32 g/m*3 2.9 C 1.6 km/h
Sensor: Nr:Datum:Temp:Abs-Feuchte:Windchill:Wind:
Aussen-T/F 726 01-01-2014 01:30:00 3 C 5.35 g/m*3 3 C 0 km/h
727 01-01-2014 01:35:00 3.1 C 5.39 g/m*3 3.1 C 0 km/h
728 01-01-2014 01:40:00 3.2 C 5.42 g/m*3 3.2 C 1.6 km/h
729 01-01-2014 01:45:00 3.3 C 5.46 g/m*3 3.3 C 0 km/h
730 01-01-2014 01:50:00 3.4 C 5.5 g/m*3 3.4 C 1.6 km/h
731 01-01-2014 01:55:00 3.4 C 5.5 g/m*3 3.4 C 1.6 km/h
732 01-01-2014 02:00:00 3.4 C 5.44 g/m*3 3.4 C 3.2 km/h
733 01-01-2014 02:05:00 3.4 C 5.44 g/m*3 3.4 C 1.6 km/h
734 01-01-2014 02:10:00 3.4 C 5.44 g/m*3 3.4 C 0 km/h
735 01-01-2014 02:15:00 3.4 C 5.44 g/m*3 3.4 C 1.6 km/h
736 01-01-2014 02:20:00 3.4 C 5.44 g/m*3 3.4 C 0 km/h
737 01-01-2014 02:25:00 3.4 C 5.31 g/m*3 1.23 C 8.1 km/h
738 01-01-2014 02:30:00 3.7 C 5.48 g/m*3 3.7 C 3.2 km/h
739 01-01-2014 02:35:00 3.8 C 5.46 g/m*3 3.8 C 3.2 km/h
740 01-01-2014 02:40:00 3.9 C 5.49 g/m*3 3.9 C 1.6 km/h
741 01-01-2014 02:45:00 4 C 5.53 g/m*3 4 C 1.6 km/h
742 01-01-2014 02:50:00 4.1 C 5.5 g/m*3 2.55 C 6.4 km/h
743 01-01-2014 02:55:00 4.2 C 5.61 g/m*3 4.2 C 3.2 km/h
744 01-01-2014 03:00:00 4.2 C 5.48 g/m*3 4.2 C 4.8 km/h
745 01-01-2014 03:05:00 4.4 C 5.55 g/m*3 4.4 C 3.2 km/h
746 01-01-2014 03:10:00 4.4 C 5.62 g/m*3 4.4 C 0 km/h
747 01-01-2014 03:15:00 4.4 C 5.68 g/m*3 4.4 C 1.6 km/h
748 01-01-2014 03:20:00 4.3 C 5.71 g/m*3 4.3 C 1.6 km/h
749 01-01-2014 03:25:00 4.3 C 5.77 g/m*3 4.3 C 3.2 km/h
750 01-01-2014 03:30:00 4.3 C 5.77 g/m*3 4.3 C 1.6 km/h
Sensor: Nr:Datum:Temp:Abs-Feuchte:Windchill:Wind:
Aussen-T/F 751 01-01-2014 03:35:00 4.3 C 5.71 g/m*3 4.3 C 1.6 km/h
752 01-01-2014 03:40:00 4.3 C 5.77 g/m*3 4.3 C 1.6 km/h
753 01-01-2014 03:45:00 4.4 C 5.81 g/m*3 4.4 C 1.6 km/h
754 01-01-2014 03:50:00 4.5 C 5.78 g/m*3 4.5 C 1.6 km/h
755 01-01-2014 03:55:00 4.6 C 5.82 g/m*3 4.6 C 1.6 km/h
756 01-01-2014 04:00:00 4.6 C 5.89 g/m*3 4.6 C 0 km/h
757 01-01-2014 04:05:00 4.5 C 5.92 g/m*3 4.5 C 3.2 km/h
758 01-01-2014 04:10:00 4.5 C 5.92 g/m*3 4.5 C 3.2 km/h
759 01-01-2014 04:15:00 4.5 C 5.98 g/m*3 4.5 C 0 km/h
760 01-01-2014 04:20:00 4.5 C 5.98 g/m*3 4.5 C 3.2 km/h
761 01-01-2014 04:25:00 4.6 C 6.02 g/m*3 4.6 C 3.2 km/h
762 01-01-2014 04:30:00 4.6 C 6.02 g/m*3 4.6 C 1.6 km/h
763 01-01-2014 04:35:00 4.7 C 6 g/m*3 4.7 C 1.6 km/h
764 01-01-2014 04:40:00 4.7 C 6 g/m*3 4.7 C 0 km/h
765 01-01-2014 04:45:00 4.7 C 6 g/m*3 4.7 C 0 km/h
766 01-01-2014 04:50:00 4.7 C 6 g/m*3 4.7 C 0 km/h
767 01-01-2014 04:55:00 4.7 C 6 g/m*3 4.7 C 1.6 km/h
768 01-01-2014 05:00:00 4.7 C 6.06 g/m*3 4.7 C 0 km/h
769 01-01-2014 05:05:00 4.7 C 6 g/m*3 4.7 C 4.8 km/h
770 01-01-2014 05:10:00 4.8 C 6.04 g/m*3 4.8 C 3.2 km/h
771 01-01-2014 05:15:00 5 C 6.12 g/m*3 5 C 0 km/h
772 01-01-2014 05:20:00 5.1 C 6.16 g/m*3 5.1 C 0 km/h
773 01-01-2014 05:25:00 5.1 C 6.09 g/m*3 3.71 C 6.4 km/h
774 01-01-2014 05:30:00 5.2 C 6.13 g/m*3 5.2 C 0 km/h
775 01-01-2014 05:35:00 5.3 C 6.17 g/m*3 5.3 C 3.2 km/h
Sensor: Nr:Datum:Temp:Abs-Feuchte:Windchill:Wind:
Aussen-T/F 776 01-01-2014 05:40:00 5.4 C 6.14 g/m*3 5.4 C 3.2 km/h
777 01-01-2014 05:45:00 5.6 C 6.22 g/m*3 5.6 C 0 km/h
778 01-01-2014 05:50:00 5.6 C 6.22 g/m*3 5.6 C 0 km/h
779 01-01-2014 05:55:00 5.5 C 6.18 g/m*3 5.5 C 1.6 km/h
780 01-01-2014 06:00:00 5.5 C 6.18 g/m*3 5.5 C 0 km/h
781 01-01-2014 06:05:00 5.5 C 6.18 g/m*3 5.5 C 0 km/h
782 01-01-2014 06:10:00 5.5 C 6.25 g/m*3 5.5 C 0 km/h
783 01-01-2014 06:15:00 5.4 C 6.28 g/m*3 5.4 C 0 km/h
784 01-01-2014 06:20:00 5.4 C 6.35 g/m*3 5.4 C 0 km/h
785 01-01-2014 06:25:00 5.4 C 6.35 g/m*3 5.4 C 0 km/h
786 01-01-2014 06:30:00 5.4 C 6.42 g/m*3 5.4 C 0 km/h
787 01-01-2014 06:35:00 5.4 C 6.42 g/m*3 5.4 C 1.6 km/h
788 01-01-2014 06:40:00 5.5 C 6.46 g/m*3 5.5 C 3.2 km/h
789 01-01-2014 06:45:00 5.6 C 6.5 g/m*3 5.6 C 1.6 km/h
790 01-01-2014 06:50:00 5.6 C 6.5 g/m*3 5.6 C 0 km/h
791 01-01-2014 06:55:00 5.6 C 6.5 g/m*3 5.6 C 1.6 km/h
792 01-01-2014 07:00:00 5.5 C 6.46 g/m*3 5.5 C 0 km/h
793 01-01-2014 07:05:00 5.5 C 6.46 g/m*3 5.5 C 0 km/h
794 01-01-2014 07:10:00 5.5 C 6.46 g/m*3 5.5 C 3.2 km/h
795 01-01-2014 07:15:00 5.6 C 6.5 g/m*3 5.6 C 1.6 km/h
796 01-01-2014 07:20:00 5.6 C 6.5 g/m*3 5.6 C 0 km/h
797 01-01-2014 07:25:00 5.6 C 6.5 g/m*3 5.6 C 0 km/h
798 01-01-2014 07:30:00 5.6 C 6.57 g/m*3 5.6 C 0 km/h
799 01-01-2014 07:35:00 5.6 C 6.57 g/m*3 5.6 C 0 km/h
800 01-01-2014 07:40:00 5.6 C 6.57 g/m*3 5.6 C 0 km/h
Sensor: Nr:Datum:Temp:Abs-Feuchte:Windchill:Wind:
Aussen-T/F 801 01-01-2014 07:45:00 5.6 C 6.57 g/m*3 5.6 C 0 km/h
802 01-01-2014 07:50:00 5.6 C 6.57 g/m*3 5.6 C 0 km/h
803 01-01-2014 07:55:00 5.6 C 6.57 g/m*3 5.6 C 1.6 km/h
804 01-01-2014 08:00:00 5.6 C 6.57 g/m*3 5.6 C 1.6 km/h
805 01-01-2014 08:05:00 5.5 C 6.53 g/m*3 5.5 C 0 km/h
806 01-01-2014 08:10:00 5.4 C 6.49 g/m*3 5.4 C 3.2 km/h
807 01-01-2014 08:15:00 5.2 C 6.33 g/m*3 5.2 C 1.6 km/h
808 01-01-2014 08:20:00 5.1 C 6.36 g/m*3 5.1 C 1.6 km/h
809 01-01-2014 08:25:00 5 C 6.32 g/m*3 5 C 1.6 km/h
810 01-01-2014 08:30:00 4.8 C 6.24 g/m*3 4.8 C 3.2 km/h
811 01-01-2014 08:35:00 4.7 C 6.19 g/m*3 4.7 C 3.2 km/h
812 01-01-2014 08:40:00 4.6 C 6.15 g/m*3 4.6 C 4.8 km/h
813 01-01-2014 08:45:00 4.7 C 6.26 g/m*3 4.7 C 3.2 km/h
814 01-01-2014 08:50:00 4.8 C 6.3 g/m*3 4.8 C 3.2 km/h
815 01-01-2014 08:55:00 4.9 C 6.35 g/m*3 4.9 C 0 km/h
816 01-01-2014 09:00:00 4.9 C 6.35 g/m*3 4.9 C 3.2 km/h
817 01-01-2014 09:05:00 4.9 C 6.35 g/m*3 4.9 C 0 km/h
818 01-01-2014 09:25:00 4.8 C 6.71 g/m*3 4.8 C 0 km/h
819 01-01-2014 09:30:00 5.1 C 6.43 g/m*3 5.1 C 4.8 km/h
820 01-01-2014 09:35:00 5.1 C 6.43 g/m*3 5.1 C 1.6 km/h
821 01-01-2014 09:40:00 5.2 C 6.47 g/m*3 5.2 C 0 km/h
822 01-01-2014 09:45:00 5.2 C 6.47 g/m*3 5.2 C 1.6 km/h
823 01-01-2014 09:50:00 5.3 C 6.52 g/m*3 5.3 C 0 km/h
824 01-01-2014 09:55:00 5.4 C 6.56 g/m*3 5.4 C 0 km/h
825 01-01-2014 10:00:00 5.4 C 6.56 g/m*3 5.4 C 0 km/h
Sensor: Nr:Datum:Temp:Abs-Feuchte:Windchill:Wind:
Aussen-T/F 826 01-01-2014 10:05:00 5.7 C 6.62 g/m*3 5.7 C 0 km/h
827 01-01-2014 10:10:00 5.9 C 6.71 g/m*3 5.9 C 0 km/h
828 01-01-2014 10:15:00 6 C 6.6 g/m*3 6 C 1.6 km/h
829 01-01-2014 10:20:00 6.2 C 6.62 g/m*3 6.2 C 3.2 km/h
830 01-01-2014 10:25:00 6.4 C 6.71 g/m*3 6.4 C 1.6 km/h
831 01-01-2014 10:30:00 6.6 C 6.72 g/m*3 6.6 C 1.6 km/h
832 01-01-2014 10:35:00 6.7 C 6.76 g/m*3 6.7 C 3.2 km/h
833 01-01-2014 10:40:00 6.7 C 6.69 g/m*3 6.7 C 0 km/h
834 01-01-2014 10:45:00 6.7 C 6.69 g/m*3 6.7 C 3.2 km/h
835 01-01-2014 10:50:00 6.8 C 6.73 g/m*3 6.8 C 1.6 km/h
836 01-01-2014 10:55:00 6.8 C 6.73 g/m*3 6.8 C 3.2 km/h
837 01-01-2014 11:00:00 6.7 C 6.69 g/m*3 5.11 C 8.1 km/h
838 01-01-2014 11:05:00 6.7 C 6.69 g/m*3 6.7 C 1.6 km/h
839 01-01-2014 11:10:00 6.7 C 6.69 g/m*3 6.7 C 1.6 km/h
840 01-01-2014 11:15:00 6.8 C 6.73 g/m*3 6.8 C 3.2 km/h
841 01-01-2014 11:20:00 6.9 C 6.77 g/m*3 6.9 C 0 km/h
842 01-01-2014 11:25:00 7.1 C 6.86 g/m*3 7.1 C 4.8 km/h
843 01-01-2014 11:30:00 7.1 C 6.86 g/m*3 7.1 C 3.2 km/h
844 01-01-2014 11:35:00 7.2 C 6.91 g/m*3 7.2 C 4.8 km/h
845 01-01-2014 11:40:00 7.3 C 6.95 g/m*3 7.3 C 1.6 km/h
846 01-01-2014 11:45:00 7.3 C 6.87 g/m*3 7.3 C 1.6 km/h
847 01-01-2014 11:50:00 7.3 C 6.79 g/m*3 7.3 C 0 km/h
848 01-01-2014 11:55:00 7.2 C 6.83 g/m*3 7.2 C 0 km/h
849 01-01-2014 12:00:00 7 C 6.82 g/m*3 7 C 0 km/h
850 01-01-2014 12:05:00 6.8 C 6.88 g/m*3 6.8 C 0 km/h
Sensor: Nr:Datum:Temp:Abs-Feuchte:Windchill:Wind:
Aussen-T/F 851 01-01-2014 12:10:00 6.7 C 6.84 g/m*3 6.7 C 1.6 km/h
852 01-01-2014 12:15:00 6.6 C 6.87 g/m*3 6.6 C 1.6 km/h
853 01-01-2014 12:20:00 6.7 C 6.91 g/m*3 6.7 C 3.2 km/h
854 01-01-2014 12:25:00 6.7 C 6.91 g/m*3 6.7 C 1.6 km/h
855 01-01-2014 12:30:00 6.7 C 6.91 g/m*3 6.7 C 3.2 km/h
856 01-01-2014 12:35:00 6.8 C 6.88 g/m*3 6.8 C 0 km/h
857 01-01-2014 12:40:00 6.9 C 6.77 g/m*3 5.79 C 6.4 km/h
858 01-01-2014 12:45:00 7.1 C 6.63 g/m*3 6.02 C 6.4 km/h
859 01-01-2014 12:50:00 7.6 C 6.61 g/m*3 6.6 C 6.4 km/h
860 01-01-2014 12:55:00 7.9 C 6.74 g/m*3 7.9 C 4.8 km/h
861 01-01-2014 13:00:00 8.2 C 6.62 g/m*3 7.29 C 6.4 km/h
862 01-01-2014 13:05:00 8.4 C 6.79 g/m*3 8.4 C 3.2 km/h
863 01-01-2014 13:10:00 8.6 C 6.62 g/m*3 8.6 C 1.6 km/h
864 01-01-2014 13:15:00 8.7 C 6.57 g/m*3 7.46 C 8.1 km/h
865 01-01-2014 13:20:00 8.8 C 6.61 g/m*3 7.98 C 6.4 km/h
866 01-01-2014 13:25:00 8.8 C 6.7 g/m*3 8.8 C 1.6 km/h
867 01-01-2014 13:30:00 8.8 C 6.79 g/m*3 7.98 C 6.4 km/h
868 01-01-2014 13:35:00 8.8 C 6.7 g/m*3 8.8 C 4.8 km/h
869 01-01-2014 13:40:00 8.8 C 6.7 g/m*3 8.8 C 3.2 km/h
870 01-01-2014 13:45:00 8.8 C 6.7 g/m*3 8.8 C 1.6 km/h
871 01-01-2014 13:50:00 8.8 C 6.79 g/m*3 8.8 C 1.6 km/h
872 01-01-2014 13:55:00 8.8 C 6.79 g/m*3 8.8 C 4.8 km/h
873 01-01-2014 14:00:00 8.8 C 6.7 g/m*3 8.8 C 4.8 km/h
874 01-01-2014 14:05:00 8.8 C 6.79 g/m*3 8.8 C 3.2 km/h
875 01-01-2014 14:10:00 8.8 C 6.7 g/m*3 8.8 C 1.6 km/h
Sensor: Nr:Datum:Temp:Abs-Feuchte:Windchill:Wind:
Aussen-T/F 876 01-01-2014 14:15:00 8.8 C 6.79 g/m*3 8.8 C 4.8 km/h
877 01-01-2014 14:20:00 8.9 C 6.75 g/m*3 7.37 C 9.7 km/h
878 01-01-2014 14:25:00 8.9 C 6.83 g/m*3 8.9 C 3.2 km/h
879 01-01-2014 14:30:00 8.9 C 6.75 g/m*3 8.9 C 4.8 km/h
880 01-01-2014 14:35:00 8.9 C 6.83 g/m*3 7.69 C 8.1 km/h
881 01-01-2014 14:40:00 8.8 C 6.79 g/m*3 7.98 C 6.4 km/h
882 01-01-2014 14:45:00 8.7 C 6.75 g/m*3 8.7 C 4.8 km/h
883 01-01-2014 14:50:00 8.6 C 6.87 g/m*3 8.6 C 0 km/h
884 01-01-2014 14:55:00 8.5 C 6.92 g/m*3 8.5 C 4.8 km/h
885 01-01-2014 15:00:00 8.6 C 6.79 g/m*3 8.6 C 4.8 km/h
886 01-01-2014 15:05:00 8.7 C 6.75 g/m*3 8.7 C 1.6 km/h
887 01-01-2014 15:10:00 8.7 C 6.92 g/m*3 8.7 C 3.2 km/h
888 01-01-2014 15:15:00 8.7 C 6.83 g/m*3 8.7 C 3.2 km/h
889 01-01-2014 15:20:00 8.6 C 6.96 g/m*3 8.6 C 3.2 km/h
890 01-01-2014 15:25:00 8.5 C 6.83 g/m*3 8.5 C 1.6 km/h
891 01-01-2014 15:30:00 8.4 C 6.87 g/m*3 8.4 C 3.2 km/h
892 01-01-2014 15:35:00 8.2 C 6.78 g/m*3 8.2 C 1.6 km/h
893 01-01-2014 15:40:00 8.1 C 6.74 g/m*3 8.1 C 4.8 km/h
894 01-01-2014 15:45:00 8.1 C 6.82 g/m*3 8.1 C 4.8 km/h
895 01-01-2014 15:50:00 8.1 C 6.82 g/m*3 8.1 C 0 km/h
896 01-01-2014 15:55:00 8 C 6.78 g/m*3 8 C 1.6 km/h
897 01-01-2014 16:00:00 7.8 C 6.77 g/m*3 7.8 C 3.2 km/h
898 01-01-2014 16:05:00 7.7 C 6.81 g/m*3 7.7 C 0 km/h
899 01-01-2014 16:10:00 7.6 C 6.77 g/m*3 7.6 C 1.6 km/h
900 01-01-2014 16:15:00 7.6 C 6.77 g/m*3 7.6 C 4.8 km/h
Sensor: Nr:Datum:Temp:Abs-Feuchte:Windchill:Wind:
Aussen-T/F 901 01-01-2014 16:20:00 7.5 C 6.72 g/m*3 7.5 C 4.8 km/h
902 01-01-2014 16:25:00 7.6 C 6.77 g/m*3 7.6 C 4.8 km/h
903 01-01-2014 16:30:00 7.6 C 6.77 g/m*3 7.6 C 3.2 km/h
904 01-01-2014 16:35:00 7.6 C 6.77 g/m*3 7.6 C 4.8 km/h
905 01-01-2014 16:40:00 7.5 C 6.72 g/m*3 5.7 C 9.7 km/h
906 01-01-2014 16:45:00 7.5 C 6.72 g/m*3 7.5 C 4.8 km/h
907 01-01-2014 16:50:00 7.6 C 6.77 g/m*3 7.6 C 3.2 km/h
908 01-01-2014 16:55:00 7.6 C 6.77 g/m*3 5.82 C 9.7 km/h
909 01-01-2014 17:00:00 7.7 C 6.81 g/m*3 6.28 C 8.1 km/h
910 01-01-2014 17:05:00 7.8 C 6.77 g/m*3 6.83 C 6.4 km/h
911 01-01-2014 17:10:00 7.8 C 6.86 g/m*3 6.4 C 8.1 km/h
912 01-01-2014 17:15:00 7.8 C 6.86 g/m*3 7.8 C 4.8 km/h
913 01-01-2014 17:20:00 7.9 C 6.9 g/m*3 7.9 C 4.8 km/h
914 01-01-2014 17:25:00 7.8 C 6.86 g/m*3 7.8 C 3.2 km/h
915 01-01-2014 17:30:00 7.8 C 6.86 g/m*3 7.8 C 3.2 km/h
916 01-01-2014 17:35:00 7.8 C 6.86 g/m*3 7.8 C 4.8 km/h
917 01-01-2014 17:40:00 7.8 C 6.86 g/m*3 7.8 C 3.2 km/h
918 01-01-2014 17:45:00 7.8 C 6.94 g/m*3 6.4 C 8.1 km/h
919 01-01-2014 17:50:00 7.8 C 6.94 g/m*3 6.4 C 8.1 km/h
920 01-01-2014 17:55:00 7.8 C 6.94 g/m*3 6.83 C 6.4 km/h
921 01-01-2014 18:00:00 7.8 C 7.02 g/m*3 6.83 C 6.4 km/h
922 01-01-2014 18:05:00 7.8 C 6.94 g/m*3 7.8 C 3.2 km/h
923 01-01-2014 18:10:00 7.8 C 6.94 g/m*3 5.51 C 12.9 km/h
924 01-01-2014 18:15:00 7.9 C 6.98 g/m*3 6.52 C 8.1 km/h
925 01-01-2014 18:20:00 7.9 C 6.98 g/m*3 7.9 C 4.8 km/h
Sensor: Nr:Datum:Temp:Abs-Feuchte:Windchill:Wind:
Aussen-T/F 926 01-01-2014 18:25:00 7.9 C 6.98 g/m*3 6.52 C 8.1 km/h
927 01-01-2014 18:30:00 7.9 C 6.98 g/m*3 6.52 C 8.1 km/h
928 01-01-2014 18:35:00 8 C 7.03 g/m*3 6.3 C 9.7 km/h
929 01-01-2014 18:40:00 8.1 C 6.99 g/m*3 6.42 C 9.7 km/h
930 01-01-2014 18:45:00 8.1 C 6.99 g/m*3 7.17 C 6.4 km/h
931 01-01-2014 18:50:00 8.1 C 6.99 g/m*3 7.17 C 6.4 km/h
932 01-01-2014 18:55:00 8.1 C 6.99 g/m*3 8.1 C 4.8 km/h
933 01-01-2014 19:00:00 8.1 C 6.91 g/m*3 6.42 C 9.7 km/h
934 01-01-2014 19:05:00 8.1 C 6.91 g/m*3 5.64 C 14.5 km/h
935 01-01-2014 19:10:00 8.2 C 6.95 g/m*3 8.2 C 4.8 km/h
936 01-01-2014 19:15:00 8.2 C 6.95 g/m*3 6.87 C 8.1 km/h
937 01-01-2014 19:20:00 8.2 C 6.95 g/m*3 8.2 C 3.2 km/h
938 01-01-2014 19:25:00 8.1 C 6.91 g/m*3 8.1 C 3.2 km/h
939 01-01-2014 19:30:00 8.1 C 6.91 g/m*3 6.75 C 8.1 km/h
940 01-01-2014 19:35:00 8.1 C 6.91 g/m*3 8.1 C 3.2 km/h
941 01-01-2014 19:40:00 8.1 C 6.82 g/m*3 6.75 C 8.1 km/h
942 01-01-2014 19:45:00 8.2 C 6.95 g/m*3 8.2 C 0 km/h
943 01-01-2014 19:50:00 8.2 C 6.95 g/m*3 7.29 C 6.4 km/h
944 01-01-2014 19:55:00 8.2 C 6.87 g/m*3 8.2 C 4.8 km/h
945 01-01-2014 20:00:00 8.2 C 6.95 g/m*3 8.2 C 3.2 km/h
946 01-01-2014 20:05:00 8.1 C 6.91 g/m*3 8.1 C 3.2 km/h
947 01-01-2014 20:10:00 8.1 C 6.91 g/m*3 6.75 C 8.1 km/h
948 01-01-2014 20:15:00 8.1 C 6.99 g/m*3 7.17 C 6.4 km/h
949 01-01-2014 20:20:00 7.9 C 6.9 g/m*3 7.9 C 1.6 km/h
950 01-01-2014 20:25:00 7.7 C 6.89 g/m*3 7.7 C 4.8 km/h
Sensor: Nr:Datum:Temp:Abs-Feuchte:Windchill:Wind:
Aussen-T/F 951 01-01-2014 20:30:00 7.6 C 6.93 g/m*3 7.6 C 4.8 km/h
952 01-01-2014 20:35:00 7.7 C 6.97 g/m*3 7.7 C 3.2 km/h
953 01-01-2014 20:40:00 7.7 C 6.89 g/m*3 7.7 C 4.8 km/h
954 01-01-2014 20:45:00 7.9 C 6.98 g/m*3 7.9 C 4.8 km/h
955 01-01-2014 20:50:00 7.9 C 6.98 g/m*3 7.9 C 4.8 km/h
956 01-01-2014 20:55:00 8.1 C 6.91 g/m*3 6.75 C 8.1 km/h
957 01-01-2014 21:00:00 8.4 C 6.96 g/m*3 6.49 C 11.3 km/h
958 01-01-2014 21:05:00 8.5 C 7 g/m*3 6.9 C 9.7 km/h
959 01-01-2014 21:10:00 8.6 C 6.96 g/m*3 7.34 C 8.1 km/h
960 01-01-2014 21:15:00 8.6 C 6.96 g/m*3 8.6 C 4.8 km/h
961 01-01-2014 21:20:00 8.7 C 7.01 g/m*3 8.7 C 4.8 km/h
962 01-01-2014 21:25:00 8.7 C 7.01 g/m*3 8.7 C 3.2 km/h
963 01-01-2014 21:30:00 8.6 C 6.96 g/m*3 8.6 C 3.2 km/h
964 01-01-2014 21:35:00 8.4 C 6.96 g/m*3 6.78 C 9.7 km/h
965 01-01-2014 21:40:00 8.4 C 6.96 g/m*3 8.4 C 4.8 km/h
966 01-01-2014 21:45:00 8.5 C 6.92 g/m*3 8.5 C 3.2 km/h
967 01-01-2014 21:50:00 8.3 C 6.91 g/m*3 6.66 C 9.7 km/h
968 01-01-2014 21:55:00 8.3 C 7 g/m*3 7.41 C 6.4 km/h
969 01-01-2014 22:00:00 8.3 C 7 g/m*3 8.3 C 1.6 km/h
970 01-01-2014 22:05:00 8.2 C 6.95 g/m*3 8.2 C 1.6 km/h
971 01-01-2014 22:10:00 8 C 6.94 g/m*3 8 C 4.8 km/h
972 01-01-2014 22:15:00 7.8 C 6.94 g/m*3 6.83 C 6.4 km/h
973 01-01-2014 22:20:00 8 C 6.94 g/m*3 7.06 C 6.4 km/h
974 01-01-2014 22:25:00 8.1 C 6.99 g/m*3 8.1 C 4.8 km/h
975 01-01-2014 22:30:00 8 C 6.94 g/m*3 8 C 3.2 km/h
Sensor: Nr:Datum:Temp:Abs-Feuchte:Windchill:Wind:
Aussen-T/F 976 01-01-2014 22:35:00 8.1 C 6.99 g/m*3 8.1 C 4.8 km/h
977 01-01-2014 22:40:00 8.2 C 6.95 g/m*3 6.54 C 9.7 km/h
978 01-01-2014 22:45:00 8.2 C 7.03 g/m*3 7.29 C 6.4 km/h
979 01-01-2014 22:50:00 8.3 C 7.08 g/m*3 6.99 C 8.1 km/h
980 01-01-2014 22:55:00 8.4 C 7.04 g/m*3 8.4 C 4.8 km/h
981 01-01-2014 23:00:00 8.2 C 7.03 g/m*3 6.54 C 9.7 km/h
982 01-01-2014 23:05:00 8.1 C 6.99 g/m*3 8.1 C 3.2 km/h
983 01-01-2014 23:10:00 7.9 C 6.98 g/m*3 7.9 C 4.8 km/h
984 01-01-2014 23:15:00 7.7 C 6.97 g/m*3 7.7 C 3.2 km/h
985 01-01-2014 23:20:00 7.7 C 6.97 g/m*3 7.7 C 4.8 km/h
986 01-01-2014 23:25:00 7.9 C 6.98 g/m*3 7.9 C 3.2 km/h
987 01-01-2014 23:30:00 8.1 C 7.07 g/m*3 8.1 C 4.8 km/h
988 01-01-2014 23:35:00 8.2 C 7.12 g/m*3 8.2 C 4.8 km/h
989 01-01-2014 23:40:00 8.2 C 7.03 g/m*3 6.54 C 9.7 km/h
990 01-01-2014 23:45:00 8.2 C 7.03 g/m*3 7.29 C 6.4 km/h
991 01-01-2014 23:50:00 8.2 C 7.03 g/m*3 8.2 C 3.2 km/h
992 01-01-2014 23:55:00 8.1 C 6.99 g/m*3 7.17 C 6.4 km/h
993 02-01-2014 00:00:00 8.1 C 7.07 g/m*3 8.1 C 4.8 km/h
994 02-01-2014 00:05:00 8.1 C 6.99 g/m*3 8.1 C 3.2 km/h
995 02-01-2014 00:10:00 8.2 C 7.03 g/m*3 8.2 C 3.2 km/h
996 02-01-2014 00:15:00 8.2 C 7.03 g/m*3 8.2 C 3.2 km/h
997 02-01-2014 00:20:00 8.3 C 7.08 g/m*3 8.3 C 4.8 km/h
998 02-01-2014 00:25:00 8.5 C 7.09 g/m*3 7.22 C 8.1 km/h
999 02-01-2014 00:30:00 8.7 C 7.18 g/m*3 8.7 C 3.2 km/h
1000 02-01-2014 00:35:00 8.8 C 7.14 g/m*3 7.25 C 9.7 km/h
Sensor: Nr:Datum:Temp:Abs-Feuchte:Windchill:Wind:
Aussen-T/F 1001 02-01-2014 00:40:00 9.1 C 7.19 g/m*3 7.61 C 9.7 km/h
1002 02-01-2014 00:45:00 9.2 C 7.14 g/m*3 9.2 C 4.8 km/h
1003 02-01-2014 00:50:00 9.2 C 7.23 g/m*3 9.2 C 4.8 km/h
1004 02-01-2014 00:55:00 9.2 C 7.14 g/m*3 9.2 C 4.8 km/h
1005 02-01-2014 01:00:00 9.2 C 7.14 g/m*3 7.46 C 11.3 km/h
1006 02-01-2014 01:05:00 9.2 C 7.14 g/m*3 8.45 C 6.4 km/h
1007 02-01-2014 01:10:00 9.2 C 7.23 g/m*3 9.2 C 3.2 km/h
1008 02-01-2014 01:15:00 9 C 7.23 g/m*3 9 C 3.2 km/h
1009 02-01-2014 01:20:00 8.8 C 7.14 g/m*3 7.58 C 8.1 km/h
1010 02-01-2014 01:25:00 8.8 C 7.14 g/m*3 7.58 C 8.1 km/h
1011 02-01-2014 01:30:00 8.8 C 7.22 g/m*3 8.8 C 3.2 km/h
1012 02-01-2014 01:35:00 8.8 C 7.14 g/m*3 8.8 C 1.6 km/h
1013 02-01-2014 01:40:00 8.7 C 7.18 g/m*3 8.7 C 4.8 km/h
1014 02-01-2014 01:45:00 8.7 C 7.18 g/m*3 8.7 C 4.8 km/h
1015 02-01-2014 01:50:00 8.7 C 7.26 g/m*3 7.87 C 6.4 km/h
1016 02-01-2014 01:55:00 8.8 C 7.31 g/m*3 8.8 C 4.8 km/h
1017 02-01-2014 02:00:00 9 C 7.32 g/m*3 7.21 C 11.3 km/h
1018 02-01-2014 02:05:00 9.1 C 7.28 g/m*3 7.33 C 11.3 km/h
1019 02-01-2014 02:10:00 9.3 C 7.37 g/m*3 8.56 C 6.4 km/h
1020 02-01-2014 02:15:00 9.4 C 7.42 g/m*3 9.4 C 4.8 km/h
1021 02-01-2014 02:20:00 9.4 C 7.42 g/m*3 7.7 C 11.3 km/h
1022 02-01-2014 02:25:00 9.6 C 7.51 g/m*3 8.21 C 9.7 km/h
1023 02-01-2014 02:30:00 9.6 C 7.42 g/m*3 8.91 C 6.4 km/h
1024 02-01-2014 02:35:00 9.6 C 7.51 g/m*3 9.6 C 4.8 km/h
1025 02-01-2014 02:40:00 9.4 C 7.42 g/m*3 9.4 C 3.2 km/h
Sensor: Nr:Datum:Temp:Abs-Feuchte:Windchill:Wind:
Aussen-T/F 1026 02-01-2014 02:45:00 9.4 C 7.42 g/m*3 9.4 C 4.8 km/h
1027 02-01-2014 02:50:00 9.4 C 7.51 g/m*3 9.4 C 4.8 km/h
1028 02-01-2014 02:55:00 9.3 C 7.46 g/m*3 9.3 C 4.8 km/h
1029 02-01-2014 03:00:00 9.3 C 7.46 g/m*3 8.56 C 6.4 km/h
1030 02-01-2014 03:05:00 9.3 C 7.46 g/m*3 7.58 C 11.3 km/h
1031 02-01-2014 03:10:00 9.3 C 7.55 g/m*3 9.3 C 4.8 km/h
1032 02-01-2014 03:15:00 9.1 C 7.54 g/m*3 9.1 C 3.2 km/h
1033 02-01-2014 03:20:00 8.9 C 7.45 g/m*3 7.37 C 9.7 km/h
1034 02-01-2014 03:25:00 8.9 C 7.45 g/m*3 8.9 C 4.8 km/h
1035 02-01-2014 03:30:00 9.1 C 7.54 g/m*3 9.1 C 4.8 km/h
1036 02-01-2014 03:35:00 9.1 C 7.54 g/m*3 9.1 C 3.2 km/h
1037 02-01-2014 03:40:00 8.9 C 7.62 g/m*3 8.9 C 0 km/h
1038 02-01-2014 03:45:00 8.7 C 7.61 g/m*3 8.7 C 1.6 km/h
1039 02-01-2014 03:50:00 8.5 C 7.51 g/m*3 8.5 C 4.8 km/h
1040 02-01-2014 03:55:00 8.4 C 7.55 g/m*3 8.4 C 4.8 km/h
1041 02-01-2014 04:00:00 8.4 C 7.63 g/m*3 7.52 C 6.4 km/h
1042 02-01-2014 04:05:00 8.3 C 7.59 g/m*3 8.3 C 4.8 km/h
1043 02-01-2014 04:10:00 8.3 C 7.59 g/m*3 8.3 C 4.8 km/h
1044 02-01-2014 04:15:00 8.2 C 7.62 g/m*3 8.2 C 3.2 km/h
1045 02-01-2014 04:20:00 8.1 C 7.57 g/m*3 7.17 C 6.4 km/h
1046 02-01-2014 04:25:00 8 C 7.61 g/m*3 8 C 3.2 km/h
1047 02-01-2014 04:30:00 7.9 C 7.56 g/m*3 7.9 C 4.8 km/h
1048 02-01-2014 04:35:00 8 C 7.61 g/m*3 8 C 4.8 km/h
1049 02-01-2014 04:40:00 8.1 C 7.57 g/m*3 7.17 C 6.4 km/h
1050 02-01-2014 04:45:00 8 C 7.52 g/m*3 8 C 4.8 km/h
Sensor: Nr:Datum:Temp:Abs-Feuchte:Windchill:Wind:
Aussen-T/F 1051 02-01-2014 04:50:00 8 C 7.52 g/m*3 8 C 4.8 km/h
1052 02-01-2014 04:55:00 7.9 C 7.47 g/m*3 7.9 C 3.2 km/h
1053 02-01-2014 05:00:00 7.8 C 7.51 g/m*3 7.8 C 3.2 km/h
1054 02-01-2014 05:05:00 7.7 C 7.54 g/m*3 7.7 C 0 km/h
1055 02-01-2014 05:10:00 7.7 C 7.54 g/m*3 7.7 C 4.8 km/h
1056 02-01-2014 05:15:00 7.7 C 7.54 g/m*3 7.7 C 4.8 km/h
1057 02-01-2014 05:20:00 7.7 C 7.54 g/m*3 7.7 C 3.2 km/h
1058 02-01-2014 05:25:00 7.7 C 7.54 g/m*3 7.7 C 3.2 km/h
1059 02-01-2014 05:30:00 7.6 C 7.57 g/m*3 7.6 C 3.2 km/h
1060 02-01-2014 05:35:00 7.6 C 7.57 g/m*3 7.6 C 1.6 km/h
1061 02-01-2014 05:40:00 7.7 C 7.62 g/m*3 7.7 C 4.8 km/h
1062 02-01-2014 05:45:00 7.7 C 7.62 g/m*3 7.7 C 4.8 km/h
1063 02-01-2014 05:50:00 7.7 C 7.62 g/m*3 7.7 C 4.8 km/h
1064 02-01-2014 05:55:00 7.7 C 7.62 g/m*3 7.7 C 3.2 km/h
1065 02-01-2014 06:00:00 7.7 C 7.62 g/m*3 7.7 C 4.8 km/h
1066 02-01-2014 06:05:00 7.7 C 7.62 g/m*3 7.7 C 3.2 km/h
1067 02-01-2014 06:10:00 7.7 C 7.62 g/m*3 7.7 C 3.2 km/h
1068 02-01-2014 06:15:00 7.7 C 7.7 g/m*3 7.7 C 1.6 km/h
1069 02-01-2014 06:20:00 7.7 C 7.7 g/m*3 6.71 C 6.4 km/h
1070 02-01-2014 06:25:00 7.7 C 7.7 g/m*3 7.7 C 0 km/h
1071 02-01-2014 07:05:00 7.8 C 7.75 g/m*3 7.8 C 1.6 km/h
1072 02-01-2014 07:10:00 7.8 C 7.75 g/m*3 7.8 C 1.6 km/h
1073 02-01-2014 07:15:00 7.8 C 7.75 g/m*3 6.4 C 8.1 km/h
1074 02-01-2014 07:20:00 7.9 C 7.8 g/m*3 7.9 C 3.2 km/h
1075 02-01-2014 07:25:00 8 C 7.85 g/m*3 8 C 1.6 km/h
Sensor: Nr:Datum:Temp:Abs-Feuchte:Windchill:Wind:
Aussen-T/F 1076 02-01-2014 07:30:00 7.9 C 7.8 g/m*3 7.9 C 0 km/h
1077 02-01-2014 07:35:00 7.9 C 7.8 g/m*3 7.9 C 4.8 km/h
1078 02-01-2014 07:40:00 7.8 C 7.75 g/m*3 6.83 C 6.4 km/h
1079 02-01-2014 07:45:00 7.8 C 7.75 g/m*3 7.8 C 4.8 km/h
1080 02-01-2014 07:50:00 7.8 C 7.75 g/m*3 7.8 C 1.6 km/h
1081 02-01-2014 07:55:00 7.8 C 7.75 g/m*3 6.83 C 6.4 km/h
1082 02-01-2014 08:30:00 8.8 C 8.7 g/m*3 6.97 C 11.3 km/h
1083 02-01-2014 08:35:00 8.8 C 7.92 g/m*3 6.97 C 11.3 km/h
1084 02-01-2014 08:40:00 8.8 C 7.92 g/m*3 8.8 C 3.2 km/h
1085 02-01-2014 09:35:00 8.9 C 7.97 g/m*3 8.1 C 6.4 km/h
1086 02-01-2014 09:40:00 8.9 C 7.97 g/m*3 8.9 C 3.2 km/h
1087 02-01-2014 09:45:00 9.2 C 8.13 g/m*3 9.2 C 4.8 km/h
1088 02-01-2014 09:50:00 9.2 C 8.13 g/m*3 9.2 C 1.6 km/h
1089 02-01-2014 09:55:00 9.2 C 8.04 g/m*3 9.2 C 1.6 km/h
1090 02-01-2014 10:00:00 9.2 C 8.04 g/m*3 9.2 C 3.2 km/h
1091 02-01-2014 10:05:00 9.2 C 8.04 g/m*3 9.2 C 4.8 km/h
1092 02-01-2014 10:10:00 9.3 C 8.09 g/m*3 9.3 C 4.8 km/h
1093 02-01-2014 10:15:00 9.4 C 8.05 g/m*3 9.4 C 4.8 km/h
1094 02-01-2014 10:20:00 9.5 C 8.1 g/m*3 9.5 C 4.8 km/h
1095 02-01-2014 10:25:00 9.5 C 8.1 g/m*3 8.79 C 6.4 km/h
1096 02-01-2014 10:30:00 9.5 C 8.1 g/m*3 9.5 C 4.8 km/h
1097 02-01-2014 10:35:00 9.6 C 8.24 g/m*3 9.6 C 0 km/h
1098 02-01-2014 10:40:00 9.7 C 8.39 g/m*3 8.33 C 9.7 km/h
1099 02-01-2014 10:45:00 9.7 C 8.39 g/m*3 9.7 C 0 km/h
1100 02-01-2014 10:50:00 9.8 C 8.26 g/m*3 9.8 C 4.8 km/h
Sensor: Nr:Datum:Temp:Abs-Feuchte:Windchill:Wind:
Aussen-T/F 1101 02-01-2014 10:55:00 10 C 8.36 g/m*3 8.99 C 8.1 km/h
1102 02-01-2014 11:00:00 10.1 C 8.32 g/m*3 9.48 C 6.4 km/h
1103 02-01-2014 11:05:00 10.2 C 8.47 g/m*3 9.6 C 6.4 km/h
1104 02-01-2014 11:10:00 10.2 C 8.47 g/m*3 9.6 C 6.4 km/h
1105 02-01-2014 11:15:00 10.3 C 8.52 g/m*3 10.3 C 3.2 km/h
1106 02-01-2014 11:20:00 10.3 C 8.52 g/m*3 10.3 C 3.2 km/h
1107 02-01-2014 11:25:00 10.3 C 8.52 g/m*3 10.3 C 4.8 km/h
1108 02-01-2014 11:30:00 10.4 C 8.58 g/m*3 9.83 C 6.4 km/h
1109 02-01-2014 11:35:00 10.4 C 8.48 g/m*3 10.4 C 3.2 km/h
1110 02-01-2014 11:40:00 10.5 C 8.53 g/m*3 9.95 C 6.4 km/h
1111 02-01-2014 11:45:00 10.6 C 8.69 g/m*3 10.6 C 4.8 km/h
1112 02-01-2014 11:50:00 10.6 C 8.59 g/m*3 10.6 C 3.2 km/h
1113 02-01-2014 11:55:00 10.7 C 8.55 g/m*3 10.7 C 1.6 km/h
1114 02-01-2014 12:00:00 10.7 C 8.45 g/m*3 10.7 C 3.2 km/h
1115 02-01-2014 12:05:00 10.8 C 8.5 g/m*3 10.8 C 4.8 km/h
1116 02-01-2014 12:10:00 10.9 C 8.45 g/m*3 10.41 C 6.4 km/h
1117 02-01-2014 12:15:00 10.9 C 8.26 g/m*3 10.41 C 6.4 km/h
1118 02-01-2014 12:20:00 10.9 C 8.26 g/m*3 9.08 C 14.5 km/h
1119 02-01-2014 12:25:00 10.9 C 8.26 g/m*3 10.04 C 8.1 km/h
1120 02-01-2014 12:30:00 11.2 C 8.21 g/m*3 11.2 C 12.9 km/h
1121 02-01-2014 12:35:00 11.2 C 8.31 g/m*3 11.2 C 9.7 km/h
1122 02-01-2014 12:40:00 11.2 C 8.31 g/m*3 11.2 C 4.8 km/h
1123 02-01-2014 12:45:00 11.2 C 8.21 g/m*3 11.2 C 14.5 km/h
1124 02-01-2014 12:50:00 11.2 C 8.21 g/m*3 11.2 C 14.5 km/h
1125 02-01-2014 12:55:00 11.1 C 8.16 g/m*3 11.1 C 17.7 km/h
Sensor: Nr:Datum:Temp:Abs-Feuchte:Windchill:Wind:
Aussen-T/F 1126 02-01-2014 13:00:00 11.1 C 8.06 g/m*3 11.1 C 20.9 km/h
1127 02-01-2014 13:05:00 11.1 C 8.16 g/m*3 11.1 C 20.9 km/h
1128 02-01-2014 13:10:00 11 C 8.01 g/m*3 9.63 C 11.3 km/h
1129 02-01-2014 13:15:00 11 C 8.01 g/m*3 9.4 C 12.9 km/h
1130 02-01-2014 13:20:00 10.9 C 7.96 g/m*3 9.28 C 12.9 km/h
1131 02-01-2014 13:25:00 10.9 C 7.96 g/m*3 8.9 C 16.1 km/h
1132 02-01-2014 13:30:00 10.8 C 7.81 g/m*3 8.96 C 14.5 km/h
1133 02-01-2014 13:35:00 10.8 C 7.91 g/m*3 9.16 C 12.9 km/h
1134 02-01-2014 13:40:00 10.8 C 7.91 g/m*3 9.16 C 12.9 km/h
1135 02-01-2014 13:45:00 10.8 C 7.91 g/m*3 8.96 C 14.5 km/h
1136 02-01-2014 13:50:00 10.7 C 7.86 g/m*3 8.84 C 14.5 km/h
1137 02-01-2014 13:55:00 10.8 C 7.81 g/m*3 8.3 C 20.9 km/h
1138 02-01-2014 14:00:00 10.7 C 7.76 g/m*3 9.04 C 12.9 km/h
1139 02-01-2014 14:05:00 10.7 C 7.86 g/m*3 9.81 C 8.1 km/h
1140 02-01-2014 14:10:00 10.7 C 7.76 g/m*3 8.65 C 16.1 km/h
1141 02-01-2014 14:15:00 10.8 C 7.81 g/m*3 8.61 C 17.7 km/h
1142 02-01-2014 14:20:00 10.7 C 7.76 g/m*3 8.84 C 14.5 km/h
1143 02-01-2014 14:25:00 10.7 C 7.76 g/m*3 8.65 C 16.1 km/h
1144 02-01-2014 14:30:00 10.6 C 7.71 g/m*3 8.36 C 17.7 km/h
1145 02-01-2014 14:35:00 10.6 C 7.81 g/m*3 8.71 C 14.5 km/h
1146 02-01-2014 14:40:00 10.6 C 7.81 g/m*3 8.36 C 17.7 km/h
1147 02-01-2014 14:45:00 10.4 C 7.9 g/m*3 7.95 C 19.3 km/h
1148 02-01-2014 14:50:00 10.1 C 8.04 g/m*3 8.54 C 11.3 km/h
1149 02-01-2014 14:55:00 9.9 C 8.03 g/m*3 8.56 C 9.7 km/h
1150 02-01-2014 15:00:00 9.8 C 8.07 g/m*3 8.45 C 9.7 km/h
Sensor: Nr:Datum:Temp:Abs-Feuchte:Windchill:Wind:
Aussen-T/F 1151 02-01-2014 15:05:00 9.7 C 7.93 g/m*3 9.02 C 6.4 km/h
1152 02-01-2014 15:10:00 9.6 C 7.97 g/m*3 8.21 C 9.7 km/h
1153 02-01-2014 15:15:00 9.5 C 7.92 g/m*3 8.79 C 6.4 km/h
1154 02-01-2014 15:20:00 9.4 C 7.78 g/m*3 8.28 C 8.1 km/h
1155 02-01-2014 15:25:00 9.3 C 7.73 g/m*3 9.3 C 4.8 km/h
1156 02-01-2014 15:30:00 9.2 C 7.77 g/m*3 8.45 C 6.4 km/h
1157 02-01-2014 15:35:00 9.1 C 7.72 g/m*3 7.93 C 8.1 km/h
1158 02-01-2014 15:40:00 8.9 C 7.53 g/m*3 7.69 C 8.1 km/h
1159 02-01-2014 15:45:00 8.9 C 7.45 g/m*3 7.69 C 8.1 km/h
1160 02-01-2014 15:50:00 9.1 C 7.54 g/m*3 6.87 C 14.5 km/h
1161 02-01-2014 15:55:00 9 C 7.49 g/m*3 7.81 C 8.1 km/h
1162 02-01-2014 16:00:00 8.9 C 7.45 g/m*3 6.85 C 12.9 km/h
1163 02-01-2014 16:05:00 8.9 C 7.36 g/m*3 7.69 C 8.1 km/h
1164 02-01-2014 16:10:00 9 C 7.41 g/m*3 7.81 C 8.1 km/h
1165 02-01-2014 16:15:00 8.9 C 7.36 g/m*3 7.69 C 8.1 km/h
1166 02-01-2014 16:20:00 8.8 C 7.31 g/m*3 7.58 C 8.1 km/h
1167 02-01-2014 16:25:00 8.8 C 7.31 g/m*3 6.97 C 11.3 km/h
1168 02-01-2014 16:30:00 8.8 C 7.31 g/m*3 6.97 C 11.3 km/h
1169 02-01-2014 16:35:00 8.7 C 7.26 g/m*3 6.17 C 16.1 km/h
1170 02-01-2014 16:40:00 8.6 C 7.3 g/m*3 6.73 C 11.3 km/h
1171 02-01-2014 16:45:00 8.7 C 7.26 g/m*3 7.87 C 6.4 km/h
1172 02-01-2014 16:50:00 8.3 C 7.25 g/m*3 8.3 C 4.8 km/h
1173 02-01-2014 16:55:00 8.1 C 7.16 g/m*3 8.1 C 4.8 km/h
1174 02-01-2014 17:00:00 8.1 C 7.16 g/m*3 8.1 C 3.2 km/h
1175 02-01-2014 17:05:00 7.8 C 7.02 g/m*3 7.8 C 3.2 km/h
Sensor: Nr:Datum:Temp:Abs-Feuchte:Windchill:Wind:
Aussen-T/F 1176 02-01-2014 17:10:00 7.7 C 6.97 g/m*3 7.7 C 3.2 km/h
1177 02-01-2014 17:15:00 7.7 C 6.97 g/m*3 7.7 C 4.8 km/h
1178 02-01-2014 17:35:00 7.7 C 7.14 g/m*3 6.71 C 6.4 km/h
1179 02-01-2014 17:40:00 7.7 C 7.14 g/m*3 7.7 C 3.2 km/h
1180 02-01-2014 17:45:00 7.7 C 7.14 g/m*3 6.28 C 8.1 km/h
1181 02-01-2014 17:50:00 7.6 C 7.09 g/m*3 7.6 C 4.8 km/h
1182 02-01-2014 17:55:00 7.4 C 7.08 g/m*3 7.4 C 3.2 km/h
1183 02-01-2014 18:00:00 7.3 C 7.11 g/m*3 7.3 C 3.2 km/h
1184 02-01-2014 18:05:00 7.2 C 7.06 g/m*3 7.2 C 3.2 km/h
1185 02-01-2014 18:10:00 6.9 C 7.01 g/m*3 6.9 C 3.2 km/h
1186 02-01-2014 18:15:00 6.8 C 6.96 g/m*3 6.8 C 3.2 km/h
1187 02-01-2014 18:20:00 6.7 C 6.99 g/m*3 6.7 C 3.2 km/h
1188 02-01-2014 18:25:00 6.6 C 6.95 g/m*3 6.6 C 3.2 km/h
1189 02-01-2014 18:30:00 6.6 C 6.95 g/m*3 6.6 C 3.2 km/h
1190 02-01-2014 18:35:00 6.7 C 6.99 g/m*3 6.7 C 3.2 km/h
1191 02-01-2014 18:40:00 6.7 C 6.99 g/m*3 6.7 C 1.6 km/h
1192 02-01-2014 18:45:00 6.7 C 7.07 g/m*3 6.7 C 1.6 km/h
1193 02-01-2014 18:50:00 6.8 C 7.11 g/m*3 6.8 C 1.6 km/h
1194 02-01-2014 18:55:00 6.8 C 7.11 g/m*3 6.8 C 3.2 km/h
1195 02-01-2014 19:00:00 7 C 7.21 g/m*3 7 C 3.2 km/h
1196 02-01-2014 19:05:00 7.2 C 7.3 g/m*3 7.2 C 1.6 km/h
1197 02-01-2014 19:10:00 7.2 C 7.3 g/m*3 7.2 C 3.2 km/h
1198 02-01-2014 19:15:00 7.3 C 7.35 g/m*3 7.3 C 1.6 km/h
1199 02-01-2014 19:20:00 7.2 C 7.3 g/m*3 7.2 C 3.2 km/h
1200 02-01-2014 19:25:00 7.1 C 7.25 g/m*3 7.1 C 3.2 km/h
Sensor: Nr:Datum:Temp:Abs-Feuchte:Windchill:Wind:
Aussen-T/F 1201 02-01-2014 19:30:00 6.9 C 7.16 g/m*3 6.9 C 1.6 km/h
1202 02-01-2014 19:35:00 6.7 C 7.07 g/m*3 6.7 C 3.2 km/h
1203 02-01-2014 19:40:00 6.5 C 6.97 g/m*3 6.5 C 3.2 km/h
1204 02-01-2014 19:45:00 6.3 C 6.96 g/m*3 6.3 C 4.8 km/h
1205 02-01-2014 19:50:00 6.2 C 6.91 g/m*3 6.2 C 4.8 km/h
1206 02-01-2014 19:55:00 6.1 C 6.87 g/m*3 6.1 C 4.8 km/h
1207 02-01-2014 20:00:00 6.1 C 6.94 g/m*3 6.1 C 3.2 km/h
1208 02-01-2014 20:05:00 6.1 C 6.87 g/m*3 6.1 C 3.2 km/h
1209 02-01-2014 20:10:00 6.2 C 6.99 g/m*3 6.2 C 3.2 km/h
1210 02-01-2014 20:15:00 6.2 C 6.99 g/m*3 6.2 C 3.2 km/h
1211 02-01-2014 20:20:00 6.4 C 7.08 g/m*3 6.4 C 1.6 km/h
1212 02-01-2014 20:25:00 6.5 C 7.12 g/m*3 6.5 C 3.2 km/h
1213 02-01-2014 20:30:00 6.6 C 7.17 g/m*3 6.6 C 1.6 km/h
1214 02-01-2014 20:35:00 6.6 C 7.17 g/m*3 6.6 C 3.2 km/h
1215 02-01-2014 20:40:00 6.5 C 7.05 g/m*3 6.5 C 3.2 km/h
1216 02-01-2014 20:45:00 6.3 C 6.96 g/m*3 6.3 C 3.2 km/h
1217 02-01-2014 20:50:00 6.2 C 6.91 g/m*3 6.2 C 3.2 km/h
1218 02-01-2014 20:55:00 6.1 C 6.87 g/m*3 6.1 C 3.2 km/h
1219 02-01-2014 21:00:00 6.1 C 6.87 g/m*3 6.1 C 3.2 km/h
1220 02-01-2014 21:05:00 6.2 C 6.99 g/m*3 6.2 C 3.2 km/h
1221 02-01-2014 21:10:00 6.3 C 7.03 g/m*3 6.3 C 1.6 km/h
1222 02-01-2014 21:15:00 6.3 C 7.03 g/m*3 6.3 C 3.2 km/h
1223 02-01-2014 21:20:00 6.2 C 6.91 g/m*3 6.2 C 1.6 km/h
1224 02-01-2014 21:25:00 6.2 C 6.91 g/m*3 6.2 C 3.2 km/h
1225 02-01-2014 21:30:00 6.1 C 6.87 g/m*3 6.1 C 3.2 km/h
Sensor: Nr:Datum:Temp:Abs-Feuchte:Windchill:Wind:
Aussen-T/F 1226 02-01-2014 21:35:00 6 C 6.82 g/m*3 6 C 1.6 km/h
1227 02-01-2014 21:40:00 5.9 C 6.78 g/m*3 5.9 C 3.2 km/h
1228 02-01-2014 21:45:00 5.8 C 6.73 g/m*3 5.8 C 3.2 km/h
1229 02-01-2014 21:50:00 5.8 C 6.81 g/m*3 5.8 C 1.6 km/h
1230 02-01-2014 21:55:00 5.9 C 6.85 g/m*3 5.9 C 3.2 km/h
1231 02-01-2014 22:00:00 5.9 C 6.85 g/m*3 5.9 C 3.2 km/h
1232 02-01-2014 22:05:00 5.9 C 6.85 g/m*3 5.9 C 3.2 km/h
1233 02-01-2014 22:10:00 6.1 C 6.94 g/m*3 6.1 C 3.2 km/h
1234 02-01-2014 22:15:00 6.2 C 6.99 g/m*3 6.2 C 3.2 km/h
1235 02-01-2014 22:20:00 6.1 C 6.94 g/m*3 6.1 C 1.6 km/h
1236 02-01-2014 22:25:00 5.9 C 6.78 g/m*3 5.9 C 3.2 km/h
1237 02-01-2014 22:30:00 5.8 C 6.73 g/m*3 5.8 C 3.2 km/h
1238 02-01-2014 22:35:00 5.8 C 6.81 g/m*3 5.8 C 1.6 km/h
1239 02-01-2014 22:40:00 5.8 C 6.73 g/m*3 5.8 C 0 km/h
1240 02-01-2014 22:45:00 5.6 C 6.65 g/m*3 5.6 C 1.6 km/h
1241 02-01-2014 22:50:00 5.6 C 6.72 g/m*3 5.6 C 0 km/h
1242 02-01-2014 22:55:00 5.5 C 6.67 g/m*3 5.5 C 1.6 km/h
1243 02-01-2014 23:00:00 5.4 C 6.63 g/m*3 5.4 C 0 km/h
1244 02-01-2014 23:05:00 5.3 C 6.52 g/m*3 5.3 C 0 km/h
1245 02-01-2014 23:10:00 5.2 C 6.54 g/m*3 5.2 C 0 km/h
1246 02-01-2014 23:15:00 5.1 C 6.43 g/m*3 5.1 C 1.6 km/h
1247 02-01-2014 23:20:00 5.1 C 6.5 g/m*3 5.1 C 0 km/h
1248 02-01-2014 23:25:00 5.1 C 6.5 g/m*3 5.1 C 0 km/h
1249 02-01-2014 23:30:00 5.1 C 6.5 g/m*3 5.1 C 0 km/h
1250 02-01-2014 23:35:00 4.9 C 6.41 g/m*3 4.9 C 0 km/h
Sensor: Nr:Datum:Temp:Abs-Feuchte:Windchill:Wind:
Aussen-T/F 1251 02-01-2014 23:40:00 4.8 C 6.37 g/m*3 4.8 C 0 km/h
1252 02-01-2014 23:45:00 4.6 C 6.29 g/m*3 4.6 C 0 km/h
1253 02-01-2014 23:50:00 4.5 C 6.24 g/m*3 4.5 C 0 km/h
1254 02-01-2014 23:55:00 4.4 C 6.2 g/m*3 4.4 C 0 km/h
1255 03-01-2014 00:00:00 4.4 C 6.2 g/m*3 4.4 C 0 km/h
1256 03-01-2014 00:05:00 4.3 C 6.16 g/m*3 4.3 C 0 km/h
1257 03-01-2014 00:10:00 4.2 C 6.19 g/m*3 4.2 C 0 km/h
1258 03-01-2014 00:15:00 4.2 C 6.19 g/m*3 4.2 C 0 km/h
1259 03-01-2014 00:20:00 4.1 C 6.14 g/m*3 4.1 C 0 km/h
1260 03-01-2014 00:25:00 4 C 6.1 g/m*3 4 C 0 km/h
1261 03-01-2014 00:30:00 4 C 6.1 g/m*3 4 C 1.6 km/h
1262 03-01-2014 00:35:00 3.9 C 6.06 g/m*3 3.9 C 1.6 km/h
1263 03-01-2014 00:40:00 3.9 C 6.06 g/m*3 3.9 C 0 km/h
1264 03-01-2014 00:45:00 3.8 C 6.02 g/m*3 3.8 C 0 km/h
1265 03-01-2014 00:50:00 3.7 C 5.98 g/m*3 3.7 C 0 km/h
1266 03-01-2014 00:55:00 3.8 C 6.02 g/m*3 3.8 C 0 km/h
1267 03-01-2014 01:00:00 3.7 C 5.98 g/m*3 3.7 C 0 km/h
1268 03-01-2014 01:05:00 3.7 C 5.98 g/m*3 3.7 C 0 km/h
1269 03-01-2014 01:10:00 3.7 C 5.98 g/m*3 3.7 C 0 km/h
1270 03-01-2014 01:15:00 3.7 C 5.98 g/m*3 3.7 C 1.6 km/h
1271 03-01-2014 01:20:00 3.7 C 5.98 g/m*3 3.7 C 0 km/h
1272 03-01-2014 01:25:00 3.7 C 5.98 g/m*3 3.7 C 0 km/h
1273 03-01-2014 01:30:00 3.8 C 6.09 g/m*3 3.8 C 0 km/h
1274 03-01-2014 01:35:00 3.9 C 6.13 g/m*3 3.9 C 0 km/h
1275 03-01-2014 01:40:00 3.9 C 6.13 g/m*3 3.9 C 0 km/h
Sensor: Nr:Datum:Temp:Abs-Feuchte:Windchill:Wind:
Aussen-T/F 1276 03-01-2014 01:45:00 3.9 C 6.13 g/m*3 3.9 C 0 km/h
1277 03-01-2014 01:50:00 3.9 C 6.13 g/m*3 3.9 C 0 km/h
1278 03-01-2014 01:55:00 4.1 C 6.21 g/m*3 4.1 C 1.6 km/h
1279 03-01-2014 02:00:00 4.2 C 6.25 g/m*3 4.2 C 3.2 km/h
1280 03-01-2014 02:05:00 4.5 C 6.38 g/m*3 4.5 C 3.2 km/h
1281 03-01-2014 02:10:00 4.4 C 6.33 g/m*3 4.4 C 3.2 km/h
1282 03-01-2014 02:15:00 4.4 C 6.33 g/m*3 4.4 C 0 km/h
1283 03-01-2014 02:20:00 4.3 C 6.29 g/m*3 4.3 C 3.2 km/h
1284 03-01-2014 02:25:00 4.3 C 6.29 g/m*3 4.3 C 1.6 km/h
1285 03-01-2014 02:30:00 4.2 C 6.25 g/m*3 4.2 C 0 km/h
1286 03-01-2014 02:35:00 4.2 C 6.25 g/m*3 4.2 C 1.6 km/h
1287 03-01-2014 02:40:00 4.4 C 6.33 g/m*3 4.4 C 1.6 km/h
1288 03-01-2014 02:45:00 4.5 C 6.38 g/m*3 4.5 C 1.6 km/h
1289 03-01-2014 02:50:00 4.6 C 6.42 g/m*3 4.6 C 1.6 km/h
1290 03-01-2014 02:55:00 4.7 C 6.46 g/m*3 4.7 C 0 km/h
1291 03-01-2014 03:00:00 4.8 C 6.5 g/m*3 4.8 C 3.2 km/h
1292 03-01-2014 03:05:00 4.9 C 6.55 g/m*3 4.9 C 3.2 km/h
1293 03-01-2014 03:10:00 4.7 C 6.46 g/m*3 4.7 C 0 km/h
1294 03-01-2014 03:15:00 4.6 C 6.42 g/m*3 4.6 C 1.6 km/h
1295 03-01-2014 03:20:00 4.5 C 6.38 g/m*3 4.5 C 1.6 km/h
1296 03-01-2014 03:25:00 4.5 C 6.38 g/m*3 4.5 C 1.6 km/h
1297 03-01-2014 03:30:00 4.8 C 6.5 g/m*3 4.8 C 3.2 km/h
1298 03-01-2014 03:35:00 5.1 C 6.7 g/m*3 5.1 C 3.2 km/h
1299 03-01-2014 03:40:00 5.4 C 6.84 g/m*3 5.4 C 3.2 km/h
1300 03-01-2014 03:45:00 5.6 C 6.93 g/m*3 5.6 C 1.6 km/h
Sensor: Nr:Datum:Temp:Abs-Feuchte:Windchill:Wind:
Aussen-T/F 1301 03-01-2014 03:50:00 5.7 C 6.97 g/m*3 5.7 C 1.6 km/h
1302 03-01-2014 03:55:00 5.8 C 6.95 g/m*3 5.8 C 3.2 km/h
1303 03-01-2014 04:00:00 5.9 C 6.99 g/m*3 5.9 C 4.8 km/h
1304 03-01-2014 04:05:00 5.9 C 6.99 g/m*3 5.9 C 3.2 km/h
1305 03-01-2014 04:10:00 5.9 C 6.99 g/m*3 5.9 C 0 km/h
1306 03-01-2014 04:15:00 6 C 7.04 g/m*3 6 C 3.2 km/h
1307 03-01-2014 04:20:00 6.1 C 7.09 g/m*3 6.1 C 1.6 km/h
1308 03-01-2014 04:25:00 6.1 C 7.01 g/m*3 6.1 C 3.2 km/h
1309 03-01-2014 04:30:00 6.1 C 7.01 g/m*3 6.1 C 0 km/h
1310 03-01-2014 04:35:00 6.1 C 7.01 g/m*3 4.86 C 6.4 km/h
1311 03-01-2014 04:40:00 6.2 C 7.06 g/m*3 6.2 C 4.8 km/h
1312 03-01-2014 04:45:00 6.2 C 6.99 g/m*3 6.2 C 4.8 km/h
1313 03-01-2014 04:50:00 6.2 C 6.99 g/m*3 6.2 C 4.8 km/h
1314 03-01-2014 04:55:00 6.3 C 7.03 g/m*3 6.3 C 4.8 km/h
1315 03-01-2014 05:00:00 6.3 C 7.03 g/m*3 4.64 C 8.1 km/h
1316 03-01-2014 05:05:00 6.4 C 7 g/m*3 4.75 C 8.1 km/h
1317 03-01-2014 05:10:00 6.2 C 6.84 g/m*3 6.2 C 1.6 km/h
1318 03-01-2014 05:15:00 6.2 C 6.91 g/m*3 6.2 C 3.2 km/h
1319 03-01-2014 05:20:00 6.2 C 6.91 g/m*3 6.2 C 1.6 km/h
1320 03-01-2014 05:25:00 6.1 C 6.79 g/m*3 6.1 C 0 km/h
1321 03-01-2014 05:30:00 5.9 C 6.71 g/m*3 5.9 C 3.2 km/h
1322 03-01-2014 05:35:00 5.7 C 6.69 g/m*3 5.7 C 3.2 km/h
1323 03-01-2014 05:40:00 5.6 C 6.65 g/m*3 5.6 C 3.2 km/h
1324 03-01-2014 05:45:00 5.5 C 6.67 g/m*3 5.5 C 3.2 km/h
1325 03-01-2014 05:50:00 5.5 C 6.67 g/m*3 5.5 C 3.2 km/h
Sensor: Nr:Datum:Temp:Abs-Feuchte:Windchill:Wind:
Aussen-T/F 1326 03-01-2014 05:55:00 5.5 C 6.67 g/m*3 5.5 C 3.2 km/h
1327 03-01-2014 06:00:00 5.6 C 6.79 g/m*3 5.6 C 4.8 km/h
1328 03-01-2014 06:05:00 5.8 C 6.88 g/m*3 5.8 C 4.8 km/h
1329 03-01-2014 06:10:00 5.8 C 6.88 g/m*3 5.8 C 3.2 km/h
1330 03-01-2014 06:15:00 5.7 C 6.76 g/m*3 5.7 C 0 km/h
1331 03-01-2014 06:20:00 5.8 C 6.88 g/m*3 5.8 C 4.8 km/h
1332 03-01-2014 06:25:00 5.8 C 6.88 g/m*3 5.8 C 3.2 km/h
1333 03-01-2014 06:30:00 5.8 C 6.81 g/m*3 5.8 C 3.2 km/h
1334 03-01-2014 06:35:00 5.7 C 6.76 g/m*3 5.7 C 3.2 km/h
1335 03-01-2014 06:40:00 5.6 C 6.72 g/m*3 5.6 C 3.2 km/h
1336 03-01-2014 06:45:00 5.6 C 6.72 g/m*3 5.6 C 4.8 km/h
1337 03-01-2014 06:50:00 5.7 C 6.83 g/m*3 5.7 C 3.2 km/h
1338 03-01-2014 06:55:00 5.7 C 6.83 g/m*3 5.7 C 1.6 km/h
1339 03-01-2014 07:00:00 5.8 C 6.88 g/m*3 5.8 C 0 km/h
1340 03-01-2014 07:05:00 6 C 6.97 g/m*3 6 C 4.8 km/h
1341 03-01-2014 07:10:00 6.1 C 7.01 g/m*3 6.1 C 3.2 km/h
1342 03-01-2014 07:15:00 6 C 6.97 g/m*3 6 C 3.2 km/h
1343 03-01-2014 07:20:00 5.9 C 6.85 g/m*3 5.9 C 3.2 km/h
1344 03-01-2014 07:25:00 6 C 6.97 g/m*3 6 C 3.2 km/h
1345 03-01-2014 07:30:00 6.1 C 6.94 g/m*3 6.1 C 3.2 km/h
1346 03-01-2014 07:35:00 5.9 C 6.85 g/m*3 5.9 C 1.6 km/h
1347 03-01-2014 07:40:00 5.8 C 6.81 g/m*3 5.8 C 1.6 km/h
1348 03-01-2014 07:45:00 5.8 C 6.81 g/m*3 5.8 C 3.2 km/h
1349 03-01-2014 07:50:00 5.8 C 6.88 g/m*3 5.8 C 3.2 km/h
1350 03-01-2014 07:55:00 5.8 C 6.88 g/m*3 5.8 C 3.2 km/h
Sensor: Nr:Datum:Temp:Abs-Feuchte:Windchill:Wind:
Aussen-T/F 1351 03-01-2014 08:00:00 5.9 C 6.92 g/m*3 5.9 C 4.8 km/h
1352 03-01-2014 08:05:00 5.9 C 6.92 g/m*3 5.9 C 1.6 km/h
1353 03-01-2014 08:10:00 5.9 C 6.92 g/m*3 5.9 C 0 km/h
1354 03-01-2014 08:15:00 5.9 C 6.92 g/m*3 5.9 C 3.2 km/h
1355 03-01-2014 08:20:00 6 C 6.97 g/m*3 6 C 0 km/h
1356 03-01-2014 08:25:00 6.1 C 7.01 g/m*3 6.1 C 0 km/h
1357 03-01-2014 08:30:00 6.2 C 7.06 g/m*3 6.2 C 0 km/h
1358 03-01-2014 08:35:00 6.3 C 7.11 g/m*3 6.3 C 0 km/h
1359 03-01-2014 08:40:00 6.3 C 7.11 g/m*3 6.3 C 0 km/h
1360 03-01-2014 08:45:00 6.4 C 7.15 g/m*3 6.4 C 0 km/h
1361 03-01-2014 08:50:00 6.6 C 7.25 g/m*3 6.6 C 3.2 km/h
1362 03-01-2014 08:55:00 6.6 C 7.25 g/m*3 6.6 C 1.6 km/h
1363 03-01-2014 09:00:00 6.6 C 7.17 g/m*3 6.6 C 3.2 km/h
1364 03-01-2014 09:05:00 6.7 C 7.22 g/m*3 6.7 C 3.2 km/h
1365 03-01-2014 09:10:00 6.7 C 7.22 g/m*3 6.7 C 3.2 km/h
1366 03-01-2014 09:15:00 6.7 C 7.22 g/m*3 6.7 C 3.2 km/h
1367 03-01-2014 09:20:00 6.8 C 7.27 g/m*3 6.8 C 3.2 km/h
1368 03-01-2014 09:25:00 7 C 7.28 g/m*3 5.9 C 6.4 km/h
1369 03-01-2014 09:30:00 7.3 C 7.35 g/m*3 5.81 C 8.1 km/h
1370 03-01-2014 09:35:00 7.4 C 7.4 g/m*3 7.4 C 4.8 km/h
1371 03-01-2014 09:40:00 7.7 C 7.38 g/m*3 7.7 C 4.8 km/h
1372 03-01-2014 09:45:00 8 C 7.44 g/m*3 7.06 C 6.4 km/h
1373 03-01-2014 09:50:00 8.3 C 7.59 g/m*3 7.41 C 6.4 km/h
1374 03-01-2014 09:55:00 8.6 C 7.56 g/m*3 7.75 C 6.4 km/h
1375 03-01-2014 10:00:00 8.9 C 7.62 g/m*3 7.09 C 11.3 km/h
Sensor: Nr:Datum:Temp:Abs-Feuchte:Windchill:Wind:
Aussen-T/F 1376 03-01-2014 10:05:00 9.2 C 7.68 g/m*3 8.05 C 8.1 km/h
1377 03-01-2014 10:10:00 9.3 C 7.73 g/m*3 8.56 C 6.4 km/h
1378 03-01-2014 10:15:00 9.3 C 7.73 g/m*3 8.56 C 6.4 km/h
1379 03-01-2014 10:20:00 9.3 C 7.82 g/m*3 7.58 C 11.3 km/h
1380 03-01-2014 10:25:00 9.2 C 7.86 g/m*3 8.05 C 8.1 km/h
1381 03-01-2014 10:30:00 9.1 C 7.9 g/m*3 9.1 C 4.8 km/h
1382 03-01-2014 10:35:00 9.1 C 7.9 g/m*3 9.1 C 0 km/h
1383 03-01-2014 10:40:00 9.1 C 7.9 g/m*3 8.33 C 6.4 km/h
1384 03-01-2014 10:45:00 9.1 C 7.9 g/m*3 9.1 C 4.8 km/h
1385 03-01-2014 10:50:00 9.1 C 7.9 g/m*3 8.33 C 6.4 km/h
1386 03-01-2014 10:55:00 9.1 C 7.99 g/m*3 9.1 C 3.2 km/h
1387 03-01-2014 11:00:00 9.1 C 7.99 g/m*3 9.1 C 3.2 km/h
1388 03-01-2014 11:05:00 9.1 C 7.99 g/m*3 9.1 C 1.6 km/h
1389 03-01-2014 11:10:00 9.1 C 7.99 g/m*3 9.1 C 0 km/h
1390 03-01-2014 11:15:00 9.1 C 7.99 g/m*3 9.1 C 3.2 km/h
1391 03-01-2014 11:20:00 9.2 C 8.04 g/m*3 9.2 C 4.8 km/h
1392 03-01-2014 11:25:00 9.2 C 8.04 g/m*3 8.05 C 8.1 km/h
1393 03-01-2014 11:30:00 9.3 C 8.09 g/m*3 9.3 C 3.2 km/h
1394 03-01-2014 11:35:00 9.3 C 8.09 g/m*3 8.16 C 8.1 km/h
1395 03-01-2014 11:40:00 9.3 C 8.09 g/m*3 9.3 C 4.8 km/h
1396 03-01-2014 11:45:00 9.3 C 8.09 g/m*3 7.33 C 12.9 km/h
1397 03-01-2014 11:50:00 9.7 C 8.3 g/m*3 9.02 C 6.4 km/h
1398 03-01-2014 11:55:00 9.7 C 8.3 g/m*3 8.63 C 8.1 km/h
1399 03-01-2014 12:00:00 9.7 C 8.3 g/m*3 9.7 C 4.8 km/h
1400 03-01-2014 12:05:00 10 C 8.46 g/m*3 8.19 C 12.9 km/h
Sensor: Nr:Datum:Temp:Abs-Feuchte:Windchill:Wind:
Aussen-T/F 1401 03-01-2014 12:10:00 10.3 C 8.43 g/m*3 9.04 C 9.7 km/h
1402 03-01-2014 12:15:00 10.4 C 8.48 g/m*3 8.9 C 11.3 km/h
1403 03-01-2014 12:20:00 10.6 C 8.49 g/m*3 8.92 C 12.9 km/h
1404 03-01-2014 12:25:00 10.7 C 8.55 g/m*3 8.65 C 16.1 km/h
1405 03-01-2014 12:30:00 10.8 C 8.5 g/m*3 8.78 C 16.1 km/h
1406 03-01-2014 12:35:00 10.8 C 8.5 g/m*3 9.38 C 11.3 km/h
1407 03-01-2014 12:40:00 10.8 C 8.5 g/m*3 9.16 C 12.9 km/h
1408 03-01-2014 12:45:00 10.8 C 8.5 g/m*3 9.16 C 12.9 km/h
1409 03-01-2014 12:50:00 10.8 C 8.4 g/m*3 9.16 C 12.9 km/h
1410 03-01-2014 12:55:00 10.9 C 8.45 g/m*3 9.28 C 12.9 km/h
1411 03-01-2014 13:00:00 10.9 C 8.45 g/m*3 9.28 C 12.9 km/h
1412 03-01-2014 13:05:00 10.9 C 8.55 g/m*3 10.04 C 8.1 km/h
1413 03-01-2014 13:10:00 10.8 C 8.5 g/m*3 10.8 C 4.8 km/h
1414 03-01-2014 13:15:00 10.8 C 8.5 g/m*3 10.29 C 6.4 km/h
1415 03-01-2014 13:20:00 10.8 C 8.5 g/m*3 10.29 C 6.4 km/h
1416 03-01-2014 13:25:00 10.9 C 8.55 g/m*3 10.41 C 6.4 km/h
1417 03-01-2014 13:30:00 11.1 C 8.56 g/m*3 11.1 C 14.5 km/h
1418 03-01-2014 13:35:00 11.2 C 8.51 g/m*3 11.2 C 8.1 km/h
1419 03-01-2014 13:40:00 11.2 C 8.41 g/m*3 11.2 C 4.8 km/h
1420 03-01-2014 13:45:00 11.3 C 8.36 g/m*3 11.3 C 9.7 km/h
1421 03-01-2014 13:50:00 11.5 C 8.37 g/m*3 11.5 C 6.4 km/h
1422 03-01-2014 13:55:00 11.6 C 8.42 g/m*3 11.6 C 9.7 km/h
1423 03-01-2014 14:00:00 11.6 C 8.42 g/m*3 11.6 C 4.8 km/h
1424 03-01-2014 14:05:00 11.7 C 8.37 g/m*3 11.7 C 11.3 km/h
1425 03-01-2014 14:10:00 11.8 C 8.42 g/m*3 11.8 C 9.7 km/h
Sensor: Nr:Datum:Temp:Abs-Feuchte:Windchill:Wind:
Aussen-T/F 1426 03-01-2014 14:15:00 11.9 C 8.37 g/m*3 11.9 C 11.3 km/h
1427 03-01-2014 14:20:00 12 C 8.42 g/m*3 12 C 8.1 km/h
1428 03-01-2014 14:25:00 12.1 C 8.47 g/m*3 12.1 C 6.4 km/h
1429 03-01-2014 14:30:00 12.1 C 8.47 g/m*3 12.1 C 8.1 km/h
1430 03-01-2014 14:35:00 12.2 C 8.42 g/m*3 12.2 C 6.4 km/h
1431 03-01-2014 14:40:00 12.1 C 8.36 g/m*3 12.1 C 12.9 km/h
1432 03-01-2014 14:45:00 12.2 C 8.42 g/m*3 12.2 C 6.4 km/h
1433 03-01-2014 14:50:00 12.2 C 8.42 g/m*3 12.2 C 12.9 km/h
1434 03-01-2014 14:55:00 12.2 C 8.42 g/m*3 12.2 C 4.8 km/h
1435 03-01-2014 15:00:00 12.3 C 8.47 g/m*3 12.3 C 0 km/h
1436 03-01-2014 15:05:00 12.2 C 8.31 g/m*3 12.2 C 8.1 km/h
1437 03-01-2014 15:10:00 12.2 C 8.42 g/m*3 12.2 C 6.4 km/h
1438 03-01-2014 15:15:00 12.2 C 8.31 g/m*3 12.2 C 9.7 km/h
1439 03-01-2014 15:20:00 12.2 C 8.42 g/m*3 12.2 C 3.2 km/h
1440 03-01-2014 15:25:00 12.1 C 8.47 g/m*3 12.1 C 4.8 km/h
1441 03-01-2014 15:30:00 11.8 C 8.42 g/m*3 11.8 C 3.2 km/h
1442 03-01-2014 15:35:00 11.6 C 8.42 g/m*3 11.6 C 1.6 km/h
1443 03-01-2014 15:40:00 11.5 C 8.26 g/m*3 11.5 C 4.8 km/h
1444 03-01-2014 15:45:00 11.5 C 8.26 g/m*3 11.5 C 6.4 km/h
1445 03-01-2014 15:50:00 11.5 C 8.37 g/m*3 11.5 C 4.8 km/h
1446 03-01-2014 15:55:00 11.3 C 8.26 g/m*3 11.3 C 3.2 km/h
1447 03-01-2014 16:00:00 11.2 C 8.41 g/m*3 11.2 C 3.2 km/h
1448 03-01-2014 16:05:00 11.2 C 8.31 g/m*3 11.2 C 4.8 km/h
1449 03-01-2014 16:10:00 11.2 C 8.31 g/m*3 11.2 C 3.2 km/h
1450 03-01-2014 16:15:00 11.3 C 8.36 g/m*3 11.3 C 1.6 km/h
Sensor: Nr:Datum:Temp:Abs-Feuchte:Windchill:Wind:
Aussen-T/F 1451 03-01-2014 16:20:00 11.3 C 8.36 g/m*3 11.3 C 3.2 km/h
1452 03-01-2014 16:25:00 11.3 C 8.26 g/m*3 11.3 C 8.1 km/h
1453 03-01-2014 16:30:00 11.4 C 8.31 g/m*3 11.4 C 4.8 km/h
1454 03-01-2014 16:35:00 11.3 C 8.36 g/m*3 11.3 C 4.8 km/h
1455 03-01-2014 16:40:00 11 C 8.21 g/m*3 11 C 3.2 km/h
1456 03-01-2014 16:45:00 10.7 C 8.15 g/m*3 10.7 C 0 km/h
1457 03-01-2014 16:50:00 10.4 C 8.1 g/m*3 9.83 C 6.4 km/h
1458 03-01-2014 16:55:00 10.5 C 8.15 g/m*3 8.8 C 12.9 km/h
1459 03-01-2014 17:00:00 10.9 C 8.26 g/m*3 10.9 C 4.8 km/h
1460 03-01-2014 17:05:00 10.8 C 8.2 g/m*3 9.93 C 8.1 km/h
1461 03-01-2014 17:10:00 10.7 C 8.15 g/m*3 9.81 C 8.1 km/h
1462 03-01-2014 17:15:00 10.7 C 8.15 g/m*3 10.7 C 4.8 km/h
1463 03-01-2014 17:20:00 10.7 C 8.15 g/m*3 9.81 C 8.1 km/h
1464 03-01-2014 17:25:00 10.6 C 8.2 g/m*3 10.6 C 4.8 km/h
1465 03-01-2014 17:30:00 10.8 C 8.2 g/m*3 10.29 C 6.4 km/h
1466 03-01-2014 17:35:00 10.9 C 8.16 g/m*3 10.9 C 4.8 km/h
1467 03-01-2014 17:40:00 11.2 C 8.21 g/m*3 11.2 C 9.7 km/h
1468 03-01-2014 17:45:00 11.2 C 8.21 g/m*3 11.2 C 4.8 km/h
1469 03-01-2014 17:50:00 10.9 C 8.16 g/m*3 10.9 C 4.8 km/h
1470 03-01-2014 17:55:00 10.8 C 8.11 g/m*3 10.8 C 4.8 km/h
1471 03-01-2014 18:00:00 10.9 C 8.16 g/m*3 9.76 C 9.7 km/h
1472 03-01-2014 18:05:00 11.1 C 8.16 g/m*3 11.1 C 1.6 km/h
1473 03-01-2014 18:10:00 10.8 C 8.11 g/m*3 10.29 C 6.4 km/h
1474 03-01-2014 18:15:00 10.7 C 8.15 g/m*3 10.7 C 3.2 km/h
1475 03-01-2014 18:20:00 10.7 C 8.15 g/m*3 9.81 C 8.1 km/h
Sensor: Nr:Datum:Temp:Abs-Feuchte:Windchill:Wind:
Aussen-T/F 1476 03-01-2014 18:25:00 10.8 C 8.2 g/m*3 9.93 C 8.1 km/h
1477 03-01-2014 18:30:00 10.9 C 8.16 g/m*3 9.51 C 11.3 km/h
1478 03-01-2014 18:35:00 10.8 C 8.11 g/m*3 9.16 C 12.9 km/h
1479 03-01-2014 18:40:00 10.9 C 8.16 g/m*3 9.28 C 12.9 km/h
1480 03-01-2014 18:45:00 11.2 C 8.21 g/m*3 11.2 C 3.2 km/h
1481 03-01-2014 18:50:00 11.3 C 8.16 g/m*3 11.3 C 9.7 km/h
1482 03-01-2014 18:55:00 11.5 C 8.26 g/m*3 11.5 C 12.9 km/h
1483 03-01-2014 19:00:00 11.5 C 8.16 g/m*3 11.5 C 12.9 km/h
1484 03-01-2014 19:05:00 11.6 C 8.21 g/m*3 11.6 C 8.1 km/h
1485 03-01-2014 19:10:00 11.8 C 8.21 g/m*3 11.8 C 11.3 km/h
1486 03-01-2014 19:15:00 11.9 C 8.26 g/m*3 11.9 C 4.8 km/h
1487 03-01-2014 19:20:00 11.8 C 8.1 g/m*3 11.8 C 8.1 km/h
1488 03-01-2014 19:25:00 11.8 C 8.1 g/m*3 11.8 C 8.1 km/h
1489 03-01-2014 19:30:00 11.8 C 8.1 g/m*3 11.8 C 9.7 km/h
1490 03-01-2014 19:35:00 11.8 C 8.1 g/m*3 11.8 C 3.2 km/h
1491 03-01-2014 19:40:00 11.9 C 8.15 g/m*3 11.9 C 16.1 km/h
1492 03-01-2014 19:45:00 12 C 8.21 g/m*3 12 C 11.3 km/h
1493 03-01-2014 19:50:00 12.2 C 8.2 g/m*3 12.2 C 14.5 km/h
1494 03-01-2014 19:55:00 12.3 C 8.14 g/m*3 12.3 C 24.1 km/h
1495 03-01-2014 20:00:00 12.4 C 8.19 g/m*3 12.4 C 29 km/h
1496 03-01-2014 20:05:00 12.4 C 8.19 g/m*3 12.4 C 17.7 km/h
1497 03-01-2014 20:10:00 12.3 C 8.14 g/m*3 12.3 C 22.5 km/h
1498 03-01-2014 20:15:00 12.4 C 8.19 g/m*3 12.4 C 27.4 km/h
1499 03-01-2014 20:20:00 12.4 C 8.09 g/m*3 12.4 C 16.1 km/h
1500 03-01-2014 20:25:00 12.4 C 8.09 g/m*3 12.4 C 20.9 km/h
Sensor: Nr:Datum:Temp:Abs-Feuchte:Windchill:Wind:
Aussen-T/F 1501 03-01-2014 20:30:00 12.4 C 8.09 g/m*3 12.4 C 17.7 km/h
1502 03-01-2014 20:35:00 12.4 C 7.98 g/m*3 12.4 C 17.7 km/h
1503 03-01-2014 20:40:00 12.3 C 7.93 g/m*3 12.3 C 12.9 km/h
1504 03-01-2014 20:45:00 12.3 C 7.93 g/m*3 12.3 C 24.1 km/h
1505 03-01-2014 20:50:00 12.4 C 7.87 g/m*3 12.4 C 20.9 km/h
1506 03-01-2014 20:55:00 12.3 C 7.93 g/m*3 12.3 C 22.5 km/h
1507 03-01-2014 21:00:00 12.3 C 7.93 g/m*3 12.3 C 19.3 km/h
1508 03-01-2014 21:05:00 12.2 C 7.99 g/m*3 12.2 C 14.5 km/h
1509 03-01-2014 21:10:00 12.2 C 7.99 g/m*3 12.2 C 20.9 km/h
1510 03-01-2014 21:15:00 12.1 C 7.94 g/m*3 12.1 C 20.9 km/h
1511 03-01-2014 21:20:00 12.1 C 7.94 g/m*3 12.1 C 19.3 km/h
1512 03-01-2014 21:25:00 12.1 C 7.94 g/m*3 12.1 C 19.3 km/h
1513 03-01-2014 21:30:00 12.1 C 7.94 g/m*3 12.1 C 22.5 km/h
1514 03-01-2014 21:35:00 12.1 C 7.83 g/m*3 12.1 C 17.7 km/h
1515 03-01-2014 21:40:00 12 C 7.78 g/m*3 12 C 30.6 km/h
1516 03-01-2014 21:45:00 12 C 7.67 g/m*3 12 C 20.9 km/h
1517 03-01-2014 21:50:00 11.9 C 7.63 g/m*3 11.9 C 20.9 km/h
1518 03-01-2014 21:55:00 11.9 C 7.52 g/m*3 11.9 C 17.7 km/h
1519 03-01-2014 22:00:00 11.8 C 7.58 g/m*3 11.8 C 22.5 km/h
1520 03-01-2014 22:05:00 11.8 C 7.58 g/m*3 11.8 C 19.3 km/h
1521 03-01-2014 22:10:00 11.8 C 7.58 g/m*3 11.8 C 20.9 km/h
1522 03-01-2014 22:15:00 11.8 C 7.58 g/m*3 11.8 C 27.4 km/h
1523 03-01-2014 22:20:00 11.7 C 7.43 g/m*3 11.7 C 20.9 km/h
1524 03-01-2014 22:25:00 11.7 C 7.53 g/m*3 11.7 C 11.3 km/h
1525 03-01-2014 22:30:00 11.6 C 7.48 g/m*3 11.6 C 12.9 km/h
Sensor: Nr:Datum:Temp:Abs-Feuchte:Windchill:Wind:
Aussen-T/F 1526 03-01-2014 22:35:00 11.4 C 7.39 g/m*3 11.4 C 14.5 km/h
1527 03-01-2014 22:40:00 11.4 C 7.6 g/m*3 11.4 C 6.4 km/h
1528 03-01-2014 22:45:00 11.2 C 7.4 g/m*3 11.2 C 9.7 km/h
1529 03-01-2014 22:50:00 11.2 C 7.4 g/m*3 11.2 C 17.7 km/h
1530 03-01-2014 22:55:00 11.2 C 7.3 g/m*3 11.2 C 16.1 km/h
1531 03-01-2014 23:00:00 11.3 C 7.24 g/m*3 11.3 C 14.5 km/h
1532 03-01-2014 23:05:00 11.3 C 7.24 g/m*3 11.3 C 17.7 km/h
1533 03-01-2014 23:10:00 11.2 C 7.1 g/m*3 11.2 C 22.5 km/h
1534 03-01-2014 23:15:00 11.2 C 7.1 g/m*3 11.2 C 19.3 km/h
1535 03-01-2014 23:20:00 11.1 C 6.95 g/m*3 11.1 C 19.3 km/h
1536 03-01-2014 23:25:00 10.9 C 6.86 g/m*3 8.3 C 22.5 km/h
1537 03-01-2014 23:30:00 10.9 C 6.86 g/m*3 9.51 C 11.3 km/h
1538 03-01-2014 23:35:00 10.7 C 6.88 g/m*3 8.84 C 14.5 km/h
1539 03-01-2014 23:40:00 10.6 C 6.73 g/m*3 9.69 C 8.1 km/h
1540 03-01-2014 23:45:00 10.5 C 6.69 g/m*3 8.23 C 17.7 km/h
1541 03-01-2014 23:50:00 10.5 C 6.69 g/m*3 9.02 C 11.3 km/h
1542 03-01-2014 23:55:00 10.4 C 6.65 g/m*3 9.16 C 9.7 km/h
1543 04-01-2014 00:00:00 10.3 C 6.7 g/m*3 7.82 C 19.3 km/h
1544 04-01-2014 00:05:00 10.3 C 6.61 g/m*3 8.16 C 16.1 km/h
1545 04-01-2014 00:10:00 10.3 C 6.61 g/m*3 8.55 C 12.9 km/h
1546 04-01-2014 00:15:00 10.2 C 6.66 g/m*3 9.22 C 8.1 km/h
1547 04-01-2014 00:20:00 9.9 C 6.63 g/m*3 7.85 C 14.5 km/h
1548 04-01-2014 00:25:00 9.7 C 6.64 g/m*3 8.06 C 11.3 km/h
1549 04-01-2014 00:30:00 9.5 C 6.64 g/m*3 8.4 C 8.1 km/h
1550 04-01-2014 00:35:00 9.4 C 6.6 g/m*3 8.68 C 6.4 km/h
Sensor: Nr:Datum:Temp:Abs-Feuchte:Windchill:Wind:
Aussen-T/F 1551 04-01-2014 00:40:00 9.4 C 6.6 g/m*3 9.4 C 4.8 km/h
1552 04-01-2014 00:45:00 9.3 C 6.56 g/m*3 8.56 C 6.4 km/h
1553 04-01-2014 00:50:00 9.2 C 6.61 g/m*3 8.05 C 8.1 km/h
1554 04-01-2014 00:55:00 9.3 C 6.65 g/m*3 7.85 C 9.7 km/h
1555 04-01-2014 01:00:00 9 C 6.61 g/m*3 9 C 1.6 km/h
1556 04-01-2014 01:05:00 8.9 C 6.57 g/m*3 6.62 C 14.5 km/h
1557 04-01-2014 01:10:00 9 C 6.7 g/m*3 9 C 3.2 km/h
1558 04-01-2014 01:15:00 8.8 C 6.61 g/m*3 7.98 C 6.4 km/h
1559 04-01-2014 01:20:00 8.8 C 6.61 g/m*3 8.8 C 3.2 km/h
1560 04-01-2014 01:25:00 8.8 C 6.7 g/m*3 8.8 C 1.6 km/h
1561 04-01-2014 01:30:00 8.6 C 6.7 g/m*3 7.75 C 6.4 km/h
1562 04-01-2014 01:35:00 8.6 C 6.7 g/m*3 8.6 C 3.2 km/h
1563 04-01-2014 01:40:00 8.3 C 6.74 g/m*3 6.99 C 8.1 km/h
1564 04-01-2014 01:45:00 8.1 C 6.74 g/m*3 8.1 C 4.8 km/h
1565 04-01-2014 01:50:00 8.2 C 6.87 g/m*3 7.29 C 6.4 km/h
1566 04-01-2014 01:55:00 7.9 C 6.74 g/m*3 7.9 C 4.8 km/h
1567 04-01-2014 02:00:00 7.8 C 6.77 g/m*3 7.8 C 4.8 km/h
1568 04-01-2014 02:05:00 7.6 C 6.69 g/m*3 7.6 C 3.2 km/h
1569 04-01-2014 02:10:00 7.5 C 6.72 g/m*3 7.5 C 4.8 km/h
1570 04-01-2014 02:15:00 7.5 C 6.72 g/m*3 6.48 C 6.4 km/h
1571 04-01-2014 02:20:00 7.8 C 6.77 g/m*3 6.83 C 6.4 km/h
1572 04-01-2014 02:25:00 7.6 C 6.77 g/m*3 7.6 C 4.8 km/h
1573 04-01-2014 02:30:00 7.4 C 6.68 g/m*3 7.4 C 3.2 km/h
1574 04-01-2014 02:35:00 7.4 C 6.68 g/m*3 7.4 C 3.2 km/h
1575 04-01-2014 02:40:00 7.4 C 6.68 g/m*3 7.4 C 4.8 km/h
Sensor: Nr:Datum:Temp:Abs-Feuchte:Windchill:Wind:
Aussen-T/F 1576 04-01-2014 02:45:00 7.4 C 6.68 g/m*3 7.4 C 4.8 km/h
1577 04-01-2014 02:50:00 7.6 C 6.69 g/m*3 7.6 C 3.2 km/h
1578 04-01-2014 02:55:00 7.7 C 6.65 g/m*3 6.28 C 8.1 km/h
1579 04-01-2014 03:00:00 7.9 C 6.74 g/m*3 7.9 C 4.8 km/h
1580 04-01-2014 03:05:00 7.9 C 6.65 g/m*3 7.9 C 4.8 km/h
1581 04-01-2014 03:10:00 7.9 C 6.65 g/m*3 6.18 C 9.7 km/h
1582 04-01-2014 03:15:00 8.1 C 6.82 g/m*3 8.1 C 1.6 km/h
1583 04-01-2014 03:20:00 7.9 C 6.74 g/m*3 7.9 C 3.2 km/h
1584 04-01-2014 03:25:00 7.8 C 6.77 g/m*3 7.8 C 3.2 km/h
1585 04-01-2014 03:30:00 7.9 C 6.74 g/m*3 6.94 C 6.4 km/h
1586 04-01-2014 03:35:00 8.1 C 6.74 g/m*3 8.1 C 3.2 km/h
1587 04-01-2014 03:40:00 8 C 6.78 g/m*3 8 C 4.8 km/h
1588 04-01-2014 03:45:00 8.1 C 6.82 g/m*3 8.1 C 4.8 km/h
1589 04-01-2014 03:50:00 7.9 C 6.82 g/m*3 7.9 C 3.2 km/h
1590 04-01-2014 03:55:00 7.6 C 6.77 g/m*3 7.6 C 4.8 km/h
1591 04-01-2014 04:00:00 7.3 C 6.72 g/m*3 7.3 C 3.2 km/h
1592 04-01-2014 04:05:00 7.1 C 6.71 g/m*3 7.1 C 4.8 km/h
1593 04-01-2014 04:10:00 7.1 C 6.79 g/m*3 7.1 C 3.2 km/h
1594 04-01-2014 04:15:00 7.2 C 6.83 g/m*3 7.2 C 3.2 km/h
1595 04-01-2014 04:20:00 7.2 C 6.83 g/m*3 7.2 C 1.6 km/h
1596 04-01-2014 04:25:00 7.6 C 6.85 g/m*3 7.6 C 3.2 km/h
1597 04-01-2014 04:30:00 7.6 C 6.85 g/m*3 7.6 C 3.2 km/h
1598 04-01-2014 04:35:00 7.7 C 6.81 g/m*3 7.7 C 1.6 km/h
1599 04-01-2014 04:40:00 7.7 C 6.89 g/m*3 7.7 C 1.6 km/h
1600 04-01-2014 04:45:00 7.6 C 6.85 g/m*3 7.6 C 3.2 km/h
Sensor: Nr:Datum:Temp:Abs-Feuchte:Windchill:Wind:
Aussen-T/F 1601 04-01-2014 04:50:00 7.3 C 6.79 g/m*3 7.3 C 1.6 km/h
1602 04-01-2014 04:55:00 7.2 C 6.75 g/m*3 7.2 C 1.6 km/h
1603 04-01-2014 05:00:00 7.1 C 6.71 g/m*3 7.1 C 3.2 km/h
1604 04-01-2014 05:05:00 6.8 C 6.58 g/m*3 6.8 C 3.2 km/h
1605 04-01-2014 05:10:00 6.6 C 6.64 g/m*3 6.6 C 3.2 km/h
1606 04-01-2014 05:15:00 6.4 C 6.56 g/m*3 6.4 C 3.2 km/h
1607 04-01-2014 05:20:00 6.3 C 6.59 g/m*3 6.3 C 4.8 km/h
1608 04-01-2014 05:25:00 6.2 C 6.55 g/m*3 6.2 C 3.2 km/h
1609 04-01-2014 05:30:00 6 C 6.53 g/m*3 6 C 3.2 km/h
1610 04-01-2014 05:35:00 5.9 C 6.49 g/m*3 5.9 C 3.2 km/h
1611 04-01-2014 05:40:00 5.9 C 6.56 g/m*3 5.9 C 3.2 km/h
1612 04-01-2014 05:45:00 5.8 C 6.52 g/m*3 5.8 C 3.2 km/h
1613 04-01-2014 05:50:00 5.8 C 6.52 g/m*3 5.8 C 1.6 km/h
1614 04-01-2014 05:55:00 5.7 C 6.48 g/m*3 5.7 C 3.2 km/h
1615 04-01-2014 06:00:00 5.6 C 6.43 g/m*3 5.6 C 3.2 km/h
1616 04-01-2014 06:05:00 5.5 C 6.39 g/m*3 5.5 C 3.2 km/h
1617 04-01-2014 06:10:00 5.4 C 6.35 g/m*3 5.4 C 3.2 km/h
1618 04-01-2014 06:15:00 5.3 C 6.31 g/m*3 5.3 C 3.2 km/h
1619 04-01-2014 06:20:00 5.3 C 6.38 g/m*3 5.3 C 3.2 km/h
1620 04-01-2014 06:25:00 5.2 C 6.33 g/m*3 5.2 C 4.8 km/h
1621 04-01-2014 06:30:00 5.2 C 6.33 g/m*3 5.2 C 4.8 km/h
1622 04-01-2014 06:35:00 5.2 C 6.33 g/m*3 5.2 C 3.2 km/h
1623 04-01-2014 06:40:00 5.2 C 6.33 g/m*3 5.2 C 3.2 km/h
1624 04-01-2014 06:45:00 5.2 C 6.4 g/m*3 5.2 C 3.2 km/h
1625 04-01-2014 06:50:00 5.2 C 6.4 g/m*3 5.2 C 3.2 km/h
Sensor: Nr:Datum:Temp:Abs-Feuchte:Windchill:Wind:
Aussen-T/F 1626 04-01-2014 06:55:00 5.3 C 6.38 g/m*3 5.3 C 4.8 km/h
1627 04-01-2014 07:00:00 5.3 C 6.38 g/m*3 5.3 C 3.2 km/h
1628 04-01-2014 07:05:00 5.3 C 6.38 g/m*3 5.3 C 3.2 km/h
1629 04-01-2014 07:10:00 5.4 C 6.49 g/m*3 3.58 C 8.1 km/h
1630 04-01-2014 07:15:00 5.7 C 6.55 g/m*3 4.4 C 6.4 km/h
1631 04-01-2014 07:20:00 5.9 C 6.63 g/m*3 4.63 C 6.4 km/h
1632 04-01-2014 07:25:00 6.2 C 6.62 g/m*3 4.98 C 6.4 km/h
1633 04-01-2014 07:30:00 6.3 C 6.66 g/m*3 6.3 C 4.8 km/h
1634 04-01-2014 07:35:00 6.5 C 6.67 g/m*3 4.87 C 8.1 km/h
1635 04-01-2014 07:40:00 6.7 C 6.69 g/m*3 5.56 C 6.4 km/h
1636 04-01-2014 07:45:00 6.7 C 6.69 g/m*3 6.7 C 4.8 km/h
1637 04-01-2014 07:50:00 6.6 C 6.64 g/m*3 6.6 C 3.2 km/h
1638 04-01-2014 07:55:00 6.7 C 6.69 g/m*3 6.7 C 4.8 km/h
1639 04-01-2014 08:00:00 6.8 C 6.73 g/m*3 5.22 C 8.1 km/h
1640 04-01-2014 08:05:00 6.9 C 6.7 g/m*3 5.34 C 8.1 km/h
1641 04-01-2014 08:10:00 7 C 6.74 g/m*3 5.46 C 8.1 km/h
1642 04-01-2014 08:15:00 7.1 C 6.79 g/m*3 5.58 C 8.1 km/h
1643 04-01-2014 08:20:00 7.2 C 6.83 g/m*3 5.35 C 9.7 km/h
1644 04-01-2014 08:25:00 7.2 C 6.75 g/m*3 7.2 C 4.8 km/h
1645 04-01-2014 08:30:00 7.2 C 6.75 g/m*3 6.13 C 6.4 km/h
1646 04-01-2014 08:35:00 7.2 C 6.75 g/m*3 7.2 C 4.8 km/h
1647 04-01-2014 08:40:00 7.1 C 6.79 g/m*3 5.58 C 8.1 km/h
1648 04-01-2014 08:45:00 6.9 C 6.7 g/m*3 5.79 C 6.4 km/h
1649 04-01-2014 08:50:00 6.8 C 6.65 g/m*3 6.8 C 4.8 km/h
1650 04-01-2014 08:55:00 6.8 C 6.73 g/m*3 6.8 C 4.8 km/h
Sensor: Nr:Datum:Temp:Abs-Feuchte:Windchill:Wind:
Aussen-T/F 1651 04-01-2014 09:00:00 6.9 C 6.7 g/m*3 4.68 C 11.3 km/h
1652 04-01-2014 09:05:00 6.9 C 6.7 g/m*3 5.79 C 6.4 km/h
1653 04-01-2014 09:10:00 6.9 C 6.77 g/m*3 6.9 C 4.8 km/h
1654 04-01-2014 09:15:00 7 C 6.74 g/m*3 7 C 4.8 km/h
1655 04-01-2014 09:20:00 6.9 C 6.77 g/m*3 5.79 C 6.4 km/h
1656 04-01-2014 09:25:00 6.9 C 6.77 g/m*3 6.9 C 4.8 km/h
1657 04-01-2014 09:30:00 7.1 C 6.79 g/m*3 6.02 C 6.4 km/h
1658 04-01-2014 09:35:00 7.3 C 6.87 g/m*3 5.16 C 11.3 km/h
1659 04-01-2014 09:40:00 7.5 C 6.88 g/m*3 6.48 C 6.4 km/h
1660 04-01-2014 09:45:00 7.7 C 6.89 g/m*3 7.7 C 4.8 km/h
1661 04-01-2014 09:50:00 7.7 C 6.89 g/m*3 6.71 C 6.4 km/h
1662 04-01-2014 09:55:00 7.7 C 6.89 g/m*3 7.7 C 4.8 km/h
1663 04-01-2014 10:00:00 7.7 C 6.97 g/m*3 7.7 C 4.8 km/h
1664 04-01-2014 10:05:00 7.7 C 6.97 g/m*3 7.7 C 4.8 km/h
1665 04-01-2014 10:10:00 7.8 C 7.02 g/m*3 6.06 C 9.7 km/h
1666 04-01-2014 10:15:00 7.8 C 7.02 g/m*3 7.8 C 4.8 km/h
1667 04-01-2014 10:20:00 7.8 C 7.02 g/m*3 6.4 C 8.1 km/h
1668 04-01-2014 10:25:00 7.9 C 7.06 g/m*3 6.52 C 8.1 km/h
1669 04-01-2014 10:30:00 7.9 C 7.06 g/m*3 6.52 C 8.1 km/h
1670 04-01-2014 10:35:00 8 C 7.11 g/m*3 6.64 C 8.1 km/h
1671 04-01-2014 10:40:00 8.1 C 7.16 g/m*3 6.75 C 8.1 km/h
1672 04-01-2014 10:45:00 8.1 C 7.16 g/m*3 8.1 C 4.8 km/h
1673 04-01-2014 10:50:00 8.1 C 7.16 g/m*3 7.17 C 6.4 km/h
1674 04-01-2014 10:55:00 8.1 C 7.16 g/m*3 7.17 C 6.4 km/h
1675 04-01-2014 11:00:00 8.2 C 7.12 g/m*3 6.87 C 8.1 km/h
Sensor: Nr:Datum:Temp:Abs-Feuchte:Windchill:Wind:
Aussen-T/F 1676 04-01-2014 11:05:00 8.2 C 7.12 g/m*3 6.25 C 11.3 km/h
1677 04-01-2014 11:10:00 8.2 C 7.12 g/m*3 6.54 C 9.7 km/h
1678 04-01-2014 11:15:00 8.2 C 7.12 g/m*3 6.87 C 8.1 km/h
1679 04-01-2014 11:20:00 8.2 C 7.12 g/m*3 7.29 C 6.4 km/h
1680 04-01-2014 11:25:00 8.2 C 7.12 g/m*3 6.54 C 9.7 km/h
1681 04-01-2014 11:30:00 8.2 C 7.12 g/m*3 7.29 C 6.4 km/h
1682 04-01-2014 11:35:00 8.3 C 7.16 g/m*3 6.99 C 8.1 km/h
1683 04-01-2014 11:40:00 8.3 C 7.16 g/m*3 8.3 C 4.8 km/h
1684 04-01-2014 11:45:00 8.4 C 7.21 g/m*3 8.4 C 4.8 km/h
1685 04-01-2014 11:50:00 8.4 C 7.13 g/m*3 7.52 C 6.4 km/h
1686 04-01-2014 11:55:00 8.5 C 7.17 g/m*3 7.64 C 6.4 km/h
1687 04-01-2014 12:00:00 8.6 C 7.13 g/m*3 8.6 C 4.8 km/h
1688 04-01-2014 12:05:00 8.7 C 7.18 g/m*3 8.7 C 4.8 km/h
1689 04-01-2014 12:10:00 8.7 C 7.18 g/m*3 7.13 C 9.7 km/h
1690 04-01-2014 12:15:00 8.8 C 7.14 g/m*3 8.8 C 4.8 km/h
1691 04-01-2014 12:20:00 8.9 C 7.18 g/m*3 8.9 C 3.2 km/h
1692 04-01-2014 12:25:00 9 C 7.23 g/m*3 9 C 4.8 km/h
1693 04-01-2014 12:30:00 9.1 C 7.28 g/m*3 9.1 C 3.2 km/h
1694 04-01-2014 12:35:00 9.2 C 7.23 g/m*3 8.45 C 6.4 km/h
1695 04-01-2014 12:40:00 9.3 C 7.19 g/m*3 9.3 C 4.8 km/h
1696 04-01-2014 12:45:00 9.4 C 7.33 g/m*3 9.4 C 4.8 km/h
1697 04-01-2014 12:50:00 9.4 C 7.33 g/m*3 9.4 C 3.2 km/h
1698 04-01-2014 12:55:00 9.4 C 7.33 g/m*3 8.68 C 6.4 km/h
1699 04-01-2014 13:00:00 9.4 C 7.24 g/m*3 8.68 C 6.4 km/h
1700 04-01-2014 13:05:00 9.5 C 7.28 g/m*3 7.82 C 11.3 km/h
Sensor: Nr:Datum:Temp:Abs-Feuchte:Windchill:Wind:
Aussen-T/F 1701 04-01-2014 13:10:00 9.5 C 7.28 g/m*3 8.79 C 6.4 km/h
1702 04-01-2014 13:15:00 9.5 C 7.28 g/m*3 7.82 C 11.3 km/h
1703 04-01-2014 13:20:00 9.4 C 7.24 g/m*3 7.7 C 11.3 km/h
1704 04-01-2014 13:25:00 9.4 C 7.33 g/m*3 8.28 C 8.1 km/h
1705 04-01-2014 13:30:00 9.4 C 7.24 g/m*3 8.68 C 6.4 km/h
1706 04-01-2014 13:35:00 9.4 C 7.24 g/m*3 9.4 C 4.8 km/h
1707 04-01-2014 13:40:00 9.4 C 7.33 g/m*3 8.68 C 6.4 km/h
1708 04-01-2014 13:45:00 9.4 C 7.33 g/m*3 9.4 C 4.8 km/h
1709 04-01-2014 13:50:00 9.4 C 7.33 g/m*3 8.28 C 8.1 km/h
1710 04-01-2014 13:55:00 9.3 C 7.28 g/m*3 9.3 C 3.2 km/h
1711 04-01-2014 14:00:00 9.3 C 7.28 g/m*3 9.3 C 4.8 km/h
1712 04-01-2014 14:05:00 9.2 C 7.14 g/m*3 8.05 C 8.1 km/h
1713 04-01-2014 14:10:00 9.2 C 7.23 g/m*3 9.2 C 3.2 km/h
1714 04-01-2014 14:15:00 9.2 C 7.23 g/m*3 9.2 C 4.8 km/h
1715 04-01-2014 14:20:00 9.1 C 7.19 g/m*3 9.1 C 4.8 km/h
1716 04-01-2014 14:25:00 9.1 C 7.28 g/m*3 9.1 C 3.2 km/h
1717 04-01-2014 14:30:00 9.1 C 7.28 g/m*3 9.1 C 0 km/h
1718 04-01-2014 14:35:00 9.1 C 7.28 g/m*3 9.1 C 0 km/h
1719 04-01-2014 14:40:00 8.9 C 7.36 g/m*3 8.9 C 0 km/h
1720 04-01-2014 14:45:00 8.8 C 7.31 g/m*3 8.8 C 0 km/h
1721 04-01-2014 14:50:00 8.8 C 7.57 g/m*3 8.8 C 0 km/h
1722 04-01-2014 14:55:00 8.7 C 7.61 g/m*3 8.7 C 0 km/h
1723 04-01-2014 15:00:00 8.4 C 7.63 g/m*3 8.4 C 0 km/h
1724 04-01-2014 15:05:00 8.3 C 7.67 g/m*3 8.3 C 0 km/h
1725 04-01-2014 15:10:00 8.2 C 7.62 g/m*3 8.2 C 1.6 km/h
Sensor: Nr:Datum:Temp:Abs-Feuchte:Windchill:Wind:
Aussen-T/F 1726 04-01-2014 15:15:00 8.1 C 7.66 g/m*3 8.1 C 0 km/h
1727 04-01-2014 15:20:00 7.9 C 7.64 g/m*3 7.9 C 0 km/h
1728 04-01-2014 15:25:00 7.8 C 7.59 g/m*3 7.8 C 0 km/h
1729 04-01-2014 15:30:00 7.8 C 7.59 g/m*3 7.8 C 0 km/h
1730 04-01-2014 15:35:00 7.7 C 7.62 g/m*3 7.7 C 0 km/h
1731 04-01-2014 15:40:00 7.7 C 7.62 g/m*3 7.7 C 0 km/h
1732 04-01-2014 15:45:00 7.7 C 7.62 g/m*3 7.7 C 0 km/h
1733 04-01-2014 15:50:00 7.6 C 7.57 g/m*3 7.6 C 0 km/h
1734 04-01-2014 15:55:00 7.6 C 7.65 g/m*3 7.6 C 0 km/h
1735 04-01-2014 16:00:00 7.5 C 7.6 g/m*3 7.5 C 0 km/h
1736 04-01-2014 16:05:00 7.4 C 7.55 g/m*3 7.4 C 0 km/h
1737 04-01-2014 16:10:00 7.4 C 7.55 g/m*3 7.4 C 0 km/h
1738 04-01-2014 16:15:00 7.4 C 7.55 g/m*3 7.4 C 0 km/h
1739 04-01-2014 16:20:00 7.3 C 7.51 g/m*3 7.3 C 0 km/h
1740 04-01-2014 16:25:00 7.3 C 7.51 g/m*3 7.3 C 0 km/h
1741 04-01-2014 16:30:00 7.3 C 7.51 g/m*3 7.3 C 0 km/h
1742 04-01-2014 16:35:00 7.2 C 7.54 g/m*3 7.2 C 0 km/h
1743 04-01-2014 16:40:00 7.2 C 7.54 g/m*3 7.2 C 0 km/h
1744 04-01-2014 16:45:00 7.2 C 7.54 g/m*3 7.2 C 0 km/h
1745 04-01-2014 16:50:00 7.1 C 7.49 g/m*3 7.1 C 0 km/h
1746 04-01-2014 16:55:00 7.1 C 7.49 g/m*3 7.1 C 0 km/h
1747 04-01-2014 17:00:00 7 C 7.44 g/m*3 7 C 0 km/h
1748 04-01-2014 17:05:00 6.9 C 7.39 g/m*3 6.9 C 0 km/h
1749 04-01-2014 17:10:00 6.9 C 7.39 g/m*3 6.9 C 0 km/h
1750 04-01-2014 17:15:00 6.8 C 7.34 g/m*3 6.8 C 0 km/h
Sensor: Nr:Datum:Temp:Abs-Feuchte:Windchill:Wind:
Aussen-T/F 1751 04-01-2014 17:20:00 6.7 C 7.29 g/m*3 6.7 C 0 km/h
1752 04-01-2014 17:25:00 6.7 C 7.29 g/m*3 6.7 C 1.6 km/h
1753 04-01-2014 17:30:00 6.6 C 7.25 g/m*3 6.6 C 0 km/h
1754 04-01-2014 17:35:00 6.6 C 7.25 g/m*3 6.6 C 0 km/h
1755 04-01-2014 17:40:00 6.6 C 7.25 g/m*3 6.6 C 0 km/h
1756 04-01-2014 17:45:00 6.6 C 7.25 g/m*3 6.6 C 0 km/h
1757 04-01-2014 17:50:00 6.6 C 7.25 g/m*3 6.6 C 0 km/h
1758 04-01-2014 17:55:00 6.6 C 7.25 g/m*3 6.6 C 1.6 km/h
1759 04-01-2014 18:00:00 6.6 C 7.25 g/m*3 6.6 C 1.6 km/h
1760 04-01-2014 18:05:00 6.7 C 7.37 g/m*3 5.11 C 8.1 km/h
1761 04-01-2014 18:10:00 6.7 C 7.37 g/m*3 6.7 C 4.8 km/h
1762 04-01-2014 18:15:00 6.7 C 7.29 g/m*3 6.7 C 1.6 km/h
1763 04-01-2014 18:20:00 6.7 C 7.29 g/m*3 6.7 C 0 km/h
1764 04-01-2014 18:25:00 6.7 C 7.29 g/m*3 6.7 C 0 km/h
1765 04-01-2014 18:30:00 6.6 C 7.25 g/m*3 6.6 C 1.6 km/h
1766 04-01-2014 18:35:00 6.6 C 7.32 g/m*3 6.6 C 0 km/h
1767 04-01-2014 18:40:00 6.6 C 7.25 g/m*3 6.6 C 0 km/h
1768 04-01-2014 18:45:00 6.7 C 7.37 g/m*3 6.7 C 0 km/h
1769 04-01-2014 18:50:00 6.7 C 7.37 g/m*3 6.7 C 0 km/h
1770 04-01-2014 18:55:00 6.7 C 7.37 g/m*3 6.7 C 0 km/h
1771 04-01-2014 19:00:00 6.8 C 7.42 g/m*3 6.8 C 0 km/h
1772 04-01-2014 19:05:00 6.8 C 7.42 g/m*3 6.8 C 0 km/h
1773 04-01-2014 19:10:00 6.8 C 7.42 g/m*3 6.8 C 3.2 km/h
1774 04-01-2014 19:15:00 6.8 C 7.42 g/m*3 6.8 C 1.6 km/h
1775 04-01-2014 19:20:00 6.8 C 7.42 g/m*3 6.8 C 1.6 km/h
Sensor: Nr:Datum:Temp:Abs-Feuchte:Windchill:Wind:
Aussen-T/F 1776 04-01-2014 19:25:00 6.7 C 7.37 g/m*3 6.7 C 1.6 km/h
1777 04-01-2014 19:30:00 6.6 C 7.32 g/m*3 6.6 C 3.2 km/h
1778 04-01-2014 19:35:00 6.6 C 7.32 g/m*3 6.6 C 1.6 km/h
1779 04-01-2014 19:40:00 6.4 C 7.23 g/m*3 6.4 C 3.2 km/h
1780 04-01-2014 19:45:00 6.3 C 7.11 g/m*3 6.3 C 4.8 km/h
1781 04-01-2014 19:50:00 6.3 C 7.18 g/m*3 6.3 C 3.2 km/h
1782 04-01-2014 19:55:00 6.2 C 7.13 g/m*3 6.2 C 0 km/h
1783 04-01-2014 20:00:00 6.2 C 7.13 g/m*3 6.2 C 0 km/h
1784 04-01-2014 20:05:00 6.3 C 7.18 g/m*3 6.3 C 0 km/h
1785 04-01-2014 20:10:00 6.4 C 7.23 g/m*3 6.4 C 0 km/h
1786 04-01-2014 20:15:00 6.4 C 7.23 g/m*3 6.4 C 0 km/h
1787 04-01-2014 20:20:00 6.6 C 7.32 g/m*3 6.6 C 0 km/h
1788 04-01-2014 20:25:00 6.6 C 7.32 g/m*3 6.6 C 0 km/h
1789 04-01-2014 20:30:00 6.6 C 7.32 g/m*3 6.6 C 0 km/h
1790 04-01-2014 20:35:00 6.7 C 7.37 g/m*3 6.7 C 0 km/h
1791 04-01-2014 20:40:00 6.7 C 7.37 g/m*3 6.7 C 0 km/h
1792 04-01-2014 20:45:00 6.8 C 7.42 g/m*3 6.8 C 0 km/h
1793 04-01-2014 20:50:00 6.8 C 7.42 g/m*3 6.8 C 0 km/h
1794 04-01-2014 20:55:00 6.8 C 7.42 g/m*3 6.8 C 4.8 km/h
1795 04-01-2014 21:00:00 6.8 C 7.42 g/m*3 6.8 C 1.6 km/h
1796 04-01-2014 21:05:00 7 C 7.59 g/m*3 7 C 1.6 km/h
1797 04-01-2014 21:10:00 7.1 C 7.57 g/m*3 7.1 C 4.8 km/h
1798 04-01-2014 21:15:00 7.1 C 7.57 g/m*3 7.1 C 1.6 km/h
1799 04-01-2014 21:20:00 7 C 7.52 g/m*3 7 C 3.2 km/h
1800 04-01-2014 21:25:00 7 C 7.52 g/m*3 7 C 1.6 km/h
Sensor: Nr:Datum:Temp:Abs-Feuchte:Windchill:Wind:
Aussen-T/F 1801 04-01-2014 21:30:00 7.1 C 7.57 g/m*3 7.1 C 1.6 km/h
1802 04-01-2014 21:35:00 7 C 7.52 g/m*3 7 C 3.2 km/h
1803 04-01-2014 21:40:00 6.9 C 7.47 g/m*3 6.9 C 4.8 km/h
1804 04-01-2014 21:45:00 7.1 C 7.57 g/m*3 7.1 C 3.2 km/h
1805 04-01-2014 21:50:00 7.2 C 7.61 g/m*3 7.2 C 1.6 km/h
1806 04-01-2014 21:55:00 7.2 C 7.61 g/m*3 7.2 C 0 km/h
1807 04-01-2014 22:00:00 6.9 C 7.39 g/m*3 6.9 C 0 km/h
1808 04-01-2014 22:05:00 6.8 C 7.34 g/m*3 6.8 C 3.2 km/h
1809 04-01-2014 22:10:00 6.8 C 7.34 g/m*3 6.8 C 1.6 km/h
1810 04-01-2014 22:15:00 6.7 C 7.29 g/m*3 6.7 C 3.2 km/h
1811 04-01-2014 22:20:00 6.8 C 7.34 g/m*3 6.8 C 4.8 km/h
1812 04-01-2014 22:25:00 6.9 C 7.39 g/m*3 6.9 C 3.2 km/h
1813 04-01-2014 22:30:00 6.9 C 7.39 g/m*3 6.9 C 3.2 km/h
1814 04-01-2014 22:35:00 6.9 C 7.39 g/m*3 6.9 C 3.2 km/h
1815 04-01-2014 22:40:00 6.9 C 7.39 g/m*3 6.9 C 3.2 km/h
1816 04-01-2014 22:45:00 6.9 C 7.39 g/m*3 6.9 C 1.6 km/h
1817 04-01-2014 22:50:00 7.1 C 7.57 g/m*3 7.1 C 3.2 km/h
1818 04-01-2014 22:55:00 7.1 C 7.49 g/m*3 7.1 C 3.2 km/h
1819 04-01-2014 23:00:00 7 C 7.44 g/m*3 7 C 3.2 km/h
1820 04-01-2014 23:05:00 7.1 C 7.57 g/m*3 7.1 C 4.8 km/h
1821 04-01-2014 23:10:00 7 C 7.44 g/m*3 7 C 3.2 km/h
1822 04-01-2014 23:15:00 6.9 C 7.39 g/m*3 6.9 C 3.2 km/h
1823 04-01-2014 23:20:00 6.8 C 7.34 g/m*3 6.8 C 3.2 km/h
1824 04-01-2014 23:25:00 6.9 C 7.47 g/m*3 6.9 C 4.8 km/h
1825 04-01-2014 23:30:00 6.9 C 7.47 g/m*3 6.9 C 4.8 km/h
Sensor: Nr:Datum:Temp:Abs-Feuchte:Windchill:Wind:
Aussen-T/F 1826 04-01-2014 23:35:00 6.9 C 7.47 g/m*3 6.9 C 4.8 km/h
1827 04-01-2014 23:40:00 6.9 C 7.47 g/m*3 6.9 C 3.2 km/h
1828 04-01-2014 23:45:00 6.9 C 7.47 g/m*3 6.9 C 3.2 km/h
1829 04-01-2014 23:50:00 6.8 C 7.42 g/m*3 6.8 C 3.2 km/h
1830 04-01-2014 23:55:00 6.8 C 7.42 g/m*3 6.8 C 3.2 km/h
1831 05-01-2014 00:00:00 6.7 C 7.37 g/m*3 6.7 C 1.6 km/h
1832 05-01-2014 00:05:00 6.7 C 7.37 g/m*3 6.7 C 3.2 km/h
1833 05-01-2014 00:10:00 6.8 C 7.42 g/m*3 6.8 C 3.2 km/h
1834 05-01-2014 00:15:00 6.8 C 7.42 g/m*3 6.8 C 3.2 km/h
1835 05-01-2014 00:20:00 6.9 C 7.47 g/m*3 6.9 C 3.2 km/h
1836 05-01-2014 00:25:00 6.9 C 7.47 g/m*3 6.9 C 3.2 km/h
1837 05-01-2014 00:30:00 6.9 C 7.47 g/m*3 6.9 C 3.2 km/h
1838 05-01-2014 00:35:00 6.9 C 7.47 g/m*3 6.9 C 4.8 km/h
1839 05-01-2014 00:40:00 7 C 7.52 g/m*3 7 C 3.2 km/h
1840 05-01-2014 00:45:00 6.9 C 7.47 g/m*3 6.9 C 1.6 km/h
1841 05-01-2014 00:50:00 6.9 C 7.47 g/m*3 6.9 C 3.2 km/h
1842 05-01-2014 00:55:00 6.9 C 7.47 g/m*3 6.9 C 3.2 km/h
1843 05-01-2014 01:00:00 7.1 C 7.57 g/m*3 7.1 C 4.8 km/h
1844 05-01-2014 01:05:00 7.1 C 7.57 g/m*3 7.1 C 1.6 km/h
1845 05-01-2014 01:10:00 7.1 C 7.57 g/m*3 7.1 C 3.2 km/h
1846 05-01-2014 01:15:00 7.2 C 7.61 g/m*3 7.2 C 3.2 km/h
1847 05-01-2014 01:20:00 7.2 C 7.61 g/m*3 7.2 C 4.8 km/h
1848 05-01-2014 01:25:00 7.2 C 7.61 g/m*3 7.2 C 3.2 km/h
1849 05-01-2014 01:30:00 7.3 C 7.66 g/m*3 7.3 C 3.2 km/h
1850 05-01-2014 01:35:00 7.3 C 7.66 g/m*3 7.3 C 3.2 km/h
Sensor: Nr:Datum:Temp:Abs-Feuchte:Windchill:Wind:
Aussen-T/F 1851 05-01-2014 01:40:00 7.2 C 7.61 g/m*3 7.2 C 1.6 km/h
1852 05-01-2014 01:45:00 7.3 C 7.66 g/m*3 7.3 C 0 km/h
1853 05-01-2014 01:50:00 7.3 C 7.66 g/m*3 7.3 C 0 km/h
1854 05-01-2014 01:55:00 7.4 C 7.71 g/m*3 7.4 C 3.2 km/h
1855 05-01-2014 02:00:00 7.5 C 7.76 g/m*3 7.5 C 3.2 km/h
1856 05-01-2014 02:05:00 7.5 C 7.76 g/m*3 7.5 C 3.2 km/h
1857 05-01-2014 02:10:00 7.5 C 7.68 g/m*3 7.5 C 1.6 km/h
1858 05-01-2014 02:15:00 7.6 C 7.73 g/m*3 7.6 C 0 km/h
1859 05-01-2014 02:20:00 7.5 C 7.68 g/m*3 7.5 C 0 km/h
1860 05-01-2014 02:25:00 7.4 C 7.63 g/m*3 7.4 C 1.6 km/h
1861 05-01-2014 02:30:00 7.4 C 7.63 g/m*3 7.4 C 0 km/h
1862 05-01-2014 02:35:00 7.4 C 7.63 g/m*3 7.4 C 1.6 km/h
1863 05-01-2014 02:40:00 7.4 C 7.71 g/m*3 7.4 C 0 km/h
1864 05-01-2014 02:45:00 7.4 C 7.63 g/m*3 7.4 C 3.2 km/h
1865 05-01-2014 02:50:00 7.4 C 7.63 g/m*3 7.4 C 1.6 km/h
1866 05-01-2014 02:55:00 7.4 C 7.63 g/m*3 7.4 C 0 km/h
1867 05-01-2014 03:00:00 7.5 C 7.68 g/m*3 7.5 C 1.6 km/h
1868 05-01-2014 03:05:00 7.6 C 7.73 g/m*3 7.6 C 4.8 km/h
1869 05-01-2014 03:10:00 7.7 C 7.78 g/m*3 7.7 C 3.2 km/h
1870 05-01-2014 03:15:00 7.7 C 7.78 g/m*3 7.7 C 3.2 km/h
1871 05-01-2014 03:20:00 7.8 C 7.83 g/m*3 6.83 C 6.4 km/h
1872 05-01-2014 03:25:00 7.8 C 7.83 g/m*3 6.83 C 6.4 km/h
1873 05-01-2014 03:30:00 7.8 C 7.67 g/m*3 6.83 C 6.4 km/h
1874 05-01-2014 03:35:00 7.8 C 7.67 g/m*3 7.8 C 4.8 km/h
1875 05-01-2014 03:40:00 7.8 C 7.59 g/m*3 5.51 C 12.9 km/h
Sensor: Nr:Datum:Temp:Abs-Feuchte:Windchill:Wind:
Aussen-T/F 1876 05-01-2014 03:45:00 7.9 C 7.56 g/m*3 5.63 C 12.9 km/h
1877 05-01-2014 03:50:00 7.8 C 7.51 g/m*3 6.83 C 6.4 km/h
1878 05-01-2014 03:55:00 7.7 C 7.54 g/m*3 6.28 C 8.1 km/h
1879 05-01-2014 04:00:00 7.7 C 7.54 g/m*3 6.71 C 6.4 km/h
1880 05-01-2014 04:05:00 7.6 C 7.49 g/m*3 7.6 C 4.8 km/h
1881 05-01-2014 04:10:00 7.6 C 7.49 g/m*3 6.6 C 6.4 km/h
1882 05-01-2014 04:15:00 7.5 C 7.44 g/m*3 6.48 C 6.4 km/h
1883 05-01-2014 04:20:00 7.5 C 7.44 g/m*3 7.5 C 4.8 km/h
1884 05-01-2014 04:25:00 7.4 C 7.48 g/m*3 7.4 C 3.2 km/h
1885 05-01-2014 04:30:00 7.3 C 7.43 g/m*3 7.3 C 3.2 km/h
1886 05-01-2014 04:35:00 7.3 C 7.43 g/m*3 7.3 C 3.2 km/h
1887 05-01-2014 04:40:00 7.3 C 7.51 g/m*3 7.3 C 1.6 km/h
1888 05-01-2014 04:45:00 7.2 C 7.46 g/m*3 7.2 C 3.2 km/h
1889 05-01-2014 04:50:00 7.2 C 7.46 g/m*3 7.2 C 1.6 km/h
1890 05-01-2014 04:55:00 7.1 C 7.41 g/m*3 7.1 C 1.6 km/h
1891 05-01-2014 05:00:00 7.1 C 7.49 g/m*3 7.1 C 1.6 km/h
1892 05-01-2014 05:05:00 7.1 C 7.41 g/m*3 7.1 C 1.6 km/h
1893 05-01-2014 05:10:00 7 C 7.44 g/m*3 7 C 0 km/h
1894 05-01-2014 05:15:00 7.1 C 7.49 g/m*3 7.1 C 4.8 km/h
1895 05-01-2014 05:20:00 7.1 C 7.49 g/m*3 7.1 C 4.8 km/h
1896 05-01-2014 05:25:00 7.1 C 7.49 g/m*3 7.1 C 3.2 km/h
1897 05-01-2014 05:30:00 7.2 C 7.46 g/m*3 5.69 C 8.1 km/h
1898 05-01-2014 05:35:00 7.2 C 7.46 g/m*3 7.2 C 3.2 km/h
1899 05-01-2014 05:40:00 7.1 C 7.41 g/m*3 5.58 C 8.1 km/h
1900 05-01-2014 05:45:00 7.1 C 7.41 g/m*3 7.1 C 4.8 km/h
Sensor: Nr:Datum:Temp:Abs-Feuchte:Windchill:Wind:
Aussen-T/F 1901 05-01-2014 05:50:00 7.1 C 7.41 g/m*3 7.1 C 3.2 km/h
1902 05-01-2014 05:55:00 7.1 C 7.41 g/m*3 7.1 C 4.8 km/h
1903 05-01-2014 06:00:00 7 C 7.36 g/m*3 7 C 3.2 km/h
1904 05-01-2014 06:05:00 6.9 C 7.31 g/m*3 6.9 C 4.8 km/h
1905 05-01-2014 06:10:00 6.9 C 7.31 g/m*3 6.9 C 3.2 km/h
1906 05-01-2014 06:15:00 6.9 C 7.31 g/m*3 6.9 C 3.2 km/h
1907 05-01-2014 06:20:00 6.9 C 7.31 g/m*3 6.9 C 3.2 km/h
1908 05-01-2014 06:25:00 6.9 C 7.31 g/m*3 6.9 C 4.8 km/h
1909 05-01-2014 06:30:00 6.9 C 7.31 g/m*3 5.79 C 6.4 km/h
1910 05-01-2014 06:35:00 6.9 C 7.31 g/m*3 6.9 C 4.8 km/h
1911 05-01-2014 06:40:00 7 C 7.36 g/m*3 5.9 C 6.4 km/h
1912 05-01-2014 06:45:00 7 C 7.36 g/m*3 5.9 C 6.4 km/h
1913 05-01-2014 06:50:00 7 C 7.36 g/m*3 7 C 3.2 km/h
1914 05-01-2014 06:55:00 7 C 7.36 g/m*3 7 C 3.2 km/h
1915 05-01-2014 07:00:00 6.9 C 7.31 g/m*3 6.9 C 1.6 km/h
1916 05-01-2014 07:05:00 6.9 C 7.31 g/m*3 6.9 C 4.8 km/h
1917 05-01-2014 07:10:00 6.8 C 7.27 g/m*3 6.8 C 4.8 km/h
1918 05-01-2014 07:15:00 6.8 C 7.27 g/m*3 6.8 C 4.8 km/h
1919 05-01-2014 07:20:00 6.8 C 7.19 g/m*3 4.87 C 9.7 km/h
1920 05-01-2014 07:25:00 6.9 C 7.24 g/m*3 5.79 C 6.4 km/h
1921 05-01-2014 07:30:00 6.9 C 7.08 g/m*3 4.99 C 9.7 km/h
1922 05-01-2014 07:35:00 6.9 C 7.08 g/m*3 4.68 C 11.3 km/h
1923 05-01-2014 07:40:00 6.9 C 6.93 g/m*3 4.99 C 9.7 km/h
1924 05-01-2014 07:45:00 7 C 6.82 g/m*3 5.46 C 8.1 km/h
1925 05-01-2014 07:50:00 6.8 C 6.81 g/m*3 5.67 C 6.4 km/h
Sensor: Nr:Datum:Temp:Abs-Feuchte:Windchill:Wind:
Aussen-T/F 1926 05-01-2014 07:55:00 6.7 C 6.84 g/m*3 6.7 C 3.2 km/h
1927 05-01-2014 08:00:00 6.4 C 6.71 g/m*3 4.08 C 11.3 km/h
1928 05-01-2014 08:05:00 6.3 C 6.66 g/m*3 5.1 C 6.4 km/h
1929 05-01-2014 08:10:00 6.3 C 6.66 g/m*3 5.1 C 6.4 km/h
1930 05-01-2014 08:15:00 6.3 C 6.59 g/m*3 4.64 C 8.1 km/h
1931 05-01-2014 08:20:00 6.3 C 6.59 g/m*3 5.1 C 6.4 km/h
1932 05-01-2014 08:25:00 6.3 C 6.66 g/m*3 6.3 C 4.8 km/h
1933 05-01-2014 08:30:00 6.1 C 6.72 g/m*3 6.1 C 3.2 km/h
1934 05-01-2014 08:35:00 5.9 C 6.63 g/m*3 5.9 C 3.2 km/h
1935 05-01-2014 08:40:00 5.7 C 6.62 g/m*3 5.7 C 3.2 km/h
1936 05-01-2014 08:45:00 5.6 C 6.57 g/m*3 5.6 C 4.8 km/h
1937 05-01-2014 08:50:00 5.4 C 6.49 g/m*3 5.4 C 4.8 km/h
1938 05-01-2014 08:55:00 5.5 C 6.53 g/m*3 5.5 C 4.8 km/h
1939 05-01-2014 09:00:00 5.7 C 6.48 g/m*3 5.7 C 4.8 km/h
1940 05-01-2014 09:05:00 6 C 6.53 g/m*3 4.75 C 6.4 km/h
1941 05-01-2014 09:10:00 6.1 C 6.5 g/m*3 4.86 C 6.4 km/h
1942 05-01-2014 09:15:00 6.2 C 6.55 g/m*3 6.2 C 4.8 km/h
1943 05-01-2014 09:20:00 6.2 C 6.62 g/m*3 6.2 C 3.2 km/h
1944 05-01-2014 09:25:00 6 C 6.53 g/m*3 6 C 3.2 km/h
1945 05-01-2014 09:30:00 5.9 C 6.56 g/m*3 5.9 C 4.8 km/h
1946 05-01-2014 09:35:00 5.9 C 6.49 g/m*3 3.8 C 9.7 km/h
1947 05-01-2014 09:40:00 5.9 C 6.49 g/m*3 5.9 C 4.8 km/h
1948 05-01-2014 09:45:00 5.9 C 6.49 g/m*3 5.9 C 4.8 km/h
1949 05-01-2014 09:50:00 6.1 C 6.5 g/m*3 6.1 C 4.8 km/h
1950 05-01-2014 09:55:00 6.1 C 6.5 g/m*3 6.1 C 4.8 km/h
Sensor: Nr:Datum:Temp:Abs-Feuchte:Windchill:Wind:
Aussen-T/F 1951 05-01-2014 10:00:00 6.1 C 6.5 g/m*3 6.1 C 4.8 km/h
1952 05-01-2014 10:05:00 6.1 C 6.5 g/m*3 6.1 C 4.8 km/h
1953 05-01-2014 10:10:00 6.1 C 6.5 g/m*3 4.04 C 9.7 km/h
1954 05-01-2014 10:15:00 6.2 C 6.55 g/m*3 6.2 C 4.8 km/h
1955 05-01-2014 10:20:00 5.9 C 6.49 g/m*3 5.9 C 4.8 km/h
1956 05-01-2014 10:25:00 6 C 6.39 g/m*3 4.75 C 6.4 km/h
1957 05-01-2014 10:30:00 6.2 C 6.4 g/m*3 3.84 C 11.3 km/h
1958 05-01-2014 10:35:00 6.3 C 6.44 g/m*3 4.64 C 8.1 km/h
1959 05-01-2014 10:40:00 6.2 C 6.47 g/m*3 4.52 C 8.1 km/h
1960 05-01-2014 10:45:00 6.2 C 6.47 g/m*3 6.2 C 4.8 km/h
1961 05-01-2014 10:50:00 6.3 C 6.51 g/m*3 6.3 C 4.8 km/h
1962 05-01-2014 10:55:00 6.3 C 6.51 g/m*3 6.3 C 4.8 km/h
1963 05-01-2014 11:00:00 6.4 C 6.48 g/m*3 5.21 C 6.4 km/h
1964 05-01-2014 11:05:00 6.5 C 6.45 g/m*3 4.51 C 9.7 km/h
1965 05-01-2014 11:10:00 6.7 C 6.38 g/m*3 4.75 C 9.7 km/h
1966 05-01-2014 11:15:00 6.7 C 6.53 g/m*3 5.56 C 6.4 km/h
1967 05-01-2014 11:20:00 6.6 C 6.34 g/m*3 4.63 C 9.7 km/h
1968 05-01-2014 11:25:00 6.6 C 6.27 g/m*3 4.04 C 12.9 km/h
1969 05-01-2014 11:30:00 6.6 C 6.27 g/m*3 4.63 C 9.7 km/h
1970 05-01-2014 11:35:00 6.6 C 6.27 g/m*3 5.44 C 6.4 km/h
1971 05-01-2014 13:00:00 6.6 C 6.34 g/m*3 6.6 C 4.8 km/h
1972 05-01-2014 13:05:00 6.4 C 6.18 g/m*3 3.8 C 12.9 km/h
1973 05-01-2014 13:10:00 6.4 C 6.18 g/m*3 3.11 C 17.7 km/h
1974 05-01-2014 16:40:00 5.7 C 6.05 g/m*3 5.7 C 4.8 km/h
1975 05-01-2014 16:40:00 5.7 C 6.05 g/m*3 5.7 C 4.8 km/h
Sensor: Nr:Datum:Temp:Abs-Feuchte:Windchill:Wind:
Aussen-T/F 1976 05-01-2014 16:45:00 5.8 C 6.16 g/m*3 5.8 C 3.2 km/h
1977 05-01-2014 16:45:00 5.8 C 6.16 g/m*3 5.8 C 3.2 km/h
1978 05-01-2014 16:50:00 5.8 C 6.16 g/m*3 4.05 C 8.1 km/h
1979 05-01-2014 16:50:00 5.8 C 6.16 g/m*3 4.05 C 8.1 km/h
1980 05-01-2014 17:25:00 5.6 C 6.29 g/m*3 5.6 C 0 km/h
1981 05-01-2014 17:30:00 5.6 C 6.29 g/m*3 5.6 C 3.2 km/h
1982 05-01-2014 17:35:00 5.5 C 6.11 g/m*3 5.5 C 4.8 km/h
1983 05-01-2014 17:40:00 5.7 C 6.26 g/m*3 5.7 C 3.2 km/h
1984 05-01-2014 17:45:00 5.6 C 6.22 g/m*3 5.6 C 3.2 km/h
1985 05-01-2014 17:50:00 5.6 C 6.22 g/m*3 5.6 C 1.6 km/h
1986 05-01-2014 17:55:00 5.6 C 6.22 g/m*3 5.6 C 3.2 km/h
1987 05-01-2014 18:00:00 5.6 C 6.15 g/m*3 5.6 C 1.6 km/h
1988 05-01-2014 18:05:00 5.7 C 6.19 g/m*3 5.7 C 0 km/h
1989 05-01-2014 18:10:00 5.8 C 6.16 g/m*3 5.8 C 4.8 km/h
1990 05-01-2014 18:15:00 5.8 C 6.09 g/m*3 5.8 C 3.2 km/h
1991 05-01-2014 18:20:00 6 C 5.95 g/m*3 6 C 4.8 km/h
1992 05-01-2014 18:25:00 6.1 C 6.28 g/m*3 6.1 C 1.6 km/h
1993 05-01-2014 18:30:00 5.8 C 6.23 g/m*3 5.8 C 1.6 km/h
1994 05-01-2014 18:35:00 5.7 C 6.19 g/m*3 5.7 C 0 km/h
1995 05-01-2014 18:40:00 5.7 C 6.12 g/m*3 5.7 C 0 km/h
1996 05-01-2014 18:45:00 5.7 C 6.05 g/m*3 5.7 C 4.8 km/h
1997 05-01-2014 18:50:00 5.8 C 6.3 g/m*3 5.8 C 0 km/h
1998 05-01-2014 18:55:00 5.8 C 6.3 g/m*3 5.8 C 0 km/h
1999 05-01-2014 19:00:00 5.7 C 6.12 g/m*3 5.7 C 0 km/h
2000 05-01-2014 19:05:00 5.7 C 6.19 g/m*3 5.7 C 1.6 km/h
Sensor: Nr:Datum:Temp:Abs-Feuchte:Windchill:Wind:
Aussen-T/F 2001 05-01-2014 19:10:00 5.7 C 6.19 g/m*3 5.7 C 3.2 km/h
2002 05-01-2014 19:15:00 5.9 C 6.13 g/m*3 5.9 C 4.8 km/h
2003 05-01-2014 19:20:00 6 C 6.1 g/m*3 6 C 3.2 km/h
2004 05-01-2014 19:25:00 6.1 C 6.14 g/m*3 6.1 C 1.6 km/h
2005 05-01-2014 19:30:00 6.1 C 6.21 g/m*3 6.1 C 4.8 km/h
2006 05-01-2014 19:35:00 6.1 C 6.21 g/m*3 6.1 C 4.8 km/h
2007 05-01-2014 19:40:00 6 C 6.24 g/m*3 6 C 0 km/h
2008 05-01-2014 19:45:00 5.9 C 6.06 g/m*3 5.9 C 4.8 km/h
2009 05-01-2014 19:50:00 5.8 C 6.02 g/m*3 5.8 C 1.6 km/h
2010 05-01-2014 19:55:00 5.5 C 5.97 g/m*3 5.5 C 0 km/h
2011 05-01-2014 20:00:00 5.2 C 5.92 g/m*3 5.2 C 1.6 km/h
2012 05-01-2014 20:05:00 4.9 C 5.94 g/m*3 4.9 C 1.6 km/h
2013 05-01-2014 20:10:00 4.8 C 5.97 g/m*3 4.8 C 1.6 km/h
2014 05-01-2014 20:15:00 4.6 C 5.89 g/m*3 4.6 C 3.2 km/h
2015 05-01-2014 20:20:00 4.4 C 5.81 g/m*3 4.4 C 3.2 km/h
2016 05-01-2014 20:25:00 4.3 C 5.84 g/m*3 4.3 C 1.6 km/h
2017 05-01-2014 20:30:00 4.2 C 5.8 g/m*3 4.2 C 3.2 km/h
2018 05-01-2014 20:35:00 4.2 C 5.86 g/m*3 4.2 C 1.6 km/h
2019 05-01-2014 20:40:00 4 C 5.79 g/m*3 4 C 0 km/h
2020 05-01-2014 20:45:00 3.9 C 5.75 g/m*3 3.9 C 1.6 km/h
2021 05-01-2014 20:50:00 3.8 C 5.71 g/m*3 3.8 C 3.2 km/h
2022 05-01-2014 20:55:00 3.8 C 5.71 g/m*3 3.8 C 4.8 km/h
2023 05-01-2014 21:00:00 3.7 C 5.67 g/m*3 3.7 C 3.2 km/h
2024 05-01-2014 21:05:00 3.8 C 5.77 g/m*3 3.8 C 3.2 km/h
2025 05-01-2014 21:10:00 3.8 C 5.77 g/m*3 3.8 C 3.2 km/h
Sensor: Nr:Datum:Temp:Abs-Feuchte:Windchill:Wind:
Aussen-T/F 2026 05-01-2014 21:15:00 3.8 C 5.77 g/m*3 3.8 C 1.6 km/h
2027 05-01-2014 21:20:00 3.9 C 5.75 g/m*3 3.9 C 3.2 km/h
2028 05-01-2014 21:25:00 3.9 C 5.68 g/m*3 3.9 C 3.2 km/h
2029 05-01-2014 21:30:00 3.8 C 5.71 g/m*3 3.8 C 3.2 km/h
2030 05-01-2014 21:35:00 3.8 C 5.71 g/m*3 3.8 C 1.6 km/h
2031 05-01-2014 21:40:00 3.7 C 5.73 g/m*3 3.7 C 3.2 km/h
2032 05-01-2014 21:45:00 3.8 C 5.77 g/m*3 3.8 C 1.6 km/h
2033 05-01-2014 21:50:00 4 C 5.91 g/m*3 4 C 4.8 km/h
2034 05-01-2014 21:55:00 4.2 C 5.93 g/m*3 4.2 C 1.6 km/h
2035 05-01-2014 22:00:00 4.3 C 5.97 g/m*3 4.3 C 3.2 km/h
2036 05-01-2014 22:05:00 4.5 C 6.05 g/m*3 4.5 C 1.6 km/h
2037 05-01-2014 22:10:00 4.7 C 6.06 g/m*3 4.7 C 1.6 km/h
2038 05-01-2014 22:15:00 4.8 C 6.1 g/m*3 4.8 C 3.2 km/h
2039 05-01-2014 22:20:00 4.9 C 6.08 g/m*3 4.9 C 1.6 km/h
2040 05-01-2014 22:25:00 5 C 6.12 g/m*3 5 C 1.6 km/h
2041 05-01-2014 22:30:00 5.1 C 6.09 g/m*3 5.1 C 3.2 km/h
2042 05-01-2014 22:35:00 5.1 C 6.09 g/m*3 5.1 C 1.6 km/h
2043 05-01-2014 22:40:00 4.8 C 5.97 g/m*3 4.8 C 1.6 km/h
2044 05-01-2014 22:45:00 4.6 C 5.89 g/m*3 4.6 C 1.6 km/h
2045 05-01-2014 22:50:00 4.4 C 5.88 g/m*3 4.4 C 1.6 km/h
2046 05-01-2014 22:55:00 4.4 C 5.88 g/m*3 4.4 C 3.2 km/h
2047 05-01-2014 23:00:00 4.3 C 5.9 g/m*3 4.3 C 3.2 km/h
2048 05-01-2014 23:05:00 4.3 C 5.9 g/m*3 4.3 C 3.2 km/h
2049 05-01-2014 23:10:00 4.3 C 5.9 g/m*3 4.3 C 3.2 km/h
2050 05-01-2014 23:15:00 4.3 C 5.84 g/m*3 4.3 C 1.6 km/h
Sensor: Nr:Datum:Temp:Abs-Feuchte:Windchill:Wind:
Aussen-T/F 2051 05-01-2014 23:20:00 4.2 C 5.86 g/m*3 4.2 C 1.6 km/h
2052 05-01-2014 23:25:00 3.9 C 5.75 g/m*3 3.9 C 3.2 km/h
2053 05-01-2014 23:30:00 3.8 C 5.71 g/m*3 3.8 C 4.8 km/h
2054 05-01-2014 23:35:00 3.8 C 5.77 g/m*3 3.8 C 3.2 km/h
2055 05-01-2014 23:40:00 3.7 C 5.73 g/m*3 3.7 C 3.2 km/h
2056 05-01-2014 23:45:00 3.6 C 5.69 g/m*3 3.6 C 1.6 km/h
2057 05-01-2014 23:50:00 3.5 C 5.66 g/m*3 3.5 C 3.2 km/h
2058 05-01-2014 23:55:00 3.4 C 5.62 g/m*3 3.4 C 3.2 km/h
2059 06-01-2014 00:00:00 3.4 C 5.68 g/m*3 3.4 C 3.2 km/h
2060 06-01-2014 00:05:00 3.3 C 5.64 g/m*3 3.3 C 3.2 km/h
2061 06-01-2014 00:10:00 3.3 C 5.64 g/m*3 3.3 C 1.6 km/h
2062 06-01-2014 00:15:00 3.3 C 5.64 g/m*3 3.3 C 3.2 km/h
2063 06-01-2014 00:20:00 3.3 C 5.64 g/m*3 3.3 C 1.6 km/h
2064 06-01-2014 00:25:00 3.3 C 5.64 g/m*3 3.3 C 3.2 km/h
2065 06-01-2014 00:30:00 3.3 C 5.64 g/m*3 3.3 C 3.2 km/h
2066 06-01-2014 00:35:00 3.3 C 5.64 g/m*3 3.3 C 3.2 km/h
2067 06-01-2014 00:40:00 3.3 C 5.64 g/m*3 3.3 C 1.6 km/h
2068 06-01-2014 00:45:00 3.3 C 5.64 g/m*3 3.3 C 1.6 km/h
2069 06-01-2014 00:50:00 3.3 C 5.7 g/m*3 3.3 C 1.6 km/h
2070 06-01-2014 00:55:00 3.4 C 5.68 g/m*3 3.4 C 1.6 km/h
2071 06-01-2014 01:00:00 3.3 C 5.64 g/m*3 3.3 C 1.6 km/h
2072 06-01-2014 01:05:00 3.3 C 5.64 g/m*3 3.3 C 0 km/h
2073 06-01-2014 01:10:00 3.3 C 5.64 g/m*3 3.3 C 1.6 km/h
2074 06-01-2014 01:15:00 3.2 C 5.6 g/m*3 3.2 C 4.8 km/h
2075 06-01-2014 01:20:00 3.4 C 5.74 g/m*3 0.82 C 9.7 km/h
Sensor: Nr:Datum:Temp:Abs-Feuchte:Windchill:Wind:
Aussen-T/F 2076 06-01-2014 01:25:00 3.6 C 5.82 g/m*3 3.6 C 1.6 km/h
2077 06-01-2014 01:30:00 3.7 C 5.8 g/m*3 3.7 C 1.6 km/h
2078 06-01-2014 01:35:00 3.8 C 5.83 g/m*3 3.8 C 0 km/h
2079 06-01-2014 01:40:00 3.8 C 5.83 g/m*3 3.8 C 0 km/h
2080 06-01-2014 01:45:00 3.9 C 5.87 g/m*3 3.9 C 3.2 km/h
2081 06-01-2014 01:50:00 3.9 C 5.87 g/m*3 3.9 C 1.6 km/h
2082 06-01-2014 01:55:00 3.9 C 5.87 g/m*3 3.9 C 3.2 km/h
2083 06-01-2014 02:00:00 3.8 C 5.83 g/m*3 3.8 C 3.2 km/h
2084 06-01-2014 02:05:00 3.7 C 5.8 g/m*3 3.7 C 1.6 km/h
2085 06-01-2014 02:10:00 3.7 C 5.8 g/m*3 3.7 C 3.2 km/h
2086 06-01-2014 02:15:00 3.7 C 5.8 g/m*3 3.7 C 1.6 km/h
2087 06-01-2014 02:20:00 3.7 C 5.8 g/m*3 2.09 C 6.4 km/h
2088 06-01-2014 02:25:00 3.6 C 5.76 g/m*3 3.6 C 0 km/h
2089 06-01-2014 02:30:00 3.7 C 5.86 g/m*3 3.7 C 1.6 km/h
2090 06-01-2014 02:35:00 3.8 C 5.9 g/m*3 3.8 C 1.6 km/h
2091 06-01-2014 02:40:00 3.9 C 5.94 g/m*3 3.9 C 3.2 km/h
2092 06-01-2014 02:45:00 3.9 C 5.94 g/m*3 3.9 C 3.2 km/h
2093 06-01-2014 02:50:00 3.9 C 5.94 g/m*3 3.9 C 3.2 km/h
2094 06-01-2014 02:55:00 4.2 C 6.06 g/m*3 4.2 C 4.8 km/h
2095 06-01-2014 03:00:00 4.4 C 6.14 g/m*3 4.4 C 4.8 km/h
2096 06-01-2014 03:05:00 4.7 C 6.19 g/m*3 4.7 C 1.6 km/h
2097 06-01-2014 03:10:00 4.8 C 6.17 g/m*3 3.36 C 6.4 km/h
2098 06-01-2014 03:15:00 5 C 6.18 g/m*3 5 C 4.8 km/h
2099 06-01-2014 03:20:00 5.2 C 6.27 g/m*3 5.2 C 4.8 km/h
2100 06-01-2014 03:25:00 5.2 C 6.27 g/m*3 5.2 C 3.2 km/h
Sensor: Nr:Datum:Temp:Abs-Feuchte:Windchill:Wind:
Aussen-T/F 2101 06-01-2014 03:30:00 5.2 C 6.27 g/m*3 5.2 C 1.6 km/h
2102 06-01-2014 03:35:00 5.2 C 6.33 g/m*3 5.2 C 1.6 km/h
2103 06-01-2014 03:40:00 5.3 C 6.38 g/m*3 5.3 C 0 km/h
2104 06-01-2014 03:45:00 5.3 C 6.38 g/m*3 5.3 C 3.2 km/h
2105 06-01-2014 03:50:00 5.3 C 6.45 g/m*3 5.3 C 0 km/h
2106 06-01-2014 03:55:00 5.3 C 6.38 g/m*3 5.3 C 4.8 km/h
2107 06-01-2014 04:00:00 5.3 C 6.38 g/m*3 5.3 C 1.6 km/h
2108 06-01-2014 04:05:00 5.4 C 6.42 g/m*3 5.4 C 1.6 km/h
2109 06-01-2014 04:10:00 5.4 C 6.42 g/m*3 5.4 C 3.2 km/h
2110 06-01-2014 04:15:00 5.6 C 6.43 g/m*3 5.6 C 1.6 km/h
2111 06-01-2014 04:20:00 5.7 C 6.4 g/m*3 5.7 C 3.2 km/h
2112 06-01-2014 04:25:00 5.8 C 6.45 g/m*3 5.8 C 3.2 km/h
2113 06-01-2014 04:30:00 5.9 C 6.49 g/m*3 5.9 C 1.6 km/h
2114 06-01-2014 04:35:00 5.8 C 6.45 g/m*3 5.8 C 0 km/h
2115 06-01-2014 04:40:00 5.8 C 6.45 g/m*3 5.8 C 3.2 km/h
2116 06-01-2014 04:45:00 5.8 C 6.45 g/m*3 5.8 C 3.2 km/h
2117 06-01-2014 04:50:00 5.9 C 6.42 g/m*3 5.9 C 4.8 km/h
2118 06-01-2014 04:55:00 5.9 C 6.49 g/m*3 5.9 C 1.6 km/h
2119 06-01-2014 05:00:00 5.9 C 6.35 g/m*3 5.9 C 0 km/h
2120 06-01-2014 05:05:00 6 C 6.46 g/m*3 6 C 3.2 km/h
2121 06-01-2014 05:10:00 6 C 6.46 g/m*3 6 C 3.2 km/h
2122 06-01-2014 05:15:00 5.9 C 6.42 g/m*3 5.9 C 1.6 km/h
2123 06-01-2014 05:20:00 5.9 C 6.35 g/m*3 5.9 C 3.2 km/h
2124 06-01-2014 05:25:00 6 C 6.53 g/m*3 6 C 0 km/h
2125 06-01-2014 05:30:00 5.9 C 6.49 g/m*3 5.9 C 4.8 km/h
Sensor: Nr:Datum:Temp:Abs-Feuchte:Windchill:Wind:
Aussen-T/F 2126 06-01-2014 05:35:00 5.9 C 6.42 g/m*3 5.9 C 0 km/h
2127 06-01-2014 05:40:00 5.9 C 6.49 g/m*3 5.9 C 0 km/h
2128 06-01-2014 05:45:00 5.9 C 6.42 g/m*3 5.9 C 3.2 km/h
2129 06-01-2014 05:50:00 6 C 6.46 g/m*3 6 C 1.6 km/h
2130 06-01-2014 05:55:00 6.1 C 6.5 g/m*3 6.1 C 0 km/h
2131 06-01-2014 06:00:00 6.1 C 6.5 g/m*3 6.1 C 1.6 km/h
2132 06-01-2014 06:05:00 6.2 C 6.47 g/m*3 6.2 C 0 km/h
2133 06-01-2014 06:10:00 6.2 C 6.47 g/m*3 6.2 C 1.6 km/h
2134 06-01-2014 06:15:00 6.2 C 6.47 g/m*3 6.2 C 4.8 km/h
2135 06-01-2014 06:20:00 6.3 C 6.51 g/m*3 6.3 C 1.6 km/h
2136 06-01-2014 06:25:00 6.3 C 6.51 g/m*3 6.3 C 0 km/h
2137 06-01-2014 06:30:00 6.3 C 6.59 g/m*3 6.3 C 0 km/h
2138 06-01-2014 06:35:00 6.3 C 6.59 g/m*3 6.3 C 0 km/h
2139 06-01-2014 06:40:00 6.3 C 6.59 g/m*3 6.3 C 3.2 km/h
2140 06-01-2014 06:45:00 6.3 C 6.66 g/m*3 6.3 C 1.6 km/h
2141 06-01-2014 06:50:00 6.3 C 6.74 g/m*3 6.3 C 0 km/h
2142 06-01-2014 06:55:00 6.3 C 6.74 g/m*3 6.3 C 0 km/h
2143 06-01-2014 07:00:00 6.3 C 6.74 g/m*3 6.3 C 0 km/h
2144 06-01-2014 07:05:00 6.3 C 6.74 g/m*3 6.3 C 3.2 km/h
2145 06-01-2014 07:10:00 6.4 C 6.71 g/m*3 6.4 C 1.6 km/h
2146 06-01-2014 07:15:00 6.6 C 6.72 g/m*3 6.6 C 1.6 km/h
2147 06-01-2014 07:20:00 6.6 C 6.72 g/m*3 6.6 C 0 km/h
2148 06-01-2014 07:25:00 6.6 C 6.72 g/m*3 6.6 C 1.6 km/h
2149 06-01-2014 07:30:00 6.6 C 6.79 g/m*3 6.6 C 0 km/h
2150 06-01-2014 07:35:00 6.5 C 6.75 g/m*3 6.5 C 0 km/h
Sensor: Nr:Datum:Temp:Abs-Feuchte:Windchill:Wind:
Aussen-T/F 2151 06-01-2014 07:40:00 6.5 C 6.82 g/m*3 6.5 C 4.8 km/h
2152 06-01-2014 07:45:00 6.5 C 6.82 g/m*3 6.5 C 1.6 km/h
2153 06-01-2014 07:50:00 6.6 C 6.87 g/m*3 6.6 C 4.8 km/h
2154 06-01-2014 07:55:00 6.7 C 6.91 g/m*3 6.7 C 0 km/h
2155 06-01-2014 08:00:00 6.8 C 6.96 g/m*3 6.8 C 1.6 km/h
2156 06-01-2014 08:05:00 6.8 C 6.96 g/m*3 6.8 C 0 km/h
2157 06-01-2014 08:10:00 6.9 C 7.01 g/m*3 6.9 C 0 km/h
2158 06-01-2014 08:15:00 6.9 C 7.08 g/m*3 6.9 C 0 km/h
2159 06-01-2014 08:20:00 7 C 7.13 g/m*3 7 C 1.6 km/h
2160 06-01-2014 08:25:00 7.1 C 7.18 g/m*3 7.1 C 3.2 km/h
2161 06-01-2014 08:30:00 7.2 C 7.22 g/m*3 7.2 C 3.2 km/h
2162 06-01-2014 08:35:00 7.3 C 7.27 g/m*3 7.3 C 3.2 km/h
2163 06-01-2014 08:40:00 7.4 C 7.32 g/m*3 7.4 C 1.6 km/h
2164 06-01-2014 08:45:00 7.5 C 7.36 g/m*3 7.5 C 1.6 km/h
2165 06-01-2014 08:50:00 7.7 C 7.46 g/m*3 7.7 C 1.6 km/h
2166 06-01-2014 08:55:00 7.8 C 7.43 g/m*3 7.8 C 0 km/h
2167 06-01-2014 09:00:00 7.8 C 7.43 g/m*3 7.8 C 0 km/h
2168 06-01-2014 09:05:00 7.8 C 7.43 g/m*3 7.8 C 0 km/h
2169 06-01-2014 09:10:00 7.8 C 7.43 g/m*3 7.8 C 4.8 km/h
2170 06-01-2014 09:15:00 8 C 7.61 g/m*3 8 C 3.2 km/h
2171 06-01-2014 09:20:00 8.2 C 7.62 g/m*3 8.2 C 3.2 km/h
2172 06-01-2014 09:25:00 8.2 C 7.62 g/m*3 8.2 C 3.2 km/h
2173 06-01-2014 09:30:00 8.2 C 7.62 g/m*3 8.2 C 0 km/h
2174 06-01-2014 09:35:00 8.4 C 7.72 g/m*3 8.4 C 1.6 km/h
2175 06-01-2014 09:40:00 8.4 C 7.72 g/m*3 8.4 C 0 km/h
Sensor: Nr:Datum:Temp:Abs-Feuchte:Windchill:Wind:
Aussen-T/F 2176 06-01-2014 09:45:00 8.6 C 7.82 g/m*3 8.6 C 0 km/h
2177 06-01-2014 09:50:00 8.6 C 7.82 g/m*3 8.6 C 0 km/h
2178 06-01-2014 09:55:00 8.6 C 7.82 g/m*3 8.6 C 1.6 km/h
2179 06-01-2014 10:00:00 8.6 C 7.82 g/m*3 8.6 C 0 km/h
2180 06-01-2014 10:05:00 8.6 C 7.82 g/m*3 8.6 C 3.2 km/h
2181 06-01-2014 10:10:00 8.6 C 7.82 g/m*3 8.6 C 0 km/h
2182 06-01-2014 10:15:00 8.6 C 7.82 g/m*3 8.6 C 4.8 km/h
2183 06-01-2014 10:20:00 8.7 C 7.87 g/m*3 8.7 C 3.2 km/h
2184 06-01-2014 10:25:00 8.7 C 7.87 g/m*3 8.7 C 0 km/h
2185 06-01-2014 10:30:00 8.8 C 7.92 g/m*3 8.8 C 4.8 km/h
2186 06-01-2014 10:35:00 8.8 C 7.92 g/m*3 7.98 C 6.4 km/h
2187 06-01-2014 10:40:00 8.9 C 7.88 g/m*3 8.9 C 1.6 km/h
2188 06-01-2014 10:45:00 9 C 7.93 g/m*3 9 C 1.6 km/h
2189 06-01-2014 10:50:00 9.1 C 7.99 g/m*3 9.1 C 4.8 km/h
2190 06-01-2014 10:55:00 9.2 C 7.95 g/m*3 8.45 C 6.4 km/h
2191 06-01-2014 11:00:00 9.3 C 7.91 g/m*3 9.3 C 4.8 km/h
2192 06-01-2014 11:05:00 9.3 C 7.91 g/m*3 9.3 C 3.2 km/h
2193 06-01-2014 11:10:00 9.3 C 7.91 g/m*3 9.3 C 1.6 km/h
2194 06-01-2014 11:15:00 9.3 C 8 g/m*3 8.16 C 8.1 km/h
2195 06-01-2014 11:20:00 9.3 C 8.09 g/m*3 9.3 C 4.8 km/h
2196 06-01-2014 11:25:00 9.5 C 8.1 g/m*3 9.5 C 3.2 km/h
2197 06-01-2014 11:30:00 9.7 C 8.2 g/m*3 9.7 C 0 km/h
2198 06-01-2014 11:35:00 9.9 C 8.4 g/m*3 9.9 C 0 km/h
2199 06-01-2014 11:40:00 10.2 C 8.47 g/m*3 10.2 C 4.8 km/h
2200 06-01-2014 11:45:00 10.4 C 8.48 g/m*3 10.4 C 4.8 km/h
Sensor: Nr:Datum:Temp:Abs-Feuchte:Windchill:Wind:
Aussen-T/F 2201 06-01-2014 11:50:00 10.7 C 8.64 g/m*3 10.7 C 4.8 km/h
2202 06-01-2014 11:55:00 10.8 C 8.6 g/m*3 10.8 C 1.6 km/h
2203 06-01-2014 12:00:00 10.9 C 8.65 g/m*3 10.41 C 6.4 km/h
2204 06-01-2014 12:05:00 11.1 C 8.76 g/m*3 11.1 C 4.8 km/h
2205 06-01-2014 12:10:00 11.2 C 8.72 g/m*3 11.2 C 6.4 km/h
2206 06-01-2014 12:15:00 11.3 C 8.67 g/m*3 11.3 C 6.4 km/h
2207 06-01-2014 12:20:00 11.4 C 8.72 g/m*3 11.4 C 3.2 km/h
2208 06-01-2014 12:25:00 11.6 C 8.63 g/m*3 11.6 C 4.8 km/h
2209 06-01-2014 12:30:00 11.6 C 8.63 g/m*3 11.6 C 4.8 km/h
2210 06-01-2014 12:35:00 11.6 C 8.63 g/m*3 11.6 C 4.8 km/h
2211 06-01-2014 12:40:00 11.6 C 8.63 g/m*3 11.6 C 6.4 km/h
2212 06-01-2014 12:45:00 11.8 C 8.63 g/m*3 11.8 C 3.2 km/h
2213 06-01-2014 12:50:00 11.8 C 8.63 g/m*3 11.8 C 1.6 km/h
2214 06-01-2014 12:55:00 11.8 C 8.84 g/m*3 11.8 C 3.2 km/h
2215 06-01-2014 13:00:00 11.8 C 8.84 g/m*3 11.8 C 3.2 km/h
2216 06-01-2014 13:05:00 11.8 C 8.74 g/m*3 11.8 C 4.8 km/h
2217 06-01-2014 13:10:00 11.8 C 8.63 g/m*3 11.8 C 3.2 km/h
2218 06-01-2014 13:15:00 11.9 C 8.68 g/m*3 11.9 C 4.8 km/h
2219 06-01-2014 13:20:00 12 C 8.74 g/m*3 12 C 6.4 km/h
2220 06-01-2014 13:25:00 12 C 8.74 g/m*3 12 C 3.2 km/h
2221 06-01-2014 13:30:00 12.1 C 8.69 g/m*3 12.1 C 0 km/h
2222 06-01-2014 13:35:00 12.2 C 8.63 g/m*3 12.2 C 4.8 km/h
2223 06-01-2014 13:40:00 12.2 C 8.74 g/m*3 12.2 C 0 km/h
2224 06-01-2014 13:45:00 12.1 C 8.69 g/m*3 12.1 C 3.2 km/h
2225 06-01-2014 13:50:00 12.1 C 8.9 g/m*3 12.1 C 0 km/h
Sensor: Nr:Datum:Temp:Abs-Feuchte:Windchill:Wind:
Aussen-T/F 2226 06-01-2014 13:55:00 12.1 C 8.69 g/m*3 12.1 C 8.1 km/h
2227 06-01-2014 14:00:00 12.2 C 8.74 g/m*3 12.2 C 8.1 km/h
2228 06-01-2014 14:05:00 12.2 C 8.85 g/m*3 12.2 C 0 km/h
2229 06-01-2014 14:10:00 12.2 C 8.74 g/m*3 12.2 C 3.2 km/h
2230 06-01-2014 14:15:00 12.1 C 8.58 g/m*3 12.1 C 4.8 km/h
2231 06-01-2014 14:20:00 12.1 C 8.58 g/m*3 12.1 C 3.2 km/h
2232 06-01-2014 14:25:00 11.9 C 8.37 g/m*3 11.9 C 4.8 km/h
2233 06-01-2014 14:30:00 11.7 C 8.37 g/m*3 11.7 C 3.2 km/h
2234 06-01-2014 14:35:00 11.5 C 8.26 g/m*3 11.5 C 4.8 km/h
2235 06-01-2014 14:40:00 11.4 C 8.21 g/m*3 11.4 C 3.2 km/h
2236 06-01-2014 14:45:00 11.2 C 8.11 g/m*3 11.2 C 4.8 km/h
2237 06-01-2014 14:50:00 11.1 C 8.16 g/m*3 11.1 C 4.8 km/h
2238 06-01-2014 14:55:00 11 C 8.11 g/m*3 11 C 3.2 km/h
2239 06-01-2014 15:00:00 10.9 C 8.16 g/m*3 10.9 C 1.6 km/h
2240 06-01-2014 15:05:00 10.9 C 8.16 g/m*3 10.9 C 1.6 km/h
2241 06-01-2014 15:10:00 10.8 C 8.2 g/m*3 10.8 C 0 km/h
2242 06-01-2014 15:15:00 10.8 C 8.2 g/m*3 10.8 C 0 km/h
2243 06-01-2014 15:20:00 10.7 C 8.25 g/m*3 10.7 C 3.2 km/h
2244 06-01-2014 15:25:00 10.7 C 8.25 g/m*3 10.7 C 0 km/h
2245 06-01-2014 15:30:00 10.7 C 8.35 g/m*3 10.7 C 1.6 km/h
2246 06-01-2014 15:35:00 10.7 C 8.25 g/m*3 10.7 C 3.2 km/h
2247 06-01-2014 15:40:00 10.6 C 8.3 g/m*3 10.6 C 3.2 km/h
2248 06-01-2014 15:45:00 10.6 C 8.3 g/m*3 10.6 C 4.8 km/h
2249 06-01-2014 15:50:00 10.6 C 8.2 g/m*3 10.6 C 3.2 km/h
2250 06-01-2014 15:55:00 10.6 C 8.2 g/m*3 10.6 C 4.8 km/h
Sensor: Nr:Datum:Temp:Abs-Feuchte:Windchill:Wind:
Aussen-T/F 2251 06-01-2014 16:00:00 10.7 C 8.05 g/m*3 10.7 C 4.8 km/h
2252 06-01-2014 16:05:00 10.7 C 8.05 g/m*3 10.7 C 3.2 km/h
2253 06-01-2014 16:10:00 10.6 C 8 g/m*3 10.6 C 1.6 km/h
2254 06-01-2014 16:15:00 10.6 C 8 g/m*3 9.69 C 8.1 km/h
2255 06-01-2014 16:20:00 10.5 C 7.95 g/m*3 9.95 C 6.4 km/h
2256 06-01-2014 16:25:00 10.4 C 8 g/m*3 10.4 C 3.2 km/h
2257 06-01-2014 16:30:00 10.3 C 7.95 g/m*3 10.3 C 4.8 km/h
2258 06-01-2014 16:35:00 10.3 C 7.85 g/m*3 10.3 C 4.8 km/h
2259 06-01-2014 16:40:00 10.4 C 7.9 g/m*3 10.4 C 4.8 km/h
2260 06-01-2014 16:45:00 10.4 C 7.9 g/m*3 10.4 C 4.8 km/h
2261 06-01-2014 16:50:00 10.4 C 7.9 g/m*3 10.4 C 3.2 km/h
2262 06-01-2014 16:55:00 10.4 C 7.81 g/m*3 10.4 C 4.8 km/h
2263 06-01-2014 17:00:00 10.3 C 7.76 g/m*3 10.3 C 3.2 km/h
2264 06-01-2014 17:05:00 10.2 C 7.8 g/m*3 10.2 C 0 km/h
2265 06-01-2014 17:10:00 10.1 C 7.85 g/m*3 10.1 C 4.8 km/h
2266 06-01-2014 17:15:00 10.1 C 7.94 g/m*3 10.1 C 1.6 km/h
2267 06-01-2014 17:20:00 9.9 C 8.03 g/m*3 9.9 C 1.6 km/h
2268 06-01-2014 17:25:00 9.8 C 7.98 g/m*3 9.8 C 3.2 km/h
2269 06-01-2014 17:30:00 9.8 C 8.07 g/m*3 9.8 C 3.2 km/h
2270 06-01-2014 17:35:00 9.7 C 8.11 g/m*3 9.7 C 1.6 km/h
2271 06-01-2014 17:40:00 9.6 C 8.15 g/m*3 9.6 C 1.6 km/h
2272 06-01-2014 17:45:00 9.4 C 8.05 g/m*3 9.4 C 3.2 km/h
2273 06-01-2014 17:50:00 9.4 C 7.96 g/m*3 9.4 C 3.2 km/h
2274 06-01-2014 17:55:00 9.5 C 7.92 g/m*3 8.4 C 8.1 km/h
2275 06-01-2014 18:00:00 9.7 C 8.02 g/m*3 9.02 C 6.4 km/h
Sensor: Nr:Datum:Temp:Abs-Feuchte:Windchill:Wind:
Aussen-T/F 2276 06-01-2014 18:05:00 9.7 C 8.02 g/m*3 9.7 C 4.8 km/h
2277 06-01-2014 18:10:00 9.6 C 7.97 g/m*3 9.6 C 3.2 km/h
2278 06-01-2014 18:15:00 9.6 C 7.97 g/m*3 9.6 C 0 km/h
2279 06-01-2014 18:20:00 9.8 C 7.98 g/m*3 9.14 C 6.4 km/h
2280 06-01-2014 18:25:00 10.2 C 7.9 g/m*3 10.2 C 4.8 km/h
2281 06-01-2014 18:30:00 10.3 C 7.95 g/m*3 10.3 C 4.8 km/h
2282 06-01-2014 18:35:00 10.3 C 7.95 g/m*3 9.34 C 8.1 km/h
2283 06-01-2014 18:40:00 10.9 C 8.16 g/m*3 10.9 C 3.2 km/h
2284 06-01-2014 18:45:00 11.1 C 8.26 g/m*3 11.1 C 6.4 km/h
2285 06-01-2014 18:50:00 11.1 C 8.36 g/m*3 11.1 C 4.8 km/h
2286 06-01-2014 18:55:00 11 C 8.41 g/m*3 11 C 4.8 km/h
2287 06-01-2014 19:00:00 10.9 C 8.26 g/m*3 10.9 C 3.2 km/h
2288 06-01-2014 19:05:00 10.9 C 8.36 g/m*3 10.04 C 8.1 km/h
2289 06-01-2014 19:10:00 10.8 C 8.3 g/m*3 10.29 C 6.4 km/h
2290 06-01-2014 19:15:00 10.9 C 8.36 g/m*3 10.9 C 3.2 km/h
2291 06-01-2014 19:20:00 10.9 C 8.55 g/m*3 10.41 C 6.4 km/h
2292 06-01-2014 19:25:00 10.8 C 8.5 g/m*3 10.8 C 4.8 km/h
2293 06-01-2014 19:30:00 10.8 C 8.6 g/m*3 10.8 C 1.6 km/h
2294 06-01-2014 19:35:00 10.7 C 8.64 g/m*3 9.52 C 9.7 km/h
2295 06-01-2014 19:40:00 10.5 C 8.63 g/m*3 10.5 C 3.2 km/h
2296 06-01-2014 19:45:00 10.3 C 8.62 g/m*3 10.3 C 4.8 km/h
2297 06-01-2014 19:50:00 10.2 C 8.66 g/m*3 10.2 C 4.8 km/h
2298 06-01-2014 19:55:00 10.1 C 8.7 g/m*3 10.1 C 4.8 km/h
2299 06-01-2014 20:00:00 9.9 C 8.59 g/m*3 9.9 C 3.2 km/h
2300 06-01-2014 20:05:00 9.8 C 8.63 g/m*3 9.8 C 3.2 km/h
Sensor: Nr:Datum:Temp:Abs-Feuchte:Windchill:Wind:
Aussen-T/F 2301 06-01-2014 20:10:00 9.8 C 8.72 g/m*3 9.8 C 3.2 km/h
2302 06-01-2014 20:15:00 9.7 C 8.67 g/m*3 9.7 C 3.2 km/h
2303 06-01-2014 20:20:00 9.7 C 8.67 g/m*3 9.02 C 6.4 km/h
2304 06-01-2014 20:25:00 9.7 C 8.67 g/m*3 9.7 C 3.2 km/h
2305 06-01-2014 20:30:00 9.7 C 8.67 g/m*3 9.7 C 3.2 km/h
2306 06-01-2014 20:35:00 9.7 C 8.76 g/m*3 9.02 C 6.4 km/h
2307 06-01-2014 20:40:00 9.8 C 8.81 g/m*3 9.8 C 4.8 km/h
2308 06-01-2014 20:45:00 9.9 C 8.87 g/m*3 9.9 C 3.2 km/h
2309 06-01-2014 20:50:00 9.9 C 8.78 g/m*3 9.9 C 4.8 km/h
2310 06-01-2014 20:55:00 9.9 C 8.78 g/m*3 9.9 C 4.8 km/h
2311 06-01-2014 21:00:00 9.9 C 8.78 g/m*3 9.9 C 4.8 km/h
2312 06-01-2014 21:05:00 9.8 C 8.72 g/m*3 9.8 C 1.6 km/h
2313 06-01-2014 21:10:00 9.8 C 8.72 g/m*3 9.8 C 3.2 km/h
2314 06-01-2014 21:15:00 9.8 C 8.72 g/m*3 9.8 C 1.6 km/h
2315 06-01-2014 21:20:00 9.8 C 8.81 g/m*3 9.8 C 3.2 km/h
2316 06-01-2014 21:25:00 9.7 C 8.76 g/m*3 9.7 C 3.2 km/h
2317 06-01-2014 21:30:00 9.7 C 8.76 g/m*3 9.02 C 6.4 km/h
2318 06-01-2014 21:35:00 9.7 C 8.85 g/m*3 9.7 C 1.6 km/h
2319 06-01-2014 21:40:00 9.6 C 8.79 g/m*3 9.6 C 1.6 km/h
2320 06-01-2014 21:45:00 9.6 C 8.79 g/m*3 9.6 C 3.2 km/h
2321 06-01-2014 21:50:00 9.7 C 8.85 g/m*3 9.02 C 6.4 km/h
2322 06-01-2014 21:55:00 9.8 C 8.81 g/m*3 9.8 C 3.2 km/h
2323 06-01-2014 22:00:00 9.7 C 8.76 g/m*3 9.7 C 1.6 km/h
2324 06-01-2014 22:05:00 9.7 C 8.76 g/m*3 9.7 C 3.2 km/h
2325 06-01-2014 22:10:00 9.6 C 8.7 g/m*3 9.6 C 3.2 km/h
Sensor: Nr:Datum:Temp:Abs-Feuchte:Windchill:Wind:
Aussen-T/F 2326 06-01-2014 22:15:00 9.7 C 8.76 g/m*3 9.7 C 4.8 km/h
2327 06-01-2014 22:20:00 9.7 C 8.76 g/m*3 9.7 C 3.2 km/h
2328 06-01-2014 22:25:00 9.7 C 8.76 g/m*3 9.7 C 3.2 km/h
2329 06-01-2014 22:30:00 9.7 C 8.76 g/m*3 9.7 C 1.6 km/h
2330 06-01-2014 22:35:00 9.7 C 8.76 g/m*3 9.7 C 3.2 km/h
2331 06-01-2014 22:40:00 9.6 C 8.61 g/m*3 9.6 C 3.2 km/h
2332 06-01-2014 22:45:00 9.6 C 8.61 g/m*3 9.6 C 1.6 km/h
2333 06-01-2014 22:50:00 9.4 C 8.5 g/m*3 9.4 C 0 km/h
2334 06-01-2014 22:55:00 9.3 C 8.45 g/m*3 9.3 C 3.2 km/h
2335 06-01-2014 23:00:00 9.3 C 8.54 g/m*3 7.85 C 9.7 km/h
2336 06-01-2014 23:05:00 9.4 C 8.5 g/m*3 8.68 C 6.4 km/h
2337 06-01-2014 23:10:00 9.5 C 8.56 g/m*3 8.09 C 9.7 km/h
2338 06-01-2014 23:15:00 9.5 C 8.56 g/m*3 8.09 C 9.7 km/h
2339 06-01-2014 23:20:00 9.6 C 8.61 g/m*3 8.21 C 9.7 km/h
2340 06-01-2014 23:25:00 9.6 C 8.61 g/m*3 8.91 C 6.4 km/h
2341 06-01-2014 23:30:00 9.6 C 8.61 g/m*3 9.6 C 3.2 km/h
2342 06-01-2014 23:35:00 9.6 C 8.61 g/m*3 9.6 C 4.8 km/h
2343 06-01-2014 23:40:00 9.7 C 8.76 g/m*3 9.7 C 3.2 km/h
2344 06-01-2014 23:45:00 9.7 C 8.76 g/m*3 8.33 C 9.7 km/h
2345 06-01-2014 23:50:00 9.9 C 8.87 g/m*3 8.56 C 9.7 km/h
2346 06-01-2014 23:55:00 9.9 C 8.87 g/m*3 9.25 C 6.4 km/h
2347 07-01-2014 00:00:00 10.1 C 8.89 g/m*3 9.1 C 8.1 km/h
2348 07-01-2014 00:05:00 10.2 C 8.95 g/m*3 8.66 C 11.3 km/h
2349 07-01-2014 00:10:00 10.3 C 9 g/m*3 9.04 C 9.7 km/h
2350 07-01-2014 00:15:00 10.5 C 9.02 g/m*3 9.02 C 11.3 km/h
Sensor: Nr:Datum:Temp:Abs-Feuchte:Windchill:Wind:
Aussen-T/F 2351 07-01-2014 00:20:00 10.7 C 9.13 g/m*3 8.65 C 16.1 km/h
2352 07-01-2014 00:25:00 10.9 C 9.15 g/m*3 8.9 C 16.1 km/h
2353 07-01-2014 00:30:00 10.9 C 9.15 g/m*3 9.76 C 9.7 km/h
2354 07-01-2014 00:35:00 11.1 C 9.17 g/m*3 11.1 C 12.9 km/h
2355 07-01-2014 00:40:00 11.2 C 9.12 g/m*3 11.2 C 24.1 km/h
2356 07-01-2014 00:45:00 11.2 C 9.12 g/m*3 11.2 C 24.1 km/h
2357 07-01-2014 00:50:00 11.1 C 8.96 g/m*3 11.1 C 29 km/h
2358 07-01-2014 00:55:00 11 C 8.81 g/m*3 8.3 C 24.1 km/h
2359 07-01-2014 01:00:00 10.9 C 8.65 g/m*3 9.51 C 11.3 km/h
2360 07-01-2014 01:05:00 11 C 8.71 g/m*3 9.63 C 11.3 km/h
2361 07-01-2014 01:10:00 11 C 8.61 g/m*3 9.4 C 12.9 km/h
2362 07-01-2014 01:15:00 11 C 8.71 g/m*3 8.56 C 20.9 km/h
2363 07-01-2014 01:20:00 10.8 C 8.6 g/m*3 9.93 C 8.1 km/h
2364 07-01-2014 01:25:00 10.6 C 8.59 g/m*3 9.4 C 9.7 km/h
2365 07-01-2014 01:30:00 10.6 C 8.69 g/m*3 9.4 C 9.7 km/h
2366 07-01-2014 01:35:00 10.6 C 8.69 g/m*3 9.4 C 9.7 km/h
2367 07-01-2014 01:40:00 10.7 C 8.74 g/m*3 9.52 C 9.7 km/h
2368 07-01-2014 01:45:00 10.6 C 8.78 g/m*3 10.06 C 6.4 km/h
2369 07-01-2014 01:50:00 10.5 C 8.73 g/m*3 9.95 C 6.4 km/h
2370 07-01-2014 01:55:00 10.2 C 8.66 g/m*3 10.2 C 3.2 km/h
2371 07-01-2014 02:00:00 10.1 C 8.7 g/m*3 9.48 C 6.4 km/h
2372 07-01-2014 02:05:00 10 C 8.74 g/m*3 10 C 4.8 km/h
2373 07-01-2014 02:10:00 10.1 C 8.79 g/m*3 8.8 C 9.7 km/h
2374 07-01-2014 02:15:00 10.2 C 8.76 g/m*3 10.2 C 4.8 km/h
2375 07-01-2014 02:20:00 10.3 C 8.81 g/m*3 9.34 C 8.1 km/h
Sensor: Nr:Datum:Temp:Abs-Feuchte:Windchill:Wind:
Aussen-T/F 2376 07-01-2014 02:25:00 10.5 C 8.83 g/m*3 9.02 C 11.3 km/h
2377 07-01-2014 02:30:00 10.6 C 8.78 g/m*3 8.92 C 12.9 km/h
2378 07-01-2014 02:35:00 10.6 C 8.78 g/m*3 10.06 C 6.4 km/h
2379 07-01-2014 02:40:00 10.4 C 8.77 g/m*3 9.46 C 8.1 km/h
2380 07-01-2014 02:45:00 10.4 C 8.67 g/m*3 9.16 C 9.7 km/h
2381 07-01-2014 02:50:00 10.4 C 8.67 g/m*3 9.83 C 6.4 km/h
2382 07-01-2014 02:55:00 10.3 C 8.62 g/m*3 9.34 C 8.1 km/h
2383 07-01-2014 03:00:00 10.1 C 8.51 g/m*3 8.54 C 11.3 km/h
2384 07-01-2014 03:05:00 10.2 C 8.56 g/m*3 9.6 C 6.4 km/h
2385 07-01-2014 03:10:00 9.9 C 8.5 g/m*3 9.9 C 3.2 km/h
2386 07-01-2014 03:15:00 9.7 C 8.48 g/m*3 9.7 C 4.8 km/h
2387 07-01-2014 03:20:00 9.8 C 8.44 g/m*3 9.8 C 4.8 km/h
2388 07-01-2014 03:25:00 9.9 C 8.5 g/m*3 9.9 C 4.8 km/h
2389 07-01-2014 03:30:00 10 C 8.55 g/m*3 9.37 C 6.4 km/h
2390 07-01-2014 03:35:00 10 C 8.46 g/m*3 10 C 4.8 km/h
2391 07-01-2014 03:40:00 10.1 C 8.51 g/m*3 9.48 C 6.4 km/h
2392 07-01-2014 03:45:00 9.8 C 8.35 g/m*3 9.8 C 4.8 km/h
2393 07-01-2014 03:50:00 9.7 C 8.39 g/m*3 9.02 C 6.4 km/h
2394 07-01-2014 03:55:00 9.8 C 8.44 g/m*3 9.8 C 4.8 km/h
2395 07-01-2014 04:00:00 9.6 C 8.43 g/m*3 9.6 C 1.6 km/h
2396 07-01-2014 04:05:00 9.4 C 8.32 g/m*3 9.4 C 4.8 km/h
2397 07-01-2014 04:10:00 9.3 C 8.36 g/m*3 9.3 C 3.2 km/h
2398 07-01-2014 04:15:00 9.2 C 8.3 g/m*3 9.2 C 3.2 km/h
2399 07-01-2014 04:20:00 8.9 C 8.15 g/m*3 8.9 C 3.2 km/h
2400 07-01-2014 04:25:00 8.9 C 8.23 g/m*3 8.9 C 3.2 km/h
Sensor: Nr:Datum:Temp:Abs-Feuchte:Windchill:Wind:
Aussen-T/F 2401 07-01-2014 04:30:00 8.8 C 8.18 g/m*3 8.8 C 4.8 km/h
2402 07-01-2014 04:35:00 9.1 C 8.43 g/m*3 9.1 C 4.8 km/h
2403 07-01-2014 04:40:00 9.3 C 8.45 g/m*3 8.16 C 8.1 km/h
2404 07-01-2014 04:45:00 9.5 C 8.47 g/m*3 9.5 C 3.2 km/h
2405 07-01-2014 04:50:00 9.6 C 8.52 g/m*3 9.6 C 1.6 km/h
2406 07-01-2014 04:55:00 9.8 C 8.44 g/m*3 9.8 C 3.2 km/h
2407 07-01-2014 05:00:00 10 C 8.46 g/m*3 9.37 C 6.4 km/h
2408 07-01-2014 05:05:00 10.2 C 8.47 g/m*3 9.6 C 6.4 km/h
2409 07-01-2014 05:10:00 10.2 C 8.37 g/m*3 10.2 C 3.2 km/h
2410 07-01-2014 05:15:00 10.2 C 8.37 g/m*3 9.6 C 6.4 km/h
2411 07-01-2014 05:20:00 10.3 C 8.33 g/m*3 9.34 C 8.1 km/h
2412 07-01-2014 05:25:00 10.4 C 8.29 g/m*3 10.4 C 3.2 km/h
2413 07-01-2014 05:30:00 10.3 C 8.24 g/m*3 9.72 C 6.4 km/h
2414 07-01-2014 05:35:00 10.4 C 8.1 g/m*3 8.47 C 14.5 km/h
2415 07-01-2014 05:40:00 10.5 C 8.15 g/m*3 9.28 C 9.7 km/h
2416 07-01-2014 05:45:00 10.5 C 8.05 g/m*3 9.02 C 11.3 km/h
2417 07-01-2014 05:50:00 10.4 C 8.1 g/m*3 10.4 C 4.8 km/h
2418 07-01-2014 05:55:00 10.3 C 8.04 g/m*3 8.78 C 11.3 km/h
2419 07-01-2014 06:00:00 10.3 C 8.04 g/m*3 8.78 C 11.3 km/h
2420 07-01-2014 06:05:00 10.3 C 8.14 g/m*3 10.3 C 1.6 km/h
2421 07-01-2014 06:10:00 10.1 C 8.23 g/m*3 10.1 C 3.2 km/h
2422 07-01-2014 06:15:00 10.1 C 8.13 g/m*3 9.48 C 6.4 km/h
2423 07-01-2014 06:20:00 10.2 C 8.09 g/m*3 8.92 C 9.7 km/h
2424 07-01-2014 06:25:00 10.4 C 8 g/m*3 9.83 C 6.4 km/h
2425 07-01-2014 06:30:00 10.5 C 8.05 g/m*3 8.8 C 12.9 km/h
Sensor: Nr:Datum:Temp:Abs-Feuchte:Windchill:Wind:
Aussen-T/F 2426 07-01-2014 06:35:00 10.4 C 8.1 g/m*3 10.4 C 1.6 km/h
2427 07-01-2014 06:40:00 10.3 C 8.04 g/m*3 10.3 C 1.6 km/h
2428 07-01-2014 06:45:00 10.3 C 8.04 g/m*3 10.3 C 4.8 km/h
2429 07-01-2014 06:50:00 10.4 C 8 g/m*3 10.4 C 4.8 km/h
2430 07-01-2014 06:55:00 10.5 C 7.95 g/m*3 9.57 C 8.1 km/h
2431 07-01-2014 07:00:00 10.4 C 8 g/m*3 10.4 C 4.8 km/h
2432 07-01-2014 07:05:00 10.1 C 7.94 g/m*3 10.1 C 3.2 km/h
2433 07-01-2014 07:10:00 9.6 C 7.88 g/m*3 9.6 C 4.8 km/h
2434 07-01-2014 07:15:00 9.4 C 7.87 g/m*3 8.68 C 6.4 km/h
2435 07-01-2014 07:20:00 9.3 C 7.91 g/m*3 9.3 C 4.8 km/h
2436 07-01-2014 07:25:00 9.4 C 7.96 g/m*3 9.4 C 4.8 km/h
2437 07-01-2014 07:30:00 9.4 C 7.87 g/m*3 9.4 C 4.8 km/h
2438 07-01-2014 07:35:00 9.5 C 7.92 g/m*3 8.79 C 6.4 km/h
2439 07-01-2014 07:40:00 9.6 C 7.97 g/m*3 8.91 C 6.4 km/h
2440 07-01-2014 07:45:00 9.6 C 7.97 g/m*3 9.6 C 3.2 km/h
2441 07-01-2014 07:50:00 9.7 C 7.84 g/m*3 9.7 C 4.8 km/h
2442 07-01-2014 07:55:00 9.7 C 7.84 g/m*3 9.7 C 3.2 km/h
2443 07-01-2014 08:00:00 9.6 C 7.88 g/m*3 8.52 C 8.1 km/h
2444 07-01-2014 08:05:00 9.4 C 7.78 g/m*3 9.4 C 4.8 km/h
2445 07-01-2014 08:10:00 9.3 C 7.73 g/m*3 9.3 C 4.8 km/h
2446 07-01-2014 08:15:00 9.6 C 7.79 g/m*3 8.52 C 8.1 km/h
2447 07-01-2014 08:20:00 9.6 C 7.88 g/m*3 9.6 C 4.8 km/h
2448 07-01-2014 08:25:00 9.6 C 7.97 g/m*3 9.6 C 4.8 km/h
2449 07-01-2014 08:30:00 9.4 C 7.96 g/m*3 9.4 C 3.2 km/h
2450 07-01-2014 08:35:00 9.4 C 7.87 g/m*3 9.4 C 3.2 km/h
Sensor: Nr:Datum:Temp:Abs-Feuchte:Windchill:Wind:
Aussen-T/F 2451 07-01-2014 08:40:00 9.7 C 7.93 g/m*3 9.02 C 6.4 km/h
2452 07-01-2014 08:45:00 9.9 C 7.94 g/m*3 9.9 C 4.8 km/h
2453 07-01-2014 08:50:00 10.2 C 7.9 g/m*3 10.2 C 4.8 km/h
2454 07-01-2014 08:55:00 10.3 C 7.85 g/m*3 9.72 C 6.4 km/h
2455 07-01-2014 09:00:00 10.4 C 7.9 g/m*3 9.46 C 8.1 km/h
2456 07-01-2014 09:05:00 10.5 C 7.86 g/m*3 9.02 C 11.3 km/h
2457 07-01-2014 09:10:00 10.7 C 7.86 g/m*3 8.84 C 14.5 km/h
2458 07-01-2014 09:15:00 10.8 C 7.91 g/m*3 10.29 C 6.4 km/h
2459 07-01-2014 09:20:00 10.7 C 7.96 g/m*3 9.81 C 8.1 km/h
2460 07-01-2014 09:25:00 10.6 C 7.81 g/m*3 9.4 C 9.7 km/h
2461 07-01-2014 09:30:00 10.7 C 7.86 g/m*3 9.26 C 11.3 km/h
2462 07-01-2014 09:35:00 10.7 C 7.96 g/m*3 10.18 C 6.4 km/h
2463 07-01-2014 09:40:00 10.7 C 7.96 g/m*3 10.18 C 6.4 km/h
2464 07-01-2014 09:45:00 10.8 C 8.01 g/m*3 10.29 C 6.4 km/h
2465 07-01-2014 09:50:00 10.8 C 7.91 g/m*3 9.64 C 9.7 km/h
2466 07-01-2014 09:55:00 10.9 C 7.96 g/m*3 10.04 C 8.1 km/h
2467 07-01-2014 10:00:00 11 C 8.11 g/m*3 10.16 C 8.1 km/h
2468 07-01-2014 10:05:00 11.1 C 8.06 g/m*3 11.1 C 4.8 km/h
2469 07-01-2014 10:10:00 11.1 C 8.06 g/m*3 11.1 C 12.9 km/h
2470 07-01-2014 10:15:00 11.1 C 8.16 g/m*3 11.1 C 4.8 km/h
2471 07-01-2014 10:20:00 11.1 C 8.06 g/m*3 11.1 C 11.3 km/h
2472 07-01-2014 10:25:00 11.3 C 8.06 g/m*3 11.3 C 20.9 km/h
2473 07-01-2014 10:30:00 11.4 C 8.01 g/m*3 11.4 C 17.7 km/h
2474 07-01-2014 10:35:00 11.6 C 8.11 g/m*3 11.6 C 6.4 km/h
2475 07-01-2014 10:40:00 11.6 C 8.11 g/m*3 11.6 C 12.9 km/h
Sensor: Nr:Datum:Temp:Abs-Feuchte:Windchill:Wind:
Aussen-T/F 2476 07-01-2014 10:45:00 11.7 C 8.26 g/m*3 11.7 C 11.3 km/h
2477 07-01-2014 10:50:00 11.6 C 8.21 g/m*3 11.6 C 6.4 km/h
2478 07-01-2014 10:55:00 11.7 C 8.26 g/m*3 11.7 C 8.1 km/h
2479 07-01-2014 11:00:00 11.7 C 8.16 g/m*3 11.7 C 14.5 km/h
2480 07-01-2014 11:05:00 11.7 C 8.16 g/m*3 11.7 C 11.3 km/h
2481 07-01-2014 11:10:00 11.7 C 8.16 g/m*3 11.7 C 4.8 km/h
2482 07-01-2014 11:15:00 11.7 C 8.16 g/m*3 11.7 C 11.3 km/h
2483 07-01-2014 11:20:00 11.7 C 8.26 g/m*3 11.7 C 3.2 km/h
2484 07-01-2014 11:25:00 11.8 C 8.31 g/m*3 11.8 C 12.9 km/h
2485 07-01-2014 11:30:00 11.8 C 8.31 g/m*3 11.8 C 8.1 km/h
2486 07-01-2014 11:35:00 11.9 C 8.37 g/m*3 11.9 C 6.4 km/h
2487 07-01-2014 11:40:00 11.9 C 8.26 g/m*3 11.9 C 6.4 km/h
2488 07-01-2014 11:45:00 12 C 8.31 g/m*3 12 C 11.3 km/h
2489 07-01-2014 11:50:00 12 C 8.21 g/m*3 12 C 11.3 km/h
2490 07-01-2014 11:55:00 11.9 C 8.26 g/m*3 11.9 C 1.6 km/h
2491 07-01-2014 12:00:00 11.9 C 8.26 g/m*3 11.9 C 8.1 km/h
2492 07-01-2014 12:05:00 11.9 C 8.15 g/m*3 11.9 C 8.1 km/h
2493 07-01-2014 12:10:00 11.9 C 8.26 g/m*3 11.9 C 9.7 km/h
2494 07-01-2014 12:15:00 11.9 C 8.26 g/m*3 11.9 C 9.7 km/h
2495 07-01-2014 12:20:00 11.9 C 8.37 g/m*3 11.9 C 6.4 km/h
2496 07-01-2014 12:25:00 11.9 C 8.26 g/m*3 11.9 C 9.7 km/h
2497 07-01-2014 12:30:00 11.9 C 8.47 g/m*3 11.9 C 6.4 km/h
2498 07-01-2014 12:35:00 11.8 C 8.31 g/m*3 11.8 C 4.8 km/h
2499 07-01-2014 12:40:00 11.8 C 8.53 g/m*3 11.8 C 4.8 km/h
2500 07-01-2014 12:45:00 11.8 C 8.53 g/m*3 11.8 C 6.4 km/h
Sensor: Nr:Datum:Temp:Abs-Feuchte:Windchill:Wind:
Aussen-T/F 2501 07-01-2014 12:50:00 11.7 C 8.47 g/m*3 11.7 C 4.8 km/h
2502 07-01-2014 12:55:00 11.7 C 8.79 g/m*3 11.7 C 3.2 km/h
2503 07-01-2014 13:00:00 11.5 C 8.57 g/m*3 11.5 C 1.6 km/h
2504 07-01-2014 13:05:00 11.4 C 8.62 g/m*3 11.4 C 1.6 km/h
2505 07-01-2014 13:10:00 11.5 C 8.68 g/m*3 11.5 C 3.2 km/h
2506 07-01-2014 13:15:00 11.6 C 8.52 g/m*3 11.6 C 1.6 km/h
2507 07-01-2014 13:20:00 11.6 C 8.63 g/m*3 11.6 C 4.8 km/h
2508 07-01-2014 13:25:00 11.7 C 8.79 g/m*3 11.7 C 8.1 km/h
2509 07-01-2014 13:30:00 11.6 C 8.83 g/m*3 11.6 C 1.6 km/h
2510 07-01-2014 13:35:00 11.4 C 8.62 g/m*3 11.4 C 4.8 km/h
2511 07-01-2014 13:40:00 11.4 C 8.52 g/m*3 11.4 C 1.6 km/h
2512 07-01-2014 13:45:00 11.5 C 8.57 g/m*3 11.5 C 1.6 km/h
2513 07-01-2014 13:50:00 11.7 C 8.79 g/m*3 11.7 C 3.2 km/h
2514 07-01-2014 13:55:00 11.7 C 8.79 g/m*3 11.7 C 6.4 km/h
2515 07-01-2014 14:00:00 11.7 C 8.79 g/m*3 11.7 C 4.8 km/h
2516 07-01-2014 14:05:00 11.9 C 8.9 g/m*3 11.9 C 6.4 km/h
2517 07-01-2014 14:10:00 12.3 C 8.36 g/m*3 12.3 C 9.7 km/h
2518 07-01-2014 14:15:00 12.7 C 8.46 g/m*3 12.7 C 6.4 km/h
2519 07-01-2014 14:20:00 12.9 C 8.23 g/m*3 12.9 C 6.4 km/h
2520 07-01-2014 14:25:00 13.3 C 8.66 g/m*3 13.3 C 8.1 km/h
2521 07-01-2014 14:30:00 13.4 C 8.14 g/m*3 13.4 C 8.1 km/h
2522 07-01-2014 14:35:00 13.4 C 8.02 g/m*3 13.4 C 4.8 km/h
2523 07-01-2014 14:40:00 13.6 C 8.12 g/m*3 13.6 C 6.4 km/h
2524 07-01-2014 14:45:00 13.6 C 8.24 g/m*3 13.6 C 11.3 km/h
2525 07-01-2014 14:50:00 13.3 C 8.66 g/m*3 13.3 C 3.2 km/h
Sensor: Nr:Datum:Temp:Abs-Feuchte:Windchill:Wind:
Aussen-T/F 2526 07-01-2014 14:55:00 13.1 C 7.87 g/m*3 13.1 C 8.1 km/h
2527 07-01-2014 15:00:00 13.2 C 7.81 g/m*3 13.2 C 9.7 km/h
2528 07-01-2014 15:05:00 13.2 C 8.15 g/m*3 13.2 C 6.4 km/h
2529 07-01-2014 15:10:00 13.1 C 8.33 g/m*3 13.1 C 6.4 km/h
2530 07-01-2014 15:15:00 13.1 C 8.1 g/m*3 13.1 C 6.4 km/h
2531 07-01-2014 15:20:00 13.1 C 8.33 g/m*3 13.1 C 4.8 km/h
2532 07-01-2014 15:25:00 13.1 C 7.99 g/m*3 13.1 C 8.1 km/h
2533 07-01-2014 15:30:00 13.3 C 7.97 g/m*3 13.3 C 9.7 km/h
2534 07-01-2014 15:35:00 13.4 C 7.9 g/m*3 13.4 C 11.3 km/h
2535 07-01-2014 15:40:00 13.6 C 8.36 g/m*3 13.6 C 3.2 km/h
2536 07-01-2014 15:45:00 13.4 C 8.14 g/m*3 13.4 C 4.8 km/h
2537 07-01-2014 15:50:00 13.3 C 8.2 g/m*3 13.3 C 4.8 km/h
2538 07-01-2014 15:55:00 13.2 C 8.04 g/m*3 13.2 C 4.8 km/h
2539 07-01-2014 16:00:00 13.2 C 8.61 g/m*3 13.2 C 4.8 km/h
2540 07-01-2014 16:05:00 12.9 C 8.11 g/m*3 12.9 C 1.6 km/h
2541 07-01-2014 16:10:00 12.9 C 8.11 g/m*3 12.9 C 1.6 km/h
2542 07-01-2014 16:15:00 12.8 C 8.06 g/m*3 12.8 C 3.2 km/h
2543 07-01-2014 16:20:00 12.6 C 8.63 g/m*3 12.6 C 4.8 km/h
2544 07-01-2014 16:25:00 12.1 C 8.58 g/m*3 12.1 C 3.2 km/h
2545 07-01-2014 16:30:00 11.6 C 8.42 g/m*3 11.6 C 1.6 km/h
2546 07-01-2014 16:35:00 11.2 C 8.21 g/m*3 11.2 C 3.2 km/h
2547 07-01-2014 16:40:00 10.9 C 8.16 g/m*3 10.9 C 3.2 km/h
2548 07-01-2014 16:45:00 10.8 C 8.3 g/m*3 10.8 C 3.2 km/h
2549 07-01-2014 16:50:00 10.7 C 8.35 g/m*3 10.7 C 1.6 km/h
2550 07-01-2014 16:55:00 10.6 C 8.3 g/m*3 10.6 C 4.8 km/h
Sensor: Nr:Datum:Temp:Abs-Feuchte:Windchill:Wind:
Aussen-T/F 2551 07-01-2014 17:00:00 10.6 C 8.39 g/m*3 10.6 C 3.2 km/h
2552 07-01-2014 17:05:00 10.6 C 8.49 g/m*3 10.6 C 0 km/h
2553 07-01-2014 17:10:00 10.6 C 8.39 g/m*3 10.6 C 3.2 km/h
2554 07-01-2014 17:15:00 10.6 C 8.39 g/m*3 10.6 C 3.2 km/h
2555 07-01-2014 17:20:00 10.7 C 8.15 g/m*3 10.7 C 1.6 km/h
2556 07-01-2014 17:25:00 10.8 C 8.4 g/m*3 10.8 C 1.6 km/h
2557 07-01-2014 17:30:00 10.7 C 8.45 g/m*3 10.7 C 0 km/h
2558 07-01-2014 17:35:00 10.6 C 8.39 g/m*3 10.6 C 0 km/h
2559 07-01-2014 17:40:00 10.6 C 8.39 g/m*3 10.6 C 3.2 km/h
2560 07-01-2014 17:45:00 10.6 C 8.39 g/m*3 10.6 C 1.6 km/h
2561 07-01-2014 17:50:00 10.6 C 8.39 g/m*3 10.6 C 3.2 km/h
2562 07-01-2014 17:55:00 10.6 C 8.39 g/m*3 10.6 C 3.2 km/h
2563 07-01-2014 18:00:00 10.6 C 8.39 g/m*3 10.6 C 3.2 km/h
2564 07-01-2014 18:05:00 10.4 C 8.29 g/m*3 10.4 C 4.8 km/h
2565 07-01-2014 18:10:00 10.3 C 8.24 g/m*3 10.3 C 1.6 km/h
2566 07-01-2014 18:15:00 10.2 C 8.28 g/m*3 10.2 C 3.2 km/h
2567 07-01-2014 18:20:00 10.2 C 8.28 g/m*3 10.2 C 3.2 km/h
2568 07-01-2014 18:25:00 10.1 C 8.32 g/m*3 10.1 C 1.6 km/h
2569 07-01-2014 18:30:00 10.1 C 8.42 g/m*3 10.1 C 3.2 km/h
2570 07-01-2014 18:35:00 10.1 C 8.42 g/m*3 10.1 C 3.2 km/h
2571 07-01-2014 18:40:00 10.1 C 8.32 g/m*3 10.1 C 3.2 km/h
2572 07-01-2014 18:45:00 10.2 C 8.37 g/m*3 10.2 C 4.8 km/h
2573 07-01-2014 18:50:00 10.3 C 8.43 g/m*3 10.3 C 3.2 km/h
2574 07-01-2014 18:55:00 10.4 C 8.48 g/m*3 10.4 C 1.6 km/h
2575 07-01-2014 19:00:00 10.5 C 8.53 g/m*3 10.5 C 3.2 km/h
Sensor: Nr:Datum:Temp:Abs-Feuchte:Windchill:Wind:
Aussen-T/F 2576 07-01-2014 19:05:00 10.5 C 8.53 g/m*3 10.5 C 3.2 km/h
2577 07-01-2014 19:10:00 10.4 C 8.58 g/m*3 10.4 C 0 km/h
2578 07-01-2014 19:15:00 10.4 C 8.58 g/m*3 10.4 C 0 km/h
2579 07-01-2014 19:20:00 10.4 C 8.48 g/m*3 10.4 C 1.6 km/h
2580 07-01-2014 19:25:00 10.5 C 8.63 g/m*3 10.5 C 1.6 km/h
2581 07-01-2014 19:30:00 10.4 C 8.67 g/m*3 10.4 C 4.8 km/h
2582 07-01-2014 19:35:00 10.4 C 8.67 g/m*3 10.4 C 1.6 km/h
2583 07-01-2014 19:40:00 10.4 C 8.77 g/m*3 10.4 C 3.2 km/h
2584 07-01-2014 19:45:00 10.3 C 8.81 g/m*3 10.3 C 1.6 km/h
2585 07-01-2014 19:50:00 10.3 C 8.81 g/m*3 10.3 C 3.2 km/h
2586 07-01-2014 19:55:00 10.3 C 8.81 g/m*3 10.3 C 1.6 km/h
2587 07-01-2014 20:00:00 10.3 C 8.91 g/m*3 10.3 C 3.2 km/h
2588 07-01-2014 20:05:00 10.2 C 8.85 g/m*3 10.2 C 1.6 km/h
2589 07-01-2014 20:10:00 10 C 8.74 g/m*3 10 C 0 km/h
2590 07-01-2014 20:15:00 9.9 C 8.68 g/m*3 9.9 C 3.2 km/h
2591 07-01-2014 20:20:00 9.7 C 8.57 g/m*3 9.7 C 1.6 km/h
2592 07-01-2014 20:25:00 9.6 C 8.52 g/m*3 9.6 C 3.2 km/h
2593 07-01-2014 20:30:00 9.5 C 8.56 g/m*3 9.5 C 0 km/h
2594 07-01-2014 20:35:00 9.4 C 8.5 g/m*3 9.4 C 1.6 km/h
2595 07-01-2014 20:40:00 9.3 C 8.45 g/m*3 9.3 C 3.2 km/h
2596 07-01-2014 20:45:00 9.2 C 8.39 g/m*3 9.2 C 1.6 km/h
2597 07-01-2014 20:50:00 9.2 C 8.48 g/m*3 9.2 C 3.2 km/h
2598 07-01-2014 20:55:00 9.3 C 8.54 g/m*3 9.3 C 0 km/h
2599 07-01-2014 21:00:00 9.4 C 8.59 g/m*3 9.4 C 1.6 km/h
2600 07-01-2014 21:05:00 9.6 C 8.7 g/m*3 9.6 C 3.2 km/h
Sensor: Nr:Datum:Temp:Abs-Feuchte:Windchill:Wind:
Aussen-T/F 2601 07-01-2014 21:10:00 9.6 C 8.7 g/m*3 8.91 C 6.4 km/h
2602 07-01-2014 21:15:00 9.7 C 8.76 g/m*3 9.7 C 1.6 km/h
2603 07-01-2014 21:20:00 9.7 C 8.76 g/m*3 9.7 C 3.2 km/h
2604 07-01-2014 21:25:00 9.8 C 8.81 g/m*3 9.8 C 1.6 km/h
2605 07-01-2014 21:30:00 9.8 C 8.81 g/m*3 9.8 C 0 km/h
2606 07-01-2014 21:35:00 9.8 C 8.72 g/m*3 9.8 C 1.6 km/h
2607 07-01-2014 21:40:00 9.9 C 8.87 g/m*3 9.9 C 3.2 km/h
2608 07-01-2014 21:45:00 10 C 8.83 g/m*3 10 C 3.2 km/h
2609 07-01-2014 21:50:00 10.1 C 8.89 g/m*3 10.1 C 3.2 km/h
2610 07-01-2014 21:55:00 10.1 C 8.89 g/m*3 10.1 C 3.2 km/h
2611 07-01-2014 22:00:00 10.1 C 8.79 g/m*3 10.1 C 3.2 km/h
2612 07-01-2014 22:05:00 10.2 C 8.85 g/m*3 10.2 C 4.8 km/h
2613 07-01-2014 22:10:00 10.2 C 8.76 g/m*3 10.2 C 1.6 km/h
2614 07-01-2014 22:15:00 10.1 C 8.7 g/m*3 10.1 C 0 km/h
2615 07-01-2014 22:20:00 10 C 8.74 g/m*3 10 C 1.6 km/h
2616 07-01-2014 22:25:00 10 C 8.74 g/m*3 10 C 0 km/h
2617 07-01-2014 22:30:00 10 C 8.74 g/m*3 10 C 0 km/h
2618 07-01-2014 22:35:00 10.1 C 8.89 g/m*3 10.1 C 3.2 km/h
2619 07-01-2014 22:40:00 10.2 C 8.85 g/m*3 10.2 C 3.2 km/h
2620 07-01-2014 22:45:00 10.2 C 8.85 g/m*3 10.2 C 3.2 km/h
2621 07-01-2014 22:50:00 10.3 C 8.91 g/m*3 10.3 C 3.2 km/h
2622 07-01-2014 22:55:00 10.3 C 8.81 g/m*3 10.3 C 3.2 km/h
2623 07-01-2014 23:00:00 10.3 C 8.81 g/m*3 10.3 C 3.2 km/h
2624 07-01-2014 23:05:00 10.2 C 8.76 g/m*3 10.2 C 3.2 km/h
2625 07-01-2014 23:10:00 10.2 C 8.85 g/m*3 10.2 C 3.2 km/h
Sensor: Nr:Datum:Temp:Abs-Feuchte:Windchill:Wind:
Aussen-T/F 2626 07-01-2014 23:15:00 10.2 C 8.85 g/m*3 10.2 C 1.6 km/h
2627 07-01-2014 23:20:00 10.3 C 8.91 g/m*3 10.3 C 1.6 km/h
2628 07-01-2014 23:25:00 10.3 C 8.91 g/m*3 10.3 C 3.2 km/h
2629 07-01-2014 23:30:00 10.3 C 8.91 g/m*3 10.3 C 3.2 km/h
2630 07-01-2014 23:35:00 10.3 C 8.91 g/m*3 10.3 C 1.6 km/h
2631 07-01-2014 23:40:00 10.4 C 8.96 g/m*3 10.4 C 3.2 km/h
2632 07-01-2014 23:45:00 10.6 C 9.08 g/m*3 10.6 C 3.2 km/h
2633 07-01-2014 23:50:00 10.8 C 9.09 g/m*3 10.8 C 4.8 km/h
2634 07-01-2014 23:55:00 11 C 9.01 g/m*3 11 C 3.2 km/h
2635 08-01-2014 00:00:00 11.1 C 9.07 g/m*3 11.1 C 1.6 km/h
2636 08-01-2014 00:05:00 11.3 C 9.08 g/m*3 11.3 C 6.4 km/h
2637 08-01-2014 00:10:00 11.3 C 9.08 g/m*3 11.3 C 12.9 km/h
2638 08-01-2014 00:15:00 11.4 C 9.14 g/m*3 11.4 C 4.8 km/h
2639 08-01-2014 00:20:00 11.5 C 9.09 g/m*3 11.5 C 3.2 km/h
2640 08-01-2014 00:25:00 11.4 C 9.03 g/m*3 11.4 C 4.8 km/h
2641 08-01-2014 00:30:00 11.2 C 9.02 g/m*3 11.2 C 1.6 km/h
2642 08-01-2014 00:35:00 11.1 C 9.07 g/m*3 11.1 C 6.4 km/h
2643 08-01-2014 00:40:00 11.3 C 9.08 g/m*3 11.3 C 4.8 km/h
2644 08-01-2014 00:45:00 11.3 C 9.08 g/m*3 11.3 C 6.4 km/h
2645 08-01-2014 00:50:00 11.3 C 8.98 g/m*3 11.3 C 8.1 km/h
2646 08-01-2014 00:55:00 11.4 C 9.03 g/m*3 11.4 C 4.8 km/h
2647 08-01-2014 01:00:00 11.3 C 8.98 g/m*3 11.3 C 3.2 km/h
2648 08-01-2014 01:05:00 11.2 C 8.92 g/m*3 11.2 C 6.4 km/h
2649 08-01-2014 01:10:00 10.9 C 8.85 g/m*3 10.9 C 1.6 km/h
2650 08-01-2014 01:15:00 10.9 C 8.95 g/m*3 9.28 C 12.9 km/h
Sensor: Nr:Datum:Temp:Abs-Feuchte:Windchill:Wind:
Aussen-T/F 2651 08-01-2014 01:20:00 11.3 C 9.08 g/m*3 11.3 C 8.1 km/h
2652 08-01-2014 01:25:00 11.6 C 9.04 g/m*3 11.6 C 9.7 km/h
2653 08-01-2014 01:30:00 11.9 C 9.11 g/m*3 11.9 C 16.1 km/h
2654 08-01-2014 01:35:00 12.1 C 9.22 g/m*3 12.1 C 9.7 km/h
2655 08-01-2014 01:40:00 11.9 C 9.11 g/m*3 11.9 C 4.8 km/h
2656 08-01-2014 01:45:00 11.8 C 9.16 g/m*3 11.8 C 1.6 km/h
2657 08-01-2014 01:50:00 11.7 C 9.1 g/m*3 11.7 C 8.1 km/h
2658 08-01-2014 01:55:00 11.7 C 9.2 g/m*3 11.7 C 6.4 km/h
2659 08-01-2014 02:00:00 11.7 C 9.2 g/m*3 11.7 C 1.6 km/h
2660 08-01-2014 02:05:00 11.7 C 9.2 g/m*3 11.7 C 4.8 km/h
2661 08-01-2014 02:10:00 11.8 C 9.16 g/m*3 11.8 C 12.9 km/h
2662 08-01-2014 02:15:00 11.9 C 9.21 g/m*3 11.9 C 3.2 km/h
2663 08-01-2014 02:20:00 11.8 C 9.05 g/m*3 11.8 C 4.8 km/h
2664 08-01-2014 02:25:00 11.6 C 9.15 g/m*3 11.6 C 8.1 km/h
2665 08-01-2014 02:30:00 11.6 C 9.15 g/m*3 11.6 C 6.4 km/h
2666 08-01-2014 02:35:00 11.4 C 9.03 g/m*3 11.4 C 6.4 km/h
2667 08-01-2014 02:40:00 11.3 C 8.98 g/m*3 11.3 C 4.8 km/h
2668 08-01-2014 02:45:00 11.2 C 8.92 g/m*3 11.2 C 4.8 km/h
2669 08-01-2014 02:50:00 11.2 C 9.02 g/m*3 11.2 C 3.2 km/h
2670 08-01-2014 02:55:00 11.1 C 8.96 g/m*3 11.1 C 3.2 km/h
2671 08-01-2014 03:00:00 10.9 C 8.95 g/m*3 10.9 C 3.2 km/h
2672 08-01-2014 03:05:00 10.9 C 8.95 g/m*3 10.9 C 1.6 km/h
2673 08-01-2014 03:10:00 10.8 C 8.9 g/m*3 10.29 C 6.4 km/h
2674 08-01-2014 03:15:00 10.9 C 9.05 g/m*3 10.41 C 6.4 km/h
2675 08-01-2014 03:20:00 11.3 C 9.08 g/m*3 11.3 C 8.1 km/h
Sensor: Nr:Datum:Temp:Abs-Feuchte:Windchill:Wind:
Aussen-T/F 2676 08-01-2014 03:25:00 11.3 C 9.08 g/m*3 11.3 C 1.6 km/h
2677 08-01-2014 03:30:00 11.1 C 8.96 g/m*3 11.1 C 4.8 km/h
2678 08-01-2014 03:35:00 11.2 C 9.12 g/m*3 11.2 C 8.1 km/h
2679 08-01-2014 03:40:00 11.3 C 9.18 g/m*3 11.3 C 3.2 km/h
2680 08-01-2014 03:45:00 11.3 C 9.18 g/m*3 11.3 C 1.6 km/h
2681 08-01-2014 03:50:00 11.1 C 9.17 g/m*3 11.1 C 3.2 km/h
2682 08-01-2014 03:55:00 10.9 C 9.05 g/m*3 10.9 C 3.2 km/h
2683 08-01-2014 04:00:00 10.9 C 9.15 g/m*3 10.9 C 3.2 km/h
2684 08-01-2014 04:05:00 10.9 C 9.15 g/m*3 10.9 C 0 km/h
2685 08-01-2014 04:10:00 10.8 C 9.09 g/m*3 10.8 C 1.6 km/h
2686 08-01-2014 04:15:00 10.8 C 9.19 g/m*3 10.8 C 4.8 km/h
2687 08-01-2014 04:20:00 10.9 C 9.15 g/m*3 10.9 C 4.8 km/h
2688 08-01-2014 04:25:00 10.9 C 9.05 g/m*3 10.04 C 8.1 km/h
2689 08-01-2014 04:30:00 10.9 C 9.05 g/m*3 10.9 C 4.8 km/h
2690 08-01-2014 04:35:00 10.9 C 9.05 g/m*3 10.9 C 1.6 km/h
2691 08-01-2014 04:40:00 10.8 C 8.99 g/m*3 10.8 C 3.2 km/h
2692 08-01-2014 04:45:00 10.8 C 9.09 g/m*3 10.8 C 1.6 km/h
2693 08-01-2014 04:50:00 10.7 C 9.04 g/m*3 10.7 C 1.6 km/h
2694 08-01-2014 04:55:00 10.8 C 9.09 g/m*3 10.8 C 4.8 km/h
2695 08-01-2014 05:00:00 10.9 C 9.15 g/m*3 10.41 C 6.4 km/h
2696 08-01-2014 05:05:00 11.1 C 9.17 g/m*3 11.1 C 9.7 km/h
2697 08-01-2014 05:10:00 11.2 C 9.12 g/m*3 11.2 C 3.2 km/h
2698 08-01-2014 05:15:00 11.3 C 9.18 g/m*3 11.3 C 6.4 km/h
2699 08-01-2014 05:20:00 11.3 C 9.08 g/m*3 11.3 C 12.9 km/h
2700 08-01-2014 05:25:00 11.4 C 9.14 g/m*3 11.4 C 8.1 km/h
Sensor: Nr:Datum:Temp:Abs-Feuchte:Windchill:Wind:
Aussen-T/F 2701 08-01-2014 05:30:00 11.5 C 9.09 g/m*3 11.5 C 8.1 km/h
2702 08-01-2014 05:35:00 11.6 C 9.04 g/m*3 11.6 C 6.4 km/h
2703 08-01-2014 05:40:00 11.8 C 9.16 g/m*3 11.8 C 12.9 km/h
2704 08-01-2014 05:45:00 11.9 C 9.11 g/m*3 11.9 C 11.3 km/h
2705 08-01-2014 05:50:00 12.1 C 9.12 g/m*3 12.1 C 24.1 km/h
2706 08-01-2014 05:55:00 12.1 C 9.12 g/m*3 12.1 C 11.3 km/h
2707 08-01-2014 06:00:00 12.2 C 9.06 g/m*3 12.2 C 27.4 km/h
2708 08-01-2014 06:05:00 12.3 C 9.12 g/m*3 12.3 C 16.1 km/h
2709 08-01-2014 06:10:00 12.2 C 9.06 g/m*3 12.2 C 12.9 km/h
2710 08-01-2014 06:15:00 12.2 C 9.17 g/m*3 12.2 C 9.7 km/h
2711 08-01-2014 06:20:00 12.2 C 9.06 g/m*3 12.2 C 12.9 km/h
2712 08-01-2014 06:25:00 12.1 C 9.01 g/m*3 12.1 C 12.9 km/h
2713 08-01-2014 06:30:00 12.1 C 9.01 g/m*3 12.1 C 11.3 km/h
2714 08-01-2014 06:35:00 12.1 C 9.01 g/m*3 12.1 C 12.9 km/h
2715 08-01-2014 06:40:00 12.2 C 8.96 g/m*3 12.2 C 12.9 km/h
2716 08-01-2014 06:45:00 12.2 C 8.96 g/m*3 12.2 C 12.9 km/h
2717 08-01-2014 06:50:00 12.2 C 8.96 g/m*3 12.2 C 6.4 km/h
2718 08-01-2014 06:55:00 12.1 C 8.9 g/m*3 12.1 C 14.5 km/h
2719 08-01-2014 07:00:00 12.1 C 8.9 g/m*3 12.1 C 11.3 km/h
2720 08-01-2014 07:05:00 12.1 C 8.9 g/m*3 12.1 C 9.7 km/h
2721 08-01-2014 07:10:00 12.1 C 8.9 g/m*3 12.1 C 9.7 km/h
2722 08-01-2014 07:15:00 12.1 C 8.9 g/m*3 12.1 C 12.9 km/h
2723 08-01-2014 07:20:00 12 C 8.85 g/m*3 12 C 12.9 km/h
2724 08-01-2014 07:25:00 11.9 C 8.79 g/m*3 11.9 C 8.1 km/h
2725 08-01-2014 07:30:00 11.9 C 8.79 g/m*3 11.9 C 11.3 km/h
Sensor: Nr:Datum:Temp:Abs-Feuchte:Windchill:Wind:
Aussen-T/F 2726 08-01-2014 07:35:00 11.8 C 8.74 g/m*3 11.8 C 9.7 km/h
2727 08-01-2014 07:40:00 11.8 C 8.74 g/m*3 11.8 C 12.9 km/h
2728 08-01-2014 07:45:00 11.9 C 8.79 g/m*3 11.9 C 11.3 km/h
2729 08-01-2014 07:50:00 11.9 C 8.79 g/m*3 11.9 C 9.7 km/h
2730 08-01-2014 07:55:00 11.9 C 8.79 g/m*3 11.9 C 11.3 km/h
2731 08-01-2014 08:00:00 11.7 C 8.68 g/m*3 11.7 C 12.9 km/h
2732 08-01-2014 08:05:00 11.7 C 8.68 g/m*3 11.7 C 9.7 km/h
2733 08-01-2014 08:10:00 11.7 C 8.68 g/m*3 11.7 C 8.1 km/h
2734 08-01-2014 08:15:00 11.5 C 8.68 g/m*3 11.5 C 4.8 km/h
2735 08-01-2014 08:20:00 11.4 C 8.62 g/m*3 11.4 C 4.8 km/h
2736 08-01-2014 08:25:00 11.3 C 8.57 g/m*3 11.3 C 12.9 km/h
2737 08-01-2014 08:30:00 11.3 C 8.57 g/m*3 11.3 C 8.1 km/h
2738 08-01-2014 08:35:00 11.3 C 8.57 g/m*3 11.3 C 9.7 km/h
2739 08-01-2014 08:40:00 11.3 C 8.57 g/m*3 11.3 C 9.7 km/h
2740 08-01-2014 08:45:00 11.4 C 8.62 g/m*3 11.4 C 9.7 km/h
2741 08-01-2014 08:50:00 11.4 C 8.62 g/m*3 11.4 C 9.7 km/h
2742 08-01-2014 08:55:00 11.4 C 8.52 g/m*3 11.4 C 11.3 km/h
2743 08-01-2014 09:00:00 11.4 C 8.52 g/m*3 11.4 C 11.3 km/h
2744 08-01-2014 09:05:00 11.3 C 8.47 g/m*3 11.3 C 8.1 km/h
2745 08-01-2014 09:10:00 11.3 C 8.47 g/m*3 11.3 C 4.8 km/h
2746 08-01-2014 10:35:00 11.4 C 8.52 g/m*3 11.4 C 12.9 km/h
2747 08-01-2014 10:40:00 11.4 C 8.42 g/m*3 11.4 C 11.3 km/h
2748 08-01-2014 10:45:00 11.6 C 8.52 g/m*3 11.6 C 9.7 km/h
2749 08-01-2014 10:50:00 11.6 C 8.42 g/m*3 11.6 C 6.4 km/h
2750 08-01-2014 10:55:00 11.6 C 8.42 g/m*3 11.6 C 8.1 km/h
Sensor: Nr:Datum:Temp:Abs-Feuchte:Windchill:Wind:
Aussen-T/F 2751 08-01-2014 11:00:00 11.4 C 8.42 g/m*3 11.4 C 12.9 km/h
2752 08-01-2014 11:05:00 11.4 C 8.42 g/m*3 11.4 C 12.9 km/h
2753 08-01-2014 11:10:00 11.4 C 8.42 g/m*3 11.4 C 6.4 km/h
2754 08-01-2014 11:15:00 11.3 C 8.36 g/m*3 11.3 C 8.1 km/h
2755 08-01-2014 11:20:00 11.2 C 8.31 g/m*3 11.2 C 9.7 km/h
2756 08-01-2014 11:25:00 11 C 8.31 g/m*3 11 C 4.8 km/h
2757 08-01-2014 11:30:00 11.1 C 8.36 g/m*3 11.1 C 6.4 km/h
2758 08-01-2014 11:35:00 11.1 C 8.26 g/m*3 11.1 C 8.1 km/h
2759 08-01-2014 11:40:00 11.1 C 8.36 g/m*3 11.1 C 6.4 km/h
2760 08-01-2014 11:45:00 11.1 C 8.26 g/m*3 11.1 C 6.4 km/h
2761 08-01-2014 11:50:00 11.1 C 8.36 g/m*3 11.1 C 3.2 km/h
2762 08-01-2014 11:55:00 10.9 C 8.36 g/m*3 10.9 C 3.2 km/h
2763 08-01-2014 12:00:00 10.6 C 8.2 g/m*3 10.06 C 6.4 km/h
2764 08-01-2014 12:05:00 10.8 C 8.2 g/m*3 10.8 C 4.8 km/h
2765 08-01-2014 12:10:00 10.8 C 8.3 g/m*3 10.8 C 1.6 km/h
2766 08-01-2014 12:15:00 10.7 C 8.35 g/m*3 10.7 C 3.2 km/h
2767 08-01-2014 12:20:00 10.7 C 8.35 g/m*3 10.7 C 4.8 km/h
2768 08-01-2014 12:25:00 11.2 C 8.11 g/m*3 11.2 C 6.4 km/h
2769 08-01-2014 12:30:00 11.4 C 8.11 g/m*3 11.4 C 8.1 km/h
2770 08-01-2014 12:35:00 11.7 C 8.37 g/m*3 11.7 C 8.1 km/h
2771 08-01-2014 12:40:00 11.8 C 8.31 g/m*3 11.8 C 6.4 km/h
2772 08-01-2014 12:45:00 11.8 C 8.31 g/m*3 11.8 C 1.6 km/h
2773 08-01-2014 12:50:00 11.8 C 8.31 g/m*3 11.8 C 11.3 km/h
2774 08-01-2014 12:55:00 11.8 C 8.31 g/m*3 11.8 C 14.5 km/h
2775 08-01-2014 13:00:00 12.4 C 8.3 g/m*3 12.4 C 16.1 km/h
Sensor: Nr:Datum:Temp:Abs-Feuchte:Windchill:Wind:
Aussen-T/F 2776 08-01-2014 13:05:00 12.5 C 8.36 g/m*3 12.5 C 11.3 km/h
2777 08-01-2014 13:10:00 12.6 C 8.41 g/m*3 12.6 C 9.7 km/h
2778 08-01-2014 13:15:00 12.5 C 8.36 g/m*3 12.5 C 4.8 km/h
2779 08-01-2014 13:20:00 12.5 C 8.36 g/m*3 12.5 C 11.3 km/h
2780 08-01-2014 13:25:00 12.5 C 8.36 g/m*3 12.5 C 11.3 km/h
2781 08-01-2014 13:30:00 12.6 C 8.52 g/m*3 12.6 C 4.8 km/h
2782 08-01-2014 13:35:00 12.5 C 8.36 g/m*3 12.5 C 6.4 km/h
2783 08-01-2014 13:40:00 12.4 C 8.3 g/m*3 12.4 C 11.3 km/h
2784 08-01-2014 13:45:00 12.4 C 8.3 g/m*3 12.4 C 16.1 km/h
2785 08-01-2014 13:50:00 12.3 C 8.25 g/m*3 12.3 C 12.9 km/h
2786 08-01-2014 13:55:00 12.3 C 8.25 g/m*3 12.3 C 4.8 km/h
2787 08-01-2014 14:00:00 12.2 C 8.31 g/m*3 12.2 C 4.8 km/h
2788 08-01-2014 14:05:00 12.2 C 8.42 g/m*3 12.2 C 8.1 km/h
2789 08-01-2014 14:10:00 12.2 C 8.42 g/m*3 12.2 C 6.4 km/h
2790 08-01-2014 14:15:00 12.2 C 8.42 g/m*3 12.2 C 3.2 km/h
2791 08-01-2014 14:20:00 12.2 C 8.52 g/m*3 12.2 C 6.4 km/h
2792 08-01-2014 14:25:00 12.1 C 8.47 g/m*3 12.1 C 12.9 km/h
2793 08-01-2014 14:30:00 12.1 C 8.36 g/m*3 12.1 C 14.5 km/h
2794 08-01-2014 14:35:00 12.1 C 8.36 g/m*3 12.1 C 6.4 km/h
2795 08-01-2014 14:40:00 11.9 C 8.26 g/m*3 11.9 C 6.4 km/h
2796 08-01-2014 14:45:00 11.9 C 8.37 g/m*3 11.9 C 11.3 km/h
2797 08-01-2014 14:50:00 11.7 C 8.26 g/m*3 11.7 C 12.9 km/h
2798 08-01-2014 14:55:00 11.6 C 8.42 g/m*3 11.6 C 3.2 km/h
2799 08-01-2014 15:00:00 11.4 C 8.21 g/m*3 11.4 C 12.9 km/h
2800 08-01-2014 15:05:00 11.6 C 8.32 g/m*3 11.6 C 14.5 km/h
Sensor: Nr:Datum:Temp:Abs-Feuchte:Windchill:Wind:
Aussen-T/F 2801 08-01-2014 15:10:00 11.7 C 8.37 g/m*3 11.7 C 9.7 km/h
2802 08-01-2014 15:15:00 11.7 C 8.37 g/m*3 11.7 C 4.8 km/h
2803 08-01-2014 15:20:00 11.7 C 8.26 g/m*3 11.7 C 8.1 km/h
2804 08-01-2014 15:25:00 11.6 C 8.32 g/m*3 11.6 C 6.4 km/h
2805 08-01-2014 15:30:00 11.4 C 8.31 g/m*3 11.4 C 12.9 km/h
2806 08-01-2014 15:35:00 11.3 C 8.16 g/m*3 11.3 C 8.1 km/h
2807 08-01-2014 15:40:00 11.4 C 8.21 g/m*3 11.4 C 4.8 km/h
2808 08-01-2014 15:45:00 11.4 C 8.21 g/m*3 11.4 C 6.4 km/h
2809 08-01-2014 15:50:00 11.3 C 8.16 g/m*3 11.3 C 4.8 km/h
2810 08-01-2014 15:55:00 11.4 C 8.11 g/m*3 11.4 C 8.1 km/h
2811 08-01-2014 16:00:00 11.3 C 8.06 g/m*3 11.3 C 8.1 km/h
2812 08-01-2014 16:05:00 11.2 C 8.11 g/m*3 11.2 C 6.4 km/h
2813 08-01-2014 16:10:00 11.1 C 8.16 g/m*3 11.1 C 4.8 km/h
2814 08-01-2014 16:15:00 10.9 C 8.16 g/m*3 10.41 C 6.4 km/h
2815 08-01-2014 16:20:00 10.6 C 8.2 g/m*3 10.6 C 4.8 km/h
2816 08-01-2014 16:25:00 10.3 C 8.04 g/m*3 10.3 C 4.8 km/h
2817 08-01-2014 16:30:00 10.3 C 8.04 g/m*3 9.72 C 6.4 km/h
2818 08-01-2014 16:35:00 10.2 C 8.09 g/m*3 10.2 C 3.2 km/h
2819 08-01-2014 16:40:00 9.9 C 7.94 g/m*3 9.9 C 4.8 km/h
2820 08-01-2014 16:45:00 9.6 C 8.06 g/m*3 9.6 C 4.8 km/h
2821 08-01-2014 16:50:00 9.6 C 8.06 g/m*3 9.6 C 3.2 km/h
2822 08-01-2014 16:55:00 9.6 C 8.06 g/m*3 9.6 C 4.8 km/h
2823 08-01-2014 17:00:00 9.2 C 7.95 g/m*3 9.2 C 4.8 km/h
2824 08-01-2014 17:05:00 9.2 C 7.95 g/m*3 9.2 C 3.2 km/h
2825 08-01-2014 17:10:00 9.2 C 7.95 g/m*3 9.2 C 3.2 km/h
Sensor: Nr:Datum:Temp:Abs-Feuchte:Windchill:Wind:
Aussen-T/F 2826 08-01-2014 17:15:00 9 C 7.93 g/m*3 9 C 3.2 km/h
2827 08-01-2014 17:20:00 8.9 C 7.88 g/m*3 8.9 C 3.2 km/h
2828 08-01-2014 17:25:00 9 C 7.93 g/m*3 9 C 3.2 km/h
2829 08-01-2014 17:30:00 8.9 C 7.88 g/m*3 8.9 C 3.2 km/h
2830 08-01-2014 17:35:00 9 C 8.02 g/m*3 9 C 3.2 km/h
2831 08-01-2014 17:40:00 9.1 C 7.99 g/m*3 9.1 C 1.6 km/h
2832 08-01-2014 17:45:00 9 C 7.93 g/m*3 9 C 0 km/h
2833 08-01-2014 17:50:00 8.9 C 7.88 g/m*3 8.9 C 1.6 km/h
2834 08-01-2014 17:55:00 8.7 C 7.78 g/m*3 8.7 C 1.6 km/h
2835 08-01-2014 18:00:00 8.6 C 7.82 g/m*3 8.6 C 3.2 km/h
2836 08-01-2014 18:05:00 8.6 C 7.82 g/m*3 8.6 C 3.2 km/h
2837 08-01-2014 18:10:00 8.5 C 7.77 g/m*3 8.5 C 3.2 km/h
2838 08-01-2014 18:15:00 8.3 C 7.67 g/m*3 8.3 C 0 km/h
2839 08-01-2014 18:20:00 8.2 C 7.7 g/m*3 8.2 C 0 km/h
2840 08-01-2014 18:25:00 8.1 C 7.66 g/m*3 8.1 C 0 km/h
2841 08-01-2014 18:30:00 8.1 C 7.66 g/m*3 8.1 C 0 km/h
2842 08-01-2014 18:35:00 8.1 C 7.66 g/m*3 8.1 C 0 km/h
2843 08-01-2014 18:40:00 8.1 C 7.74 g/m*3 8.1 C 1.6 km/h
2844 08-01-2014 18:45:00 8.1 C 7.74 g/m*3 8.1 C 1.6 km/h
2845 08-01-2014 18:50:00 8.1 C 7.74 g/m*3 8.1 C 3.2 km/h
2846 08-01-2014 18:55:00 7.6 C 7.49 g/m*3 7.6 C 0 km/h
2847 08-01-2014 19:00:00 7.6 C 7.49 g/m*3 7.6 C 0 km/h
2848 08-01-2014 19:05:00 7.4 C 7.4 g/m*3 7.4 C 0 km/h
2849 08-01-2014 19:10:00 7.4 C 7.48 g/m*3 7.4 C 0 km/h
2850 08-01-2014 19:15:00 7.4 C 7.48 g/m*3 7.4 C 1.6 km/h
Sensor: Nr:Datum:Temp:Abs-Feuchte:Windchill:Wind:
Aussen-T/F 2851 08-01-2014 19:20:00 7.3 C 7.43 g/m*3 7.3 C 0 km/h
2852 08-01-2014 19:25:00 7.3 C 7.51 g/m*3 7.3 C 0 km/h
2853 08-01-2014 19:30:00 7.3 C 7.51 g/m*3 7.3 C 0 km/h
2854 08-01-2014 19:35:00 7.3 C 7.51 g/m*3 7.3 C 0 km/h
2855 08-01-2014 19:40:00 7.3 C 7.51 g/m*3 7.3 C 0 km/h
2856 08-01-2014 19:45:00 7.2 C 7.46 g/m*3 7.2 C 0 km/h
2857 08-01-2014 19:50:00 7.2 C 7.46 g/m*3 7.2 C 0 km/h
2858 08-01-2014 19:55:00 7.2 C 7.46 g/m*3 7.2 C 1.6 km/h
2859 08-01-2014 20:00:00 7.2 C 7.46 g/m*3 7.2 C 0 km/h
2860 08-01-2014 20:05:00 7.2 C 7.46 g/m*3 7.2 C 0 km/h
2861 08-01-2014 20:10:00 7.2 C 7.46 g/m*3 7.2 C 0 km/h
2862 08-01-2014 20:15:00 7.2 C 7.46 g/m*3 7.2 C 0 km/h
2863 08-01-2014 20:20:00 7.1 C 7.41 g/m*3 7.1 C 1.6 km/h
2864 08-01-2014 20:25:00 7 C 7.36 g/m*3 7 C 0 km/h
2865 08-01-2014 20:30:00 6.9 C 7.31 g/m*3 6.9 C 0 km/h
2866 08-01-2014 20:35:00 6.8 C 7.27 g/m*3 6.8 C 0 km/h
2867 08-01-2014 20:40:00 6.8 C 7.27 g/m*3 6.8 C 0 km/h
2868 08-01-2014 20:45:00 6.8 C 7.27 g/m*3 6.8 C 0 km/h
2869 08-01-2014 20:50:00 6.8 C 7.34 g/m*3 6.8 C 0 km/h
2870 08-01-2014 20:55:00 6.8 C 7.34 g/m*3 6.8 C 0 km/h
2871 08-01-2014 21:00:00 6.8 C 7.34 g/m*3 6.8 C 0 km/h
2872 08-01-2014 21:05:00 6.8 C 7.27 g/m*3 6.8 C 0 km/h
2873 08-01-2014 21:10:00 6.8 C 7.34 g/m*3 6.8 C 0 km/h
2874 08-01-2014 21:15:00 6.7 C 7.29 g/m*3 6.7 C 0 km/h
2875 08-01-2014 21:20:00 6.7 C 7.29 g/m*3 6.7 C 0 km/h
Sensor: Nr:Datum:Temp:Abs-Feuchte:Windchill:Wind:
Aussen-T/F 2876 08-01-2014 21:25:00 6.7 C 7.29 g/m*3 6.7 C 0 km/h
2877 08-01-2014 21:30:00 6.7 C 7.29 g/m*3 6.7 C 0 km/h
2878 08-01-2014 21:35:00 6.6 C 7.25 g/m*3 6.6 C 0 km/h
2879 08-01-2014 21:40:00 6.6 C 7.25 g/m*3 6.6 C 0 km/h
2880 08-01-2014 21:45:00 6.5 C 7.2 g/m*3 6.5 C 0 km/h
2881 08-01-2014 21:50:00 6.4 C 7.15 g/m*3 6.4 C 0 km/h
2882 08-01-2014 21:55:00 6.3 C 7.11 g/m*3 6.3 C 0 km/h
2883 08-01-2014 22:00:00 6.3 C 7.11 g/m*3 6.3 C 0 km/h
2884 08-01-2014 22:05:00 6.2 C 7.06 g/m*3 6.2 C 0 km/h
2885 08-01-2014 22:10:00 6.2 C 7.06 g/m*3 6.2 C 0 km/h
2886 08-01-2014 22:15:00 6.2 C 7.06 g/m*3 6.2 C 0 km/h
2887 08-01-2014 22:20:00 6.3 C 7.11 g/m*3 6.3 C 0 km/h
2888 08-01-2014 22:25:00 6.3 C 7.11 g/m*3 6.3 C 0 km/h
2889 08-01-2014 22:30:00 6.3 C 7.11 g/m*3 6.3 C 0 km/h
2890 08-01-2014 22:35:00 6.3 C 7.11 g/m*3 6.3 C 0 km/h
2891 08-01-2014 22:40:00 6.3 C 7.11 g/m*3 6.3 C 0 km/h
2892 09-01-2014 01:00:00 6.3 C 7.18 g/m*3 6.3 C 0 km/h
2893 09-01-2014 01:05:00 6.3 C 7.18 g/m*3 6.3 C 0 km/h
2894 09-01-2014 01:10:00 6.4 C 7.23 g/m*3 6.4 C 0 km/h
2895 09-01-2014 01:15:00 6.4 C 7.23 g/m*3 6.4 C 0 km/h
2896 09-01-2014 01:20:00 6.4 C 7.23 g/m*3 6.4 C 0 km/h
2897 09-01-2014 01:25:00 6.4 C 7.23 g/m*3 6.4 C 0 km/h
2898 09-01-2014 01:30:00 6.4 C 7.23 g/m*3 6.4 C 0 km/h
2899 09-01-2014 01:35:00 6.5 C 7.27 g/m*3 6.5 C 0 km/h
2900 09-01-2014 01:40:00 6.6 C 7.32 g/m*3 6.6 C 1.6 km/h
Sensor: Nr:Datum:Temp:Abs-Feuchte:Windchill:Wind:
Aussen-T/F 2901 09-01-2014 01:45:00 6.7 C 7.37 g/m*3 6.7 C 0 km/h
2902 09-01-2014 01:50:00 6.8 C 7.42 g/m*3 6.8 C 1.6 km/h
2903 09-01-2014 01:55:00 6.8 C 7.42 g/m*3 6.8 C 0 km/h
2904 09-01-2014 02:00:00 6.7 C 7.37 g/m*3 6.7 C 0 km/h
2905 09-01-2014 02:05:00 6.7 C 7.37 g/m*3 6.7 C 0 km/h
2906 09-01-2014 02:10:00 6.7 C 7.37 g/m*3 6.7 C 3.2 km/h
2907 09-01-2014 02:15:00 6.7 C 7.37 g/m*3 6.7 C 0 km/h
2908 09-01-2014 02:20:00 6.7 C 7.37 g/m*3 6.7 C 0 km/h
2909 09-01-2014 02:25:00 6.7 C 7.37 g/m*3 6.7 C 0 km/h
2910 09-01-2014 02:30:00 6.7 C 7.37 g/m*3 6.7 C 0 km/h
2911 09-01-2014 02:35:00 6.7 C 7.37 g/m*3 6.7 C 0 km/h
2912 09-01-2014 02:40:00 6.7 C 7.37 g/m*3 6.7 C 0 km/h
2913 09-01-2014 02:45:00 6.7 C 7.37 g/m*3 6.7 C 0 km/h
2914 09-01-2014 02:50:00 6.7 C 7.37 g/m*3 6.7 C 0 km/h
2915 09-01-2014 02:55:00 6.7 C 7.37 g/m*3 6.7 C 0 km/h
2916 09-01-2014 03:00:00 6.7 C 7.37 g/m*3 6.7 C 0 km/h
2917 09-01-2014 03:05:00 6.7 C 7.37 g/m*3 6.7 C 0 km/h
2918 09-01-2014 03:10:00 6.7 C 7.37 g/m*3 6.7 C 1.6 km/h
2919 09-01-2014 03:15:00 6.7 C 7.37 g/m*3 6.7 C 0 km/h
2920 09-01-2014 03:20:00 6.7 C 7.37 g/m*3 6.7 C 0 km/h
2921 09-01-2014 03:25:00 6.6 C 7.32 g/m*3 6.6 C 0 km/h
2922 09-01-2014 03:30:00 6.6 C 7.32 g/m*3 6.6 C 0 km/h
2923 09-01-2014 03:35:00 6.6 C 7.32 g/m*3 6.6 C 0 km/h
2924 09-01-2014 03:40:00 6.7 C 7.37 g/m*3 6.7 C 0 km/h
2925 09-01-2014 03:45:00 6.7 C 7.37 g/m*3 6.7 C 1.6 km/h
Sensor: Nr:Datum:Temp:Abs-Feuchte:Windchill:Wind:
Aussen-T/F 2926 09-01-2014 03:50:00 6.7 C 7.37 g/m*3 6.7 C 0 km/h
2927 09-01-2014 03:55:00 6.8 C 7.42 g/m*3 6.8 C 1.6 km/h
2928 09-01-2014 04:00:00 6.8 C 7.42 g/m*3 6.8 C 0 km/h
2929 09-01-2014 04:05:00 6.8 C 7.42 g/m*3 6.8 C 0 km/h
2930 09-01-2014 04:10:00 6.8 C 7.42 g/m*3 6.8 C 0 km/h
2931 09-01-2014 04:15:00 6.8 C 7.42 g/m*3 6.8 C 0 km/h
2932 09-01-2014 04:20:00 6.8 C 7.42 g/m*3 6.8 C 1.6 km/h
2933 09-01-2014 04:25:00 6.8 C 7.42 g/m*3 6.8 C 1.6 km/h
2934 09-01-2014 04:30:00 6.8 C 7.42 g/m*3 6.8 C 0 km/h
2935 09-01-2014 04:35:00 6.7 C 7.37 g/m*3 6.7 C 1.6 km/h
2936 09-01-2014 04:40:00 6.7 C 7.37 g/m*3 6.7 C 3.2 km/h
2937 09-01-2014 04:45:00 6.7 C 7.37 g/m*3 6.7 C 0 km/h
2938 09-01-2014 04:50:00 6.7 C 7.37 g/m*3 6.7 C 1.6 km/h
2939 09-01-2014 04:55:00 6.7 C 7.37 g/m*3 6.7 C 0 km/h
2940 09-01-2014 05:00:00 6.6 C 7.32 g/m*3 6.6 C 0 km/h
2941 09-01-2014 05:05:00 6.7 C 7.45 g/m*3 6.7 C 1.6 km/h
2942 09-01-2014 05:10:00 6.7 C 7.45 g/m*3 6.7 C 0 km/h
2943 09-01-2014 05:15:00 6.7 C 7.45 g/m*3 6.7 C 0 km/h
2944 09-01-2014 05:20:00 6.7 C 7.45 g/m*3 6.7 C 0 km/h
2945 09-01-2014 05:25:00 6.8 C 7.5 g/m*3 6.8 C 0 km/h
2946 09-01-2014 05:30:00 7.2 C 7.69 g/m*3 7.2 C 3.2 km/h
2947 09-01-2014 05:35:00 7.4 C 7.79 g/m*3 7.4 C 3.2 km/h
2948 09-01-2014 05:40:00 7.4 C 7.79 g/m*3 7.4 C 3.2 km/h
2949 09-01-2014 05:45:00 7.4 C 7.79 g/m*3 7.4 C 1.6 km/h
2950 09-01-2014 05:50:00 7.4 C 7.79 g/m*3 7.4 C 1.6 km/h
Sensor: Nr:Datum:Temp:Abs-Feuchte:Windchill:Wind:
Aussen-T/F 2951 09-01-2014 07:20:00 8.9 C 8.41 g/m*3 8.9 C 3.2 km/h
2952 09-01-2014 07:25:00 9.2 C 8.57 g/m*3 8.45 C 6.4 km/h
2953 09-01-2014 07:30:00 9.3 C 8.45 g/m*3 8.56 C 6.4 km/h
2954 09-01-2014 07:35:00 9.5 C 8.47 g/m*3 9.5 C 4.8 km/h
2955 09-01-2014 07:40:00 9.6 C 8.52 g/m*3 9.6 C 4.8 km/h
2956 09-01-2014 07:45:00 9.6 C 8.43 g/m*3 9.6 C 1.6 km/h
2957 09-01-2014 07:50:00 9.6 C 8.34 g/m*3 8.91 C 6.4 km/h
2958 09-01-2014 07:55:00 9.7 C 8.39 g/m*3 9.02 C 6.4 km/h
2959 09-01-2014 08:00:00 9.7 C 8.3 g/m*3 9.02 C 6.4 km/h
2960 09-01-2014 08:05:00 9.8 C 8.35 g/m*3 8.75 C 8.1 km/h
2961 09-01-2014 08:10:00 9.9 C 8.31 g/m*3 9.9 C 3.2 km/h
2962 09-01-2014 08:15:00 9.8 C 8.26 g/m*3 9.8 C 1.6 km/h
2963 09-01-2014 08:20:00 9.7 C 8.2 g/m*3 9.7 C 1.6 km/h
2964 09-01-2014 08:25:00 9.6 C 8.15 g/m*3 9.6 C 0 km/h
2965 09-01-2014 08:30:00 9.6 C 8.15 g/m*3 9.6 C 3.2 km/h
2966 09-01-2014 08:35:00 9.6 C 8.15 g/m*3 9.6 C 1.6 km/h
2967 09-01-2014 08:40:00 9.3 C 8 g/m*3 9.3 C 1.6 km/h
2968 09-01-2014 08:45:00 9.2 C 8.04 g/m*3 9.2 C 1.6 km/h
2969 09-01-2014 08:50:00 9.1 C 7.99 g/m*3 9.1 C 0 km/h
2970 09-01-2014 08:55:00 9.1 C 8.07 g/m*3 9.1 C 1.6 km/h
2971 09-01-2014 09:00:00 9.1 C 8.07 g/m*3 9.1 C 3.2 km/h
2972 09-01-2014 09:05:00 9.1 C 8.16 g/m*3 9.1 C 4.8 km/h
2973 09-01-2014 09:10:00 9.2 C 8.22 g/m*3 9.2 C 0 km/h
2974 09-01-2014 09:15:00 9.3 C 8.18 g/m*3 9.3 C 4.8 km/h
2975 09-01-2014 09:20:00 9.4 C 8.23 g/m*3 9.4 C 0 km/h
Sensor: Nr:Datum:Temp:Abs-Feuchte:Windchill:Wind:
Aussen-T/F 2976 09-01-2014 09:25:00 9.4 C 8.23 g/m*3 9.4 C 3.2 km/h
2977 09-01-2014 09:30:00 9.4 C 8.23 g/m*3 9.4 C 3.2 km/h
2978 09-01-2014 09:35:00 9.4 C 8.23 g/m*3 9.4 C 0 km/h
2979 09-01-2014 09:40:00 9.3 C 8.18 g/m*3 9.3 C 1.6 km/h
2980 09-01-2014 09:45:00 9.4 C 8.23 g/m*3 9.4 C 1.6 km/h
2981 09-01-2014 09:50:00 9.4 C 8.14 g/m*3 9.4 C 4.8 km/h
2982 09-01-2014 09:55:00 9.6 C 8.24 g/m*3 9.6 C 3.2 km/h
2983 09-01-2014 10:00:00 9.7 C 8.3 g/m*3 9.7 C 4.8 km/h
2984 09-01-2014 10:05:00 9.7 C 8.3 g/m*3 9.7 C 0 km/h
2985 09-01-2014 10:10:00 9.8 C 8.35 g/m*3 9.8 C 3.2 km/h
2986 09-01-2014 10:15:00 9.9 C 8.5 g/m*3 9.9 C 4.8 km/h
2987 09-01-2014 10:20:00 9.9 C 8.31 g/m*3 9.9 C 3.2 km/h
2988 09-01-2014 10:25:00 10.1 C 8.51 g/m*3 10.1 C 1.6 km/h
2989 09-01-2014 10:30:00 10.2 C 8.56 g/m*3 10.2 C 1.6 km/h
2990 09-01-2014 10:35:00 10.2 C 8.56 g/m*3 10.2 C 1.6 km/h
2991 09-01-2014 10:40:00 10.2 C 8.56 g/m*3 10.2 C 1.6 km/h
2992 09-01-2014 10:45:00 10.1 C 8.32 g/m*3 10.1 C 4.8 km/h
2993 09-01-2014 10:50:00 10.2 C 8.37 g/m*3 10.2 C 0 km/h
2994 09-01-2014 10:55:00 10.2 C 8.37 g/m*3 10.2 C 3.2 km/h
2995 09-01-2014 11:00:00 10.3 C 8.33 g/m*3 9.04 C 9.7 km/h
2996 09-01-2014 11:05:00 10.6 C 8.49 g/m*3 10.6 C 4.8 km/h
2997 09-01-2014 11:10:00 10.6 C 8.49 g/m*3 10.06 C 6.4 km/h
2998 09-01-2014 11:15:00 10.6 C 8.49 g/m*3 10.6 C 1.6 km/h
2999 09-01-2014 11:20:00 10.8 C 8.5 g/m*3 10.29 C 6.4 km/h
3000 09-01-2014 11:25:00 11.1 C 8.66 g/m*3 11.1 C 6.4 km/h
Sensor: Nr:Datum:Temp:Abs-Feuchte:Windchill:Wind:
Aussen-T/F 3001 09-01-2014 11:30:00 11.4 C 8.72 g/m*3 11.4 C 9.7 km/h
3002 09-01-2014 11:35:00 11.4 C 8.72 g/m*3 11.4 C 9.7 km/h
3003 09-01-2014 11:40:00 11.9 C 8.58 g/m*3 11.9 C 8.1 km/h
3004 09-01-2014 11:45:00 12.1 C 8.47 g/m*3 12.1 C 14.5 km/h
3005 09-01-2014 11:50:00 12.3 C 8.47 g/m*3 12.3 C 9.7 km/h
3006 09-01-2014 11:55:00 12.3 C 8.47 g/m*3 12.3 C 11.3 km/h
3007 09-01-2014 12:00:00 12.4 C 8.52 g/m*3 12.4 C 9.7 km/h
3008 09-01-2014 12:05:00 12.4 C 8.52 g/m*3 12.4 C 8.1 km/h
3009 09-01-2014 12:10:00 12.4 C 8.52 g/m*3 12.4 C 12.9 km/h
3010 09-01-2014 12:15:00 12.4 C 8.52 g/m*3 12.4 C 17.7 km/h
3011 09-01-2014 12:20:00 12.4 C 8.52 g/m*3 12.4 C 11.3 km/h
3012 09-01-2014 12:25:00 12.4 C 8.52 g/m*3 12.4 C 12.9 km/h
3013 09-01-2014 12:30:00 12.4 C 8.52 g/m*3 12.4 C 11.3 km/h
3014 09-01-2014 12:35:00 12.5 C 8.58 g/m*3 12.5 C 14.5 km/h
3015 09-01-2014 12:40:00 12.5 C 8.58 g/m*3 12.5 C 14.5 km/h
3016 09-01-2014 12:45:00 12.6 C 8.63 g/m*3 12.6 C 14.5 km/h
3017 09-01-2014 12:50:00 12.6 C 8.52 g/m*3 12.6 C 9.7 km/h
3018 09-01-2014 12:55:00 12.6 C 8.63 g/m*3 12.6 C 9.7 km/h
3019 09-01-2014 13:00:00 12.6 C 8.52 g/m*3 12.6 C 16.1 km/h
3020 09-01-2014 13:05:00 12.6 C 8.52 g/m*3 12.6 C 11.3 km/h
3021 09-01-2014 13:10:00 12.6 C 8.52 g/m*3 12.6 C 12.9 km/h
3022 09-01-2014 13:15:00 12.7 C 8.57 g/m*3 12.7 C 14.5 km/h
3023 09-01-2014 13:20:00 12.7 C 8.57 g/m*3 12.7 C 9.7 km/h
3024 09-01-2014 13:25:00 12.8 C 8.62 g/m*3 12.8 C 22.5 km/h
3025 09-01-2014 13:30:00 12.7 C 8.57 g/m*3 12.7 C 12.9 km/h
Sensor: Nr:Datum:Temp:Abs-Feuchte:Windchill:Wind:
Aussen-T/F 3026 09-01-2014 13:35:00 12.7 C 8.57 g/m*3 12.7 C 17.7 km/h
3027 09-01-2014 13:40:00 12.8 C 8.62 g/m*3 12.8 C 11.3 km/h
3028 09-01-2014 13:45:00 12.8 C 8.62 g/m*3 12.8 C 12.9 km/h
3029 09-01-2014 13:50:00 12.7 C 8.57 g/m*3 12.7 C 16.1 km/h
3030 09-01-2014 13:55:00 12.7 C 8.57 g/m*3 12.7 C 9.7 km/h
3031 09-01-2014 14:00:00 12.8 C 8.62 g/m*3 12.8 C 16.1 km/h
3032 09-01-2014 14:05:00 12.8 C 8.62 g/m*3 12.8 C 17.7 km/h
3033 09-01-2014 14:10:00 12.8 C 8.62 g/m*3 12.8 C 19.3 km/h
3034 09-01-2014 14:15:00 12.8 C 8.62 g/m*3 12.8 C 12.9 km/h
3035 09-01-2014 14:20:00 12.8 C 8.62 g/m*3 12.8 C 16.1 km/h
3036 09-01-2014 14:25:00 12.8 C 8.62 g/m*3 12.8 C 16.1 km/h
3037 09-01-2014 14:30:00 12.7 C 8.57 g/m*3 12.7 C 22.5 km/h
3038 09-01-2014 14:35:00 12.7 C 8.57 g/m*3 12.7 C 16.1 km/h
3039 09-01-2014 14:40:00 12.7 C 8.57 g/m*3 12.7 C 16.1 km/h
3040 09-01-2014 14:45:00 12.7 C 8.57 g/m*3 12.7 C 27.4 km/h
3041 09-01-2014 14:50:00 12.6 C 8.63 g/m*3 12.6 C 20.9 km/h
3042 09-01-2014 14:55:00 12.4 C 8.52 g/m*3 12.4 C 22.5 km/h
3043 09-01-2014 15:00:00 12.3 C 8.58 g/m*3 12.3 C 11.3 km/h
3044 09-01-2014 15:05:00 12.2 C 8.63 g/m*3 12.2 C 20.9 km/h
3045 09-01-2014 15:10:00 12.1 C 8.69 g/m*3 12.1 C 16.1 km/h
3046 09-01-2014 15:15:00 11.9 C 8.68 g/m*3 11.9 C 11.3 km/h
3047 09-01-2014 15:20:00 11.7 C 8.68 g/m*3 11.7 C 14.5 km/h
3048 09-01-2014 15:25:00 11.6 C 8.83 g/m*3 11.6 C 19.3 km/h
3049 09-01-2014 15:30:00 11.3 C 8.77 g/m*3 11.3 C 11.3 km/h
3050 09-01-2014 15:35:00 11.1 C 8.76 g/m*3 11.1 C 22.5 km/h
Sensor: Nr:Datum:Temp:Abs-Feuchte:Windchill:Wind:
Aussen-T/F 3051 09-01-2014 15:40:00 10.9 C 8.36 g/m*3 8.17 C 24.1 km/h
3052 09-01-2014 15:45:00 10.8 C 8.4 g/m*3 9.38 C 11.3 km/h
3053 09-01-2014 15:50:00 10.8 C 8.4 g/m*3 8.96 C 14.5 km/h
3054 09-01-2014 15:55:00 10.8 C 8.3 g/m*3 8.78 C 16.1 km/h
3055 09-01-2014 16:00:00 10.8 C 8.11 g/m*3 8.3 C 20.9 km/h
3056 09-01-2014 16:05:00 10.8 C 8.11 g/m*3 8.17 C 22.5 km/h
3057 09-01-2014 16:10:00 10.7 C 8.25 g/m*3 8.84 C 14.5 km/h
3058 09-01-2014 16:15:00 10.7 C 8.35 g/m*3 8.04 C 22.5 km/h
3059 09-01-2014 16:20:00 10.5 C 8.15 g/m*3 7.65 C 24.1 km/h
3060 09-01-2014 16:25:00 10.5 C 8.15 g/m*3 7.92 C 20.9 km/h
3061 09-01-2014 16:30:00 10.4 C 8.1 g/m*3 8.11 C 17.7 km/h
3062 09-01-2014 16:35:00 10.3 C 8.04 g/m*3 8.16 C 16.1 km/h
3063 09-01-2014 16:40:00 10.2 C 8.18 g/m*3 8.03 C 16.1 km/h
3064 09-01-2014 16:45:00 10.2 C 8.18 g/m*3 8.66 C 11.3 km/h
3065 09-01-2014 16:50:00 10.1 C 8.23 g/m*3 8.1 C 14.5 km/h
3066 09-01-2014 16:55:00 10.1 C 8.23 g/m*3 9.1 C 8.1 km/h
3067 09-01-2014 17:00:00 10 C 8.27 g/m*3 7.98 C 14.5 km/h
3068 09-01-2014 17:05:00 9.9 C 8.22 g/m*3 8.3 C 11.3 km/h
3069 09-01-2014 17:10:00 9.9 C 8.03 g/m*3 7.48 C 17.7 km/h
3070 09-01-2014 17:15:00 9.9 C 8.03 g/m*3 7.32 C 19.3 km/h
3071 09-01-2014 17:20:00 9.9 C 8.03 g/m*3 7.66 C 16.1 km/h
3072 09-01-2014 17:25:00 9.9 C 8.03 g/m*3 7.32 C 19.3 km/h
3073 09-01-2014 17:30:00 9.9 C 8.03 g/m*3 7.32 C 19.3 km/h
3074 09-01-2014 17:35:00 9.9 C 8.03 g/m*3 7.85 C 14.5 km/h
3075 09-01-2014 17:40:00 9.9 C 8.03 g/m*3 7.85 C 14.5 km/h
Sensor: Nr:Datum:Temp:Abs-Feuchte:Windchill:Wind:
Aussen-T/F 3076 09-01-2014 17:45:00 9.9 C 7.94 g/m*3 8.3 C 11.3 km/h
3077 09-01-2014 17:50:00 10.1 C 7.94 g/m*3 7.73 C 17.7 km/h
3078 09-01-2014 17:55:00 10.1 C 7.94 g/m*3 8.8 C 9.7 km/h
3079 09-01-2014 18:00:00 10.1 C 7.94 g/m*3 8.31 C 12.9 km/h
3080 09-01-2014 18:05:00 10 C 7.89 g/m*3 7.61 C 17.7 km/h
3081 09-01-2014 18:10:00 10 C 7.89 g/m*3 7.98 C 14.5 km/h
3082 09-01-2014 18:15:00 10 C 7.89 g/m*3 7.61 C 17.7 km/h
3083 09-01-2014 18:20:00 9.9 C 7.84 g/m*3 7.48 C 17.7 km/h
3084 09-01-2014 18:25:00 9.9 C 7.84 g/m*3 7.32 C 19.3 km/h
3085 09-01-2014 18:30:00 9.9 C 7.84 g/m*3 7.32 C 19.3 km/h
3086 09-01-2014 18:35:00 9.9 C 7.75 g/m*3 7.32 C 19.3 km/h
3087 09-01-2014 18:40:00 9.9 C 7.84 g/m*3 7.48 C 17.7 km/h
3088 09-01-2014 18:45:00 9.8 C 7.7 g/m*3 7.19 C 19.3 km/h
3089 09-01-2014 18:50:00 9.8 C 7.79 g/m*3 7.36 C 17.7 km/h
3090 09-01-2014 18:55:00 9.8 C 7.79 g/m*3 7.04 C 20.9 km/h
3091 09-01-2014 19:00:00 9.8 C 7.79 g/m*3 7.36 C 17.7 km/h
3092 09-01-2014 19:05:00 9.7 C 7.65 g/m*3 6.37 C 27.4 km/h
3093 09-01-2014 19:10:00 9.8 C 7.7 g/m*3 7.19 C 19.3 km/h
3094 09-01-2014 19:15:00 9.8 C 7.7 g/m*3 7.36 C 17.7 km/h
3095 09-01-2014 19:20:00 9.8 C 7.7 g/m*3 7.19 C 19.3 km/h
3096 09-01-2014 19:25:00 9.8 C 7.79 g/m*3 7.36 C 17.7 km/h
3097 09-01-2014 19:30:00 9.7 C 7.74 g/m*3 7.61 C 14.5 km/h
3098 09-01-2014 19:35:00 9.7 C 7.84 g/m*3 7.41 C 16.1 km/h
3099 09-01-2014 19:40:00 9.7 C 7.84 g/m*3 7.61 C 14.5 km/h
3100 09-01-2014 19:45:00 9.6 C 7.88 g/m*3 7.29 C 16.1 km/h
Sensor: Nr:Datum:Temp:Abs-Feuchte:Windchill:Wind:
Aussen-T/F 3101 09-01-2014 19:50:00 9.6 C 7.88 g/m*3 6.94 C 19.3 km/h
3102 09-01-2014 19:55:00 9.6 C 7.79 g/m*3 7.94 C 11.3 km/h
3103 09-01-2014 20:00:00 9.6 C 7.79 g/m*3 7.48 C 14.5 km/h
3104 09-01-2014 20:05:00 9.6 C 7.79 g/m*3 8.52 C 8.1 km/h
3105 09-01-2014 20:10:00 9.6 C 7.69 g/m*3 7.11 C 17.7 km/h
3106 09-01-2014 20:15:00 9.7 C 7.56 g/m*3 7.82 C 12.9 km/h
3107 09-01-2014 20:20:00 9.7 C 7.38 g/m*3 7.23 C 17.7 km/h
3108 09-01-2014 20:25:00 9.6 C 7.05 g/m*3 6.94 C 19.3 km/h
3109 09-01-2014 20:30:00 9.6 C 7.05 g/m*3 7.11 C 17.7 km/h
3110 09-01-2014 20:35:00 9.6 C 6.96 g/m*3 7.29 C 16.1 km/h
3111 09-01-2014 20:40:00 9.4 C 6.96 g/m*3 7.46 C 12.9 km/h
3112 09-01-2014 20:45:00 9.4 C 6.96 g/m*3 7.7 C 11.3 km/h
3113 09-01-2014 20:50:00 9.3 C 6.92 g/m*3 7.33 C 12.9 km/h
3114 09-01-2014 20:55:00 9.3 C 6.92 g/m*3 6.73 C 17.7 km/h
3115 09-01-2014 21:00:00 9.2 C 6.97 g/m*3 7.21 C 12.9 km/h
3116 09-01-2014 21:05:00 9.1 C 6.83 g/m*3 6 C 22.5 km/h
3117 09-01-2014 21:10:00 8.9 C 6.57 g/m*3 6.06 C 19.3 km/h
3118 09-01-2014 21:15:00 8.8 C 6.44 g/m*3 6.5 C 14.5 km/h
3119 09-01-2014 21:20:00 8.7 C 6.31 g/m*3 6.38 C 14.5 km/h
3120 09-01-2014 21:25:00 8.5 C 6.23 g/m*3 5.56 C 19.3 km/h
3121 09-01-2014 21:30:00 8.4 C 6.28 g/m*3 6.49 C 11.3 km/h
3122 09-01-2014 21:35:00 8.3 C 6.24 g/m*3 5.89 C 14.5 km/h
3123 09-01-2014 21:40:00 8.2 C 6.2 g/m*3 5.99 C 12.9 km/h
3124 09-01-2014 21:45:00 8.1 C 6.07 g/m*3 5.87 C 12.9 km/h
3125 09-01-2014 21:50:00 7.9 C 6.08 g/m*3 5.63 C 12.9 km/h
Sensor: Nr:Datum:Temp:Abs-Feuchte:Windchill:Wind:
Aussen-T/F 3126 09-01-2014 21:55:00 7.8 C 6.12 g/m*3 7.8 C 4.8 km/h
3127 09-01-2014 22:00:00 7.7 C 6.08 g/m*3 5.15 C 14.5 km/h
3128 09-01-2014 22:05:00 7.5 C 6 g/m*3 7.5 C 4.8 km/h
3129 09-01-2014 22:10:00 7.3 C 5.93 g/m*3 7.3 C 3.2 km/h
3130 09-01-2014 22:15:00 7.1 C 6.01 g/m*3 5.58 C 8.1 km/h
3131 09-01-2014 22:20:00 6.9 C 5.85 g/m*3 4.99 C 9.7 km/h
3132 09-01-2014 22:25:00 6.9 C 5.93 g/m*3 6.9 C 4.8 km/h
3133 09-01-2014 22:30:00 6.8 C 5.74 g/m*3 6.8 C 4.8 km/h
3134 09-01-2014 22:35:00 6.7 C 5.77 g/m*3 5.11 C 8.1 km/h
3135 09-01-2014 22:40:00 6.7 C 5.7 g/m*3 4.75 C 9.7 km/h
3136 09-01-2014 22:45:00 6.7 C 5.77 g/m*3 6.7 C 4.8 km/h
3137 09-01-2014 22:50:00 6.5 C 5.7 g/m*3 4.2 C 11.3 km/h
3138 09-01-2014 22:55:00 6.6 C 5.66 g/m*3 4.63 C 9.7 km/h
3139 09-01-2014 23:00:00 6.6 C 5.74 g/m*3 6.6 C 4.8 km/h
3140 09-01-2014 23:05:00 6.4 C 5.74 g/m*3 6.4 C 4.8 km/h
3141 09-01-2014 23:10:00 6.2 C 5.81 g/m*3 4.98 C 6.4 km/h
3142 09-01-2014 23:15:00 6.2 C 5.81 g/m*3 6.2 C 3.2 km/h
3143 09-01-2014 23:20:00 6.2 C 5.81 g/m*3 4.52 C 8.1 km/h
3144 09-01-2014 23:25:00 6.3 C 5.85 g/m*3 6.3 C 3.2 km/h
3145 09-01-2014 23:30:00 6.4 C 5.81 g/m*3 5.21 C 6.4 km/h
3146 09-01-2014 23:35:00 6.5 C 5.92 g/m*3 6.5 C 1.6 km/h
3147 09-01-2014 23:40:00 6.6 C 5.96 g/m*3 5.44 C 6.4 km/h
3148 09-01-2014 23:45:00 6.6 C 5.96 g/m*3 6.6 C 4.8 km/h
3149 09-01-2014 23:50:00 6.6 C 5.96 g/m*3 6.6 C 1.6 km/h
3150 09-01-2014 23:55:00 6.5 C 6 g/m*3 6.5 C 0 km/h
Sensor: Nr:Datum:Temp:Abs-Feuchte:Windchill:Wind:
Aussen-T/F 3151 10-01-2014 00:00:00 6.4 C 5.96 g/m*3 6.4 C 0 km/h
3152 10-01-2014 00:05:00 6.3 C 6.07 g/m*3 6.3 C 0 km/h
3153 10-01-2014 00:10:00 6.2 C 6.18 g/m*3 6.2 C 0 km/h
3154 10-01-2014 00:15:00 6.1 C 6.14 g/m*3 6.1 C 0 km/h
3155 10-01-2014 00:20:00 6 C 6.24 g/m*3 6 C 0 km/h
3156 10-01-2014 00:25:00 5.8 C 6.16 g/m*3 5.8 C 0 km/h
3157 10-01-2014 00:30:00 5.8 C 6.23 g/m*3 5.8 C 0 km/h
3158 10-01-2014 00:35:00 5.7 C 6.19 g/m*3 5.7 C 0 km/h
3159 10-01-2014 00:40:00 5.7 C 6.19 g/m*3 5.7 C 0 km/h
3160 10-01-2014 00:45:00 5.7 C 6.19 g/m*3 5.7 C 0 km/h
3161 10-01-2014 00:50:00 5.7 C 6.19 g/m*3 5.7 C 0 km/h
3162 10-01-2014 00:55:00 5.7 C 6.19 g/m*3 5.7 C 0 km/h
3163 10-01-2014 01:00:00 5.7 C 6.26 g/m*3 5.7 C 1.6 km/h
3164 10-01-2014 01:05:00 5.7 C 6.26 g/m*3 5.7 C 3.2 km/h
3165 10-01-2014 01:10:00 5.7 C 6.26 g/m*3 5.7 C 3.2 km/h
3166 10-01-2014 01:15:00 5.7 C 6.26 g/m*3 5.7 C 1.6 km/h
3167 10-01-2014 01:20:00 5.6 C 6.29 g/m*3 5.6 C 1.6 km/h
3168 10-01-2014 01:25:00 5.6 C 6.29 g/m*3 5.6 C 0 km/h
3169 10-01-2014 01:30:00 5.6 C 6.29 g/m*3 5.6 C 0 km/h
3170 10-01-2014 01:35:00 5.6 C 6.29 g/m*3 5.6 C 1.6 km/h
3171 10-01-2014 01:40:00 5.7 C 6.33 g/m*3 5.7 C 0 km/h
3172 10-01-2014 01:45:00 5.8 C 6.38 g/m*3 5.8 C 0 km/h
3173 10-01-2014 01:50:00 5.8 C 6.38 g/m*3 5.8 C 1.6 km/h
3174 10-01-2014 01:55:00 5.9 C 6.35 g/m*3 5.9 C 1.6 km/h
3175 10-01-2014 02:00:00 5.9 C 6.35 g/m*3 5.9 C 3.2 km/h
Sensor: Nr:Datum:Temp:Abs-Feuchte:Windchill:Wind:
Aussen-T/F 3176 10-01-2014 02:05:00 6 C 6.31 g/m*3 6 C 4.8 km/h
3177 10-01-2014 02:10:00 6.1 C 6.36 g/m*3 6.1 C 3.2 km/h
3178 10-01-2014 02:15:00 6.2 C 6.32 g/m*3 4.98 C 6.4 km/h
3179 10-01-2014 02:20:00 6.2 C 6.32 g/m*3 6.2 C 3.2 km/h
3180 10-01-2014 02:25:00 6.3 C 6.37 g/m*3 6.3 C 3.2 km/h
3181 10-01-2014 02:30:00 6.3 C 6.37 g/m*3 6.3 C 4.8 km/h
3182 10-01-2014 02:35:00 6.3 C 6.37 g/m*3 6.3 C 4.8 km/h
3183 10-01-2014 02:40:00 6.3 C 6.37 g/m*3 6.3 C 4.8 km/h
3184 10-01-2014 02:45:00 6.3 C 6.37 g/m*3 6.3 C 4.8 km/h
3185 10-01-2014 02:50:00 6.3 C 6.37 g/m*3 6.3 C 0 km/h
3186 10-01-2014 02:55:00 6.2 C 6.32 g/m*3 6.2 C 3.2 km/h
3187 10-01-2014 03:00:00 6.2 C 6.32 g/m*3 6.2 C 3.2 km/h
3188 10-01-2014 03:05:00 6.1 C 6.28 g/m*3 4.4 C 8.1 km/h
3189 10-01-2014 03:10:00 6.1 C 6.28 g/m*3 4.4 C 8.1 km/h
3190 10-01-2014 03:15:00 6.1 C 6.36 g/m*3 6.1 C 3.2 km/h
3191 10-01-2014 03:20:00 6.1 C 6.28 g/m*3 6.1 C 4.8 km/h
3192 10-01-2014 03:25:00 6.1 C 6.28 g/m*3 4.86 C 6.4 km/h
3193 10-01-2014 03:30:00 6 C 6.24 g/m*3 6 C 3.2 km/h
3194 10-01-2014 03:35:00 5.8 C 6.16 g/m*3 5.8 C 4.8 km/h
3195 10-01-2014 03:40:00 5.7 C 6.19 g/m*3 5.7 C 3.2 km/h
3196 10-01-2014 03:45:00 5.6 C 6.15 g/m*3 5.6 C 4.8 km/h
3197 10-01-2014 03:50:00 5.5 C 6.11 g/m*3 5.5 C 3.2 km/h
3198 10-01-2014 03:55:00 5.3 C 6.03 g/m*3 5.3 C 3.2 km/h
3199 10-01-2014 04:00:00 5.1 C 6.02 g/m*3 5.1 C 3.2 km/h
3200 10-01-2014 04:05:00 4.9 C 6.01 g/m*3 4.9 C 3.2 km/h
Sensor: Nr:Datum:Temp:Abs-Feuchte:Windchill:Wind:
Aussen-T/F 3201 10-01-2014 04:10:00 4.8 C 5.97 g/m*3 4.8 C 3.2 km/h
3202 10-01-2014 04:15:00 4.7 C 5.93 g/m*3 3.25 C 6.4 km/h
3203 10-01-2014 04:20:00 4.7 C 5.93 g/m*3 4.7 C 4.8 km/h
3204 10-01-2014 04:25:00 4.8 C 5.97 g/m*3 3.36 C 6.4 km/h
3205 10-01-2014 04:30:00 4.8 C 5.97 g/m*3 4.8 C 4.8 km/h
3206 10-01-2014 04:35:00 4.7 C 5.93 g/m*3 4.7 C 3.2 km/h
3207 10-01-2014 04:40:00 4.7 C 5.93 g/m*3 4.7 C 4.8 km/h
3208 10-01-2014 04:45:00 4.8 C 5.9 g/m*3 2.87 C 8.1 km/h
3209 10-01-2014 04:50:00 4.8 C 5.9 g/m*3 4.8 C 4.8 km/h
3210 10-01-2014 04:55:00 4.7 C 5.93 g/m*3 4.7 C 4.8 km/h
3211 10-01-2014 05:00:00 4.6 C 5.89 g/m*3 4.6 C 4.8 km/h
3212 10-01-2014 05:05:00 4.7 C 5.93 g/m*3 4.7 C 4.8 km/h
3213 10-01-2014 05:10:00 4.8 C 5.9 g/m*3 2.49 C 9.7 km/h
3214 10-01-2014 05:15:00 4.7 C 5.86 g/m*3 4.7 C 3.2 km/h
3215 10-01-2014 05:20:00 4.7 C 5.93 g/m*3 3.25 C 6.4 km/h
3216 10-01-2014 05:25:00 4.7 C 5.93 g/m*3 4.7 C 4.8 km/h
3217 10-01-2014 05:30:00 4.7 C 5.93 g/m*3 2.03 C 11.3 km/h
3218 10-01-2014 05:35:00 5.1 C 6.02 g/m*3 2.51 C 11.3 km/h
3219 10-01-2014 05:40:00 5.4 C 6 g/m*3 2.87 C